<?xml version="1.0" encoding="UTF-8" standalone="no" ?>
<gpx xmlns="http://www.topografix.com/GPX/1/1" xmlns:xsi="http://www.w3.org/2001/XMLSchema-instance" xsi:schemaLocation="http://www.topografix.com/GPX/1/1 http://www.topografix.com/GPX/1/1/gpx.xsd" version="1.1" creator="VisuGPX - https://www.visugpx.com">
  <metadata>
    <name>Village de Bédoin-Le Ventoux par les Chemins blancs</name>
  </metadata>
  <trk>
    <name><![CDATA[A FAIRE- Boucle Bédoin-Le Mont Ventoux 60 kms]]></name>
    <trkseg>
      <trkpt lat="44.1253" lon="5.18026">
        <ele>312.9</ele>
        <time>2026-03-26T19:56:54Z</time>
      </trkpt>
      <trkpt lat="44.12525" lon="5.18034">
        <ele>312.5</ele>
        <time>2026-03-26T19:56:55Z</time>
      </trkpt>
      <trkpt lat="44.1253" lon="5.18045">
        <ele>312.5</ele>
        <time>2026-03-26T19:56:57Z</time>
      </trkpt>
      <trkpt lat="44.12614" lon="5.18115">
        <ele>315.3</ele>
        <time>2026-03-26T19:57:14Z</time>
      </trkpt>
      <trkpt lat="44.12626" lon="5.18127">
        <ele>315.9</ele>
        <time>2026-03-26T19:57:17Z</time>
      </trkpt>
      <trkpt lat="44.12629" lon="5.18133">
        <ele>316.2</ele>
        <time>2026-03-26T19:57:18Z</time>
      </trkpt>
      <trkpt lat="44.12645" lon="5.18203">
        <ele>318.9</ele>
        <time>2026-03-26T19:57:27Z</time>
      </trkpt>
      <trkpt lat="44.12646" lon="5.18228">
        <ele>320.1</ele>
        <time>2026-03-26T19:57:31Z</time>
      </trkpt>
      <trkpt lat="44.12641" lon="5.1831">
        <ele>323.3</ele>
        <time>2026-03-26T19:57:41Z</time>
      </trkpt>
      <trkpt lat="44.12647" lon="5.18323">
        <ele>323.8</ele>
        <time>2026-03-26T19:57:43Z</time>
      </trkpt>
      <trkpt lat="44.12679" lon="5.18355">
        <ele>325.8</ele>
        <time>2026-03-26T19:57:50Z</time>
      </trkpt>
      <trkpt lat="44.12688" lon="5.18374">
        <ele>326.7</ele>
        <time>2026-03-26T19:57:53Z</time>
      </trkpt>
      <trkpt lat="44.1269" lon="5.18386">
        <ele>327.2</ele>
        <time>2026-03-26T19:57:55Z</time>
      </trkpt>
      <trkpt lat="44.12688" lon="5.18397">
        <ele>327.4</ele>
        <time>2026-03-26T19:57:56Z</time>
      </trkpt>
      <trkpt lat="44.12677" lon="5.18433">
        <ele>327.9</ele>
        <time>2026-03-26T19:58:01Z</time>
      </trkpt>
      <trkpt lat="44.12659" lon="5.18473">
        <ele>328.4</ele>
        <time>2026-03-26T19:58:07Z</time>
      </trkpt>
      <trkpt lat="44.12648" lon="5.1851">
        <ele>328.7</ele>
        <time>2026-03-26T19:58:12Z</time>
      </trkpt>
      <trkpt lat="44.1264" lon="5.18608">
        <ele>329.5</ele>
        <time>2026-03-26T19:58:25Z</time>
      </trkpt>
      <trkpt lat="44.12652" lon="5.18685">
        <ele>331.3</ele>
        <time>2026-03-26T19:58:35Z</time>
      </trkpt>
      <trkpt lat="44.12657" lon="5.18708">
        <ele>331.7</ele>
        <time>2026-03-26T19:58:38Z</time>
      </trkpt>
      <trkpt lat="44.12666" lon="5.18732">
        <ele>332.1</ele>
        <time>2026-03-26T19:58:41Z</time>
      </trkpt>
      <trkpt lat="44.12689" lon="5.1877">
        <ele>332.3</ele>
        <time>2026-03-26T19:58:48Z</time>
      </trkpt>
      <trkpt lat="44.12705" lon="5.18786">
        <ele>332.4</ele>
        <time>2026-03-26T19:58:51Z</time>
      </trkpt>
      <trkpt lat="44.12725" lon="5.18796">
        <ele>332.5</ele>
        <time>2026-03-26T19:58:55Z</time>
      </trkpt>
      <trkpt lat="44.12798" lon="5.18813">
        <ele>333.6</ele>
        <time>2026-03-26T19:59:08Z</time>
      </trkpt>
      <trkpt lat="44.1282" lon="5.18823">
        <ele>334.3</ele>
        <time>2026-03-26T19:59:12Z</time>
      </trkpt>
      <trkpt lat="44.12846" lon="5.18844">
        <ele>335.3</ele>
        <time>2026-03-26T19:59:18Z</time>
      </trkpt>
      <trkpt lat="44.12859" lon="5.18862">
        <ele>335.6</ele>
        <time>2026-03-26T19:59:21Z</time>
      </trkpt>
      <trkpt lat="44.12885" lon="5.18909">
        <ele>336.6</ele>
        <time>2026-03-26T19:59:28Z</time>
      </trkpt>
      <trkpt lat="44.12936" lon="5.18984">
        <ele>339.4</ele>
        <time>2026-03-26T19:59:42Z</time>
      </trkpt>
      <trkpt lat="44.12941" lon="5.19005">
        <ele>340</ele>
        <time>2026-03-26T19:59:44Z</time>
      </trkpt>
      <trkpt lat="44.12933" lon="5.19066">
        <ele>340.7</ele>
        <time>2026-03-26T19:59:52Z</time>
      </trkpt>
      <trkpt lat="44.12932" lon="5.1909">
        <ele>341</ele>
        <time>2026-03-26T19:59:55Z</time>
      </trkpt>
      <trkpt lat="44.12934" lon="5.19108">
        <ele>341.2</ele>
        <time>2026-03-26T19:59:58Z</time>
      </trkpt>
      <trkpt lat="44.12966" lon="5.19223">
        <ele>342.5</ele>
        <time>2026-03-26T20:00:14Z</time>
      </trkpt>
      <trkpt lat="44.1297" lon="5.19249">
        <ele>342.8</ele>
        <time>2026-03-26T20:00:17Z</time>
      </trkpt>
      <trkpt lat="44.1297" lon="5.19326">
        <ele>343.6</ele>
        <time>2026-03-26T20:00:27Z</time>
      </trkpt>
      <trkpt lat="44.12963" lon="5.19415">
        <ele>344.7</ele>
        <time>2026-03-26T20:00:38Z</time>
      </trkpt>
      <trkpt lat="44.12954" lon="5.19486">
        <ele>346</ele>
        <time>2026-03-26T20:00:47Z</time>
      </trkpt>
      <trkpt lat="44.12944" lon="5.19525">
        <ele>346.6</ele>
        <time>2026-03-26T20:00:53Z</time>
      </trkpt>
      <trkpt lat="44.12868" lon="5.19704">
        <ele>349.3</ele>
        <time>2026-03-26T20:01:19Z</time>
      </trkpt>
      <trkpt lat="44.12868" lon="5.19739">
        <ele>350.2</ele>
        <time>2026-03-26T20:01:24Z</time>
      </trkpt>
      <trkpt lat="44.12877" lon="5.1978">
        <ele>351.6</ele>
        <time>2026-03-26T20:01:29Z</time>
      </trkpt>
      <trkpt lat="44.12876" lon="5.19795">
        <ele>352.3</ele>
        <time>2026-03-26T20:01:31Z</time>
      </trkpt>
      <trkpt lat="44.12879" lon="5.19805">
        <ele>352.8</ele>
        <time>2026-03-26T20:01:32Z</time>
      </trkpt>
      <trkpt lat="44.12873" lon="5.19814">
        <ele>352.9</ele>
        <time>2026-03-26T20:01:34Z</time>
      </trkpt>
      <trkpt lat="44.12868" lon="5.19816">
        <ele>352.9</ele>
        <time>2026-03-26T20:01:35Z</time>
      </trkpt>
      <trkpt lat="44.12841" lon="5.19814">
        <ele>353.1</ele>
        <time>2026-03-26T20:01:40Z</time>
      </trkpt>
      <trkpt lat="44.12824" lon="5.19823">
        <ele>353.3</ele>
        <time>2026-03-26T20:01:43Z</time>
      </trkpt>
      <trkpt lat="44.12802" lon="5.19827">
        <ele>353.7</ele>
        <time>2026-03-26T20:01:47Z</time>
      </trkpt>
      <trkpt lat="44.12781" lon="5.19835">
        <ele>353.9</ele>
        <time>2026-03-26T20:01:51Z</time>
      </trkpt>
      <trkpt lat="44.12696" lon="5.19852">
        <ele>354.9</ele>
        <time>2026-03-26T20:02:06Z</time>
      </trkpt>
      <trkpt lat="44.1268" lon="5.19857">
        <ele>355.1</ele>
        <time>2026-03-26T20:02:09Z</time>
      </trkpt>
      <trkpt lat="44.12672" lon="5.19863">
        <ele>355.2</ele>
        <time>2026-03-26T20:02:11Z</time>
      </trkpt>
      <trkpt lat="44.12654" lon="5.1987">
        <ele>355.4</ele>
        <time>2026-03-26T20:02:14Z</time>
      </trkpt>
      <trkpt lat="44.12632" lon="5.19885">
        <ele>355.3</ele>
        <time>2026-03-26T20:02:18Z</time>
      </trkpt>
      <trkpt lat="44.12605" lon="5.19896">
        <ele>355.2</ele>
        <time>2026-03-26T20:02:23Z</time>
      </trkpt>
      <trkpt lat="44.12597" lon="5.19901">
        <ele>355.3</ele>
        <time>2026-03-26T20:02:25Z</time>
      </trkpt>
      <trkpt lat="44.12569" lon="5.19945">
        <ele>355.5</ele>
        <time>2026-03-26T20:02:32Z</time>
      </trkpt>
      <trkpt lat="44.12564" lon="5.19971">
        <ele>355.6</ele>
        <time>2026-03-26T20:02:36Z</time>
      </trkpt>
      <trkpt lat="44.12554" lon="5.19972">
        <ele>355.7</ele>
        <time>2026-03-26T20:02:38Z</time>
      </trkpt>
      <trkpt lat="44.1252" lon="5.1999">
        <ele>356.3</ele>
        <time>2026-03-26T20:02:44Z</time>
      </trkpt>
      <trkpt lat="44.12483" lon="5.20016">
        <ele>357.3</ele>
        <time>2026-03-26T20:02:51Z</time>
      </trkpt>
      <trkpt lat="44.1247" lon="5.20022">
        <ele>357.7</ele>
        <time>2026-03-26T20:02:54Z</time>
      </trkpt>
      <trkpt lat="44.12457" lon="5.20026">
        <ele>358</ele>
        <time>2026-03-26T20:02:56Z</time>
      </trkpt>
      <trkpt lat="44.12437" lon="5.20028">
        <ele>358.5</ele>
        <time>2026-03-26T20:03:00Z</time>
      </trkpt>
      <trkpt lat="44.12431" lon="5.20034">
        <ele>358.7</ele>
        <time>2026-03-26T20:03:01Z</time>
      </trkpt>
      <trkpt lat="44.12409" lon="5.20073">
        <ele>359.7</ele>
        <time>2026-03-26T20:03:08Z</time>
      </trkpt>
      <trkpt lat="44.12401" lon="5.20093">
        <ele>360.3</ele>
        <time>2026-03-26T20:03:10Z</time>
      </trkpt>
      <trkpt lat="44.12393" lon="5.20096">
        <ele>360.6</ele>
        <time>2026-03-26T20:03:12Z</time>
      </trkpt>
      <trkpt lat="44.12389" lon="5.20101">
        <ele>360.8</ele>
        <time>2026-03-26T20:03:13Z</time>
      </trkpt>
      <trkpt lat="44.12371" lon="5.20108">
        <ele>361.5</ele>
        <time>2026-03-26T20:03:16Z</time>
      </trkpt>
      <trkpt lat="44.12347" lon="5.20112">
        <ele>362.5</ele>
        <time>2026-03-26T20:03:21Z</time>
      </trkpt>
      <trkpt lat="44.12323" lon="5.20121">
        <ele>363.4</ele>
        <time>2026-03-26T20:03:25Z</time>
      </trkpt>
      <trkpt lat="44.12285" lon="5.20131">
        <ele>365</ele>
        <time>2026-03-26T20:03:32Z</time>
      </trkpt>
      <trkpt lat="44.12278" lon="5.20136">
        <ele>365.4</ele>
        <time>2026-03-26T20:03:33Z</time>
      </trkpt>
      <trkpt lat="44.12274" lon="5.20143">
        <ele>365.7</ele>
        <time>2026-03-26T20:03:34Z</time>
      </trkpt>
      <trkpt lat="44.12268" lon="5.20167">
        <ele>366.7</ele>
        <time>2026-03-26T20:03:38Z</time>
      </trkpt>
      <trkpt lat="44.12268" lon="5.2018">
        <ele>367.2</ele>
        <time>2026-03-26T20:03:39Z</time>
      </trkpt>
      <trkpt lat="44.1231" lon="5.20267">
        <ele>372.9</ele>
        <time>2026-03-26T20:03:53Z</time>
      </trkpt>
      <trkpt lat="44.12327" lon="5.20291">
        <ele>375.3</ele>
        <time>2026-03-26T20:03:57Z</time>
      </trkpt>
      <trkpt lat="44.12335" lon="5.2031">
        <ele>377</ele>
        <time>2026-03-26T20:04:00Z</time>
      </trkpt>
      <trkpt lat="44.12347" lon="5.20327">
        <ele>379.2</ele>
        <time>2026-03-26T20:04:03Z</time>
      </trkpt>
      <trkpt lat="44.12353" lon="5.20352">
        <ele>381.9</ele>
        <time>2026-03-26T20:04:06Z</time>
      </trkpt>
      <trkpt lat="44.12374" lon="5.2041">
        <ele>389.6</ele>
        <time>2026-03-26T20:04:14Z</time>
      </trkpt>
      <trkpt lat="44.12375" lon="5.20423">
        <ele>391</ele>
        <time>2026-03-26T20:04:16Z</time>
      </trkpt>
      <trkpt lat="44.1238" lon="5.20433">
        <ele>392</ele>
        <time>2026-03-26T20:04:18Z</time>
      </trkpt>
      <trkpt lat="44.1239" lon="5.20468">
        <ele>393.9</ele>
        <time>2026-03-26T20:04:23Z</time>
      </trkpt>
      <trkpt lat="44.12404" lon="5.20501">
        <ele>394.8</ele>
        <time>2026-03-26T20:04:27Z</time>
      </trkpt>
      <trkpt lat="44.12412" lon="5.20513">
        <ele>394.5</ele>
        <time>2026-03-26T20:04:30Z</time>
      </trkpt>
      <trkpt lat="44.12415" lon="5.20534">
        <ele>393.5</ele>
        <time>2026-03-26T20:04:32Z</time>
      </trkpt>
      <trkpt lat="44.12426" lon="5.20536">
        <ele>392.4</ele>
        <time>2026-03-26T20:04:34Z</time>
      </trkpt>
      <trkpt lat="44.12452" lon="5.20525">
        <ele>389.8</ele>
        <time>2026-03-26T20:04:39Z</time>
      </trkpt>
      <trkpt lat="44.12469" lon="5.20528">
        <ele>388.8</ele>
        <time>2026-03-26T20:04:42Z</time>
      </trkpt>
      <trkpt lat="44.12496" lon="5.20546">
        <ele>388.1</ele>
        <time>2026-03-26T20:04:47Z</time>
      </trkpt>
      <trkpt lat="44.12507" lon="5.20557">
        <ele>388</ele>
        <time>2026-03-26T20:04:50Z</time>
      </trkpt>
      <trkpt lat="44.12519" lon="5.2058">
        <ele>388.4</ele>
        <time>2026-03-26T20:04:53Z</time>
      </trkpt>
      <trkpt lat="44.12522" lon="5.20593">
        <ele>388.6</ele>
        <time>2026-03-26T20:04:55Z</time>
      </trkpt>
      <trkpt lat="44.12531" lon="5.20605">
        <ele>388.9</ele>
        <time>2026-03-26T20:04:57Z</time>
      </trkpt>
      <trkpt lat="44.12567" lon="5.20619">
        <ele>389.4</ele>
        <time>2026-03-26T20:05:04Z</time>
      </trkpt>
      <trkpt lat="44.12579" lon="5.20631">
        <ele>389.6</ele>
        <time>2026-03-26T20:05:07Z</time>
      </trkpt>
      <trkpt lat="44.12599" lon="5.20645">
        <ele>390.1</ele>
        <time>2026-03-26T20:05:11Z</time>
      </trkpt>
      <trkpt lat="44.12616" lon="5.2065">
        <ele>390.5</ele>
        <time>2026-03-26T20:05:14Z</time>
      </trkpt>
      <trkpt lat="44.1263" lon="5.2065">
        <ele>390.8</ele>
        <time>2026-03-26T20:05:16Z</time>
      </trkpt>
      <trkpt lat="44.12658" lon="5.20658">
        <ele>391.4</ele>
        <time>2026-03-26T20:05:21Z</time>
      </trkpt>
      <trkpt lat="44.12667" lon="5.20661">
        <ele>391.8</ele>
        <time>2026-03-26T20:05:23Z</time>
      </trkpt>
      <trkpt lat="44.12672" lon="5.20669">
        <ele>392.2</ele>
        <time>2026-03-26T20:05:24Z</time>
      </trkpt>
      <trkpt lat="44.12674" lon="5.20679">
        <ele>392.3</ele>
        <time>2026-03-26T20:05:26Z</time>
      </trkpt>
      <trkpt lat="44.12662" lon="5.2071">
        <ele>392.6</ele>
        <time>2026-03-26T20:05:30Z</time>
      </trkpt>
      <trkpt lat="44.12657" lon="5.20734">
        <ele>393</ele>
        <time>2026-03-26T20:05:33Z</time>
      </trkpt>
      <trkpt lat="44.12649" lon="5.20755">
        <ele>393.4</ele>
        <time>2026-03-26T20:05:36Z</time>
      </trkpt>
      <trkpt lat="44.12647" lon="5.20781">
        <ele>394</ele>
        <time>2026-03-26T20:05:40Z</time>
      </trkpt>
      <trkpt lat="44.12638" lon="5.20818">
        <ele>395.6</ele>
        <time>2026-03-26T20:05:45Z</time>
      </trkpt>
      <trkpt lat="44.1263" lon="5.20827">
        <ele>396.3</ele>
        <time>2026-03-26T20:05:47Z</time>
      </trkpt>
      <trkpt lat="44.12616" lon="5.20858">
        <ele>397.9</ele>
        <time>2026-03-26T20:05:51Z</time>
      </trkpt>
      <trkpt lat="44.12561" lon="5.2094">
        <ele>401.4</ele>
        <time>2026-03-26T20:06:06Z</time>
      </trkpt>
      <trkpt lat="44.12556" lon="5.20951">
        <ele>401.8</ele>
        <time>2026-03-26T20:06:07Z</time>
      </trkpt>
      <trkpt lat="44.1255" lon="5.21008">
        <ele>402.7</ele>
        <time>2026-03-26T20:06:15Z</time>
      </trkpt>
      <trkpt lat="44.12519" lon="5.21072">
        <ele>403.9</ele>
        <time>2026-03-26T20:06:24Z</time>
      </trkpt>
      <trkpt lat="44.12555" lon="5.21105">
        <ele>405.5</ele>
        <time>2026-03-26T20:06:32Z</time>
      </trkpt>
      <trkpt lat="44.12584" lon="5.21154">
        <ele>408.4</ele>
        <time>2026-03-26T20:06:40Z</time>
      </trkpt>
      <trkpt lat="44.12595" lon="5.21184">
        <ele>410.3</ele>
        <time>2026-03-26T20:06:45Z</time>
      </trkpt>
      <trkpt lat="44.12588" lon="5.21195">
        <ele>411</ele>
        <time>2026-03-26T20:06:46Z</time>
      </trkpt>
      <trkpt lat="44.12558" lon="5.21226">
        <ele>413.6</ele>
        <time>2026-03-26T20:06:53Z</time>
      </trkpt>
      <trkpt lat="44.12532" lon="5.21273">
        <ele>415.9</ele>
        <time>2026-03-26T20:07:01Z</time>
      </trkpt>
      <trkpt lat="44.12482" lon="5.21323">
        <ele>418</ele>
        <time>2026-03-26T20:07:12Z</time>
      </trkpt>
      <trkpt lat="44.12552" lon="5.21479">
        <ele>426.3</ele>
        <time>2026-03-26T20:07:35Z</time>
      </trkpt>
      <trkpt lat="44.12551" lon="5.21486">
        <ele>426.5</ele>
        <time>2026-03-26T20:07:36Z</time>
      </trkpt>
      <trkpt lat="44.12547" lon="5.21491">
        <ele>426.6</ele>
        <time>2026-03-26T20:07:37Z</time>
      </trkpt>
      <trkpt lat="44.12507" lon="5.21514">
        <ele>427</ele>
        <time>2026-03-26T20:07:45Z</time>
      </trkpt>
      <trkpt lat="44.12539" lon="5.21619">
        <ele>434.2</ele>
        <time>2026-03-26T20:07:59Z</time>
      </trkpt>
      <trkpt lat="44.12545" lon="5.21666">
        <ele>437.2</ele>
        <time>2026-03-26T20:08:05Z</time>
      </trkpt>
      <trkpt lat="44.12558" lon="5.21709">
        <ele>439.9</ele>
        <time>2026-03-26T20:08:11Z</time>
      </trkpt>
      <trkpt lat="44.12627" lon="5.21847">
        <ele>451</ele>
        <time>2026-03-26T20:08:33Z</time>
      </trkpt>
      <trkpt lat="44.12681" lon="5.21963">
        <ele>460.5</ele>
        <time>2026-03-26T20:08:50Z</time>
      </trkpt>
      <trkpt lat="44.12753" lon="5.22278">
        <ele>485.6</ele>
        <time>2026-03-26T20:09:33Z</time>
      </trkpt>
      <trkpt lat="44.12774" lon="5.22398">
        <ele>494.7</ele>
        <time>2026-03-26T20:09:48Z</time>
      </trkpt>
      <trkpt lat="44.12777" lon="5.22421">
        <ele>496.1</ele>
        <time>2026-03-26T20:09:51Z</time>
      </trkpt>
      <trkpt lat="44.12778" lon="5.22462">
        <ele>498.7</ele>
        <time>2026-03-26T20:09:57Z</time>
      </trkpt>
      <trkpt lat="44.12785" lon="5.22462">
        <ele>499.7</ele>
        <time>2026-03-26T20:09:58Z</time>
      </trkpt>
      <trkpt lat="44.1279" lon="5.22455">
        <ele>500.8</ele>
        <time>2026-03-26T20:09:59Z</time>
      </trkpt>
      <trkpt lat="44.12798" lon="5.2245">
        <ele>502</ele>
        <time>2026-03-26T20:10:01Z</time>
      </trkpt>
      <trkpt lat="44.12812" lon="5.22449">
        <ele>503.9</ele>
        <time>2026-03-26T20:10:03Z</time>
      </trkpt>
      <trkpt lat="44.12819" lon="5.22451">
        <ele>504.8</ele>
        <time>2026-03-26T20:10:04Z</time>
      </trkpt>
      <trkpt lat="44.1283" lon="5.22459">
        <ele>506.5</ele>
        <time>2026-03-26T20:10:07Z</time>
      </trkpt>
      <trkpt lat="44.12835" lon="5.22467">
        <ele>507.6</ele>
        <time>2026-03-26T20:10:08Z</time>
      </trkpt>
      <trkpt lat="44.12838" lon="5.2248">
        <ele>508.9</ele>
        <time>2026-03-26T20:10:10Z</time>
      </trkpt>
      <trkpt lat="44.128" lon="5.22568">
        <ele>516</ele>
        <time>2026-03-26T20:10:23Z</time>
      </trkpt>
      <trkpt lat="44.12744" lon="5.22687">
        <ele>521.4</ele>
        <time>2026-03-26T20:10:41Z</time>
      </trkpt>
      <trkpt lat="44.12728" lon="5.22713">
        <ele>520.2</ele>
        <time>2026-03-26T20:10:45Z</time>
      </trkpt>
      <trkpt lat="44.12725" lon="5.22726">
        <ele>519.9</ele>
        <time>2026-03-26T20:10:47Z</time>
      </trkpt>
      <trkpt lat="44.12714" lon="5.22746">
        <ele>519.5</ele>
        <time>2026-03-26T20:10:50Z</time>
      </trkpt>
      <trkpt lat="44.12689" lon="5.22812">
        <ele>520.3</ele>
        <time>2026-03-26T20:11:00Z</time>
      </trkpt>
      <trkpt lat="44.12662" lon="5.22906">
        <ele>524.1</ele>
        <time>2026-03-26T20:11:13Z</time>
      </trkpt>
      <trkpt lat="44.12621" lon="5.22928">
        <ele>523</ele>
        <time>2026-03-26T20:11:21Z</time>
      </trkpt>
      <trkpt lat="44.12615" lon="5.2293">
        <ele>522.9</ele>
        <time>2026-03-26T20:11:22Z</time>
      </trkpt>
      <trkpt lat="44.12606" lon="5.22927">
        <ele>522.8</ele>
        <time>2026-03-26T20:11:23Z</time>
      </trkpt>
      <trkpt lat="44.12579" lon="5.22905">
        <ele>522.6</ele>
        <time>2026-03-26T20:11:29Z</time>
      </trkpt>
      <trkpt lat="44.12566" lon="5.22869">
        <ele>523.1</ele>
        <time>2026-03-26T20:11:34Z</time>
      </trkpt>
      <trkpt lat="44.12563" lon="5.22852">
        <ele>523.1</ele>
        <time>2026-03-26T20:11:36Z</time>
      </trkpt>
      <trkpt lat="44.12552" lon="5.22842">
        <ele>522.7</ele>
        <time>2026-03-26T20:11:39Z</time>
      </trkpt>
      <trkpt lat="44.12545" lon="5.22843">
        <ele>522.3</ele>
        <time>2026-03-26T20:11:40Z</time>
      </trkpt>
      <trkpt lat="44.12537" lon="5.2285">
        <ele>521.8</ele>
        <time>2026-03-26T20:11:42Z</time>
      </trkpt>
      <trkpt lat="44.12535" lon="5.22849">
        <ele>521.6</ele>
        <time>2026-03-26T20:11:42Z</time>
      </trkpt>
      <trkpt lat="44.12499" lon="5.22867">
        <ele>520.1</ele>
        <time>2026-03-26T20:11:49Z</time>
      </trkpt>
      <trkpt lat="44.12482" lon="5.2288">
        <ele>520.1</ele>
        <time>2026-03-26T20:11:52Z</time>
      </trkpt>
      <trkpt lat="44.12415" lon="5.22979">
        <ele>515.7</ele>
        <time>2026-03-26T20:12:10Z</time>
      </trkpt>
      <trkpt lat="44.12396" lon="5.23013">
        <ele>514.2</ele>
        <time>2026-03-26T20:12:15Z</time>
      </trkpt>
      <trkpt lat="44.1237" lon="5.23049">
        <ele>514.9</ele>
        <time>2026-03-26T20:12:22Z</time>
      </trkpt>
      <trkpt lat="44.12337" lon="5.23104">
        <ele>514.6</ele>
        <time>2026-03-26T20:12:31Z</time>
      </trkpt>
      <trkpt lat="44.12322" lon="5.23115">
        <ele>514.5</ele>
        <time>2026-03-26T20:12:34Z</time>
      </trkpt>
      <trkpt lat="44.12311" lon="5.2313">
        <ele>515.1</ele>
        <time>2026-03-26T20:12:37Z</time>
      </trkpt>
      <trkpt lat="44.12289" lon="5.23171">
        <ele>519.3</ele>
        <time>2026-03-26T20:12:43Z</time>
      </trkpt>
      <trkpt lat="44.12274" lon="5.23189">
        <ele>521.9</ele>
        <time>2026-03-26T20:12:47Z</time>
      </trkpt>
      <trkpt lat="44.1223" lon="5.23263">
        <ele>525.3</ele>
        <time>2026-03-26T20:12:59Z</time>
      </trkpt>
      <trkpt lat="44.12211" lon="5.23283">
        <ele>524.4</ele>
        <time>2026-03-26T20:13:03Z</time>
      </trkpt>
      <trkpt lat="44.12176" lon="5.23312">
        <ele>524.7</ele>
        <time>2026-03-26T20:13:10Z</time>
      </trkpt>
      <trkpt lat="44.12136" lon="5.23362">
        <ele>531.1</ele>
        <time>2026-03-26T20:13:20Z</time>
      </trkpt>
      <trkpt lat="44.12118" lon="5.23394">
        <ele>534.9</ele>
        <time>2026-03-26T20:13:25Z</time>
      </trkpt>
      <trkpt lat="44.12088" lon="5.23421">
        <ele>538.4</ele>
        <time>2026-03-26T20:13:32Z</time>
      </trkpt>
      <trkpt lat="44.12039" lon="5.23473">
        <ele>541.4</ele>
        <time>2026-03-26T20:13:42Z</time>
      </trkpt>
      <trkpt lat="44.12014" lon="5.23508">
        <ele>543.4</ele>
        <time>2026-03-26T20:13:49Z</time>
      </trkpt>
      <trkpt lat="44.11992" lon="5.23545">
        <ele>545.7</ele>
        <time>2026-03-26T20:13:55Z</time>
      </trkpt>
      <trkpt lat="44.11979" lon="5.23559">
        <ele>546.8</ele>
        <time>2026-03-26T20:13:58Z</time>
      </trkpt>
      <trkpt lat="44.1197" lon="5.23575">
        <ele>547.8</ele>
        <time>2026-03-26T20:14:00Z</time>
      </trkpt>
      <trkpt lat="44.11947" lon="5.23606">
        <ele>549.9</ele>
        <time>2026-03-26T20:14:06Z</time>
      </trkpt>
      <trkpt lat="44.11931" lon="5.23635">
        <ele>551.5</ele>
        <time>2026-03-26T20:14:11Z</time>
      </trkpt>
      <trkpt lat="44.11907" lon="5.23671">
        <ele>551.8</ele>
        <time>2026-03-26T20:14:17Z</time>
      </trkpt>
      <trkpt lat="44.11877" lon="5.23728">
        <ele>549.7</ele>
        <time>2026-03-26T20:14:26Z</time>
      </trkpt>
      <trkpt lat="44.11844" lon="5.23778">
        <ele>547.7</ele>
        <time>2026-03-26T20:14:35Z</time>
      </trkpt>
      <trkpt lat="44.11833" lon="5.23806">
        <ele>546.3</ele>
        <time>2026-03-26T20:14:39Z</time>
      </trkpt>
      <trkpt lat="44.11813" lon="5.23836">
        <ele>545.3</ele>
        <time>2026-03-26T20:14:44Z</time>
      </trkpt>
      <trkpt lat="44.11769" lon="5.23892">
        <ele>544.1</ele>
        <time>2026-03-26T20:14:55Z</time>
      </trkpt>
      <trkpt lat="44.11744" lon="5.23935">
        <ele>544.1</ele>
        <time>2026-03-26T20:15:02Z</time>
      </trkpt>
      <trkpt lat="44.11732" lon="5.23945">
        <ele>543.7</ele>
        <time>2026-03-26T20:15:04Z</time>
      </trkpt>
      <trkpt lat="44.11722" lon="5.23949">
        <ele>543.2</ele>
        <time>2026-03-26T20:15:06Z</time>
      </trkpt>
      <trkpt lat="44.11637" lon="5.23973">
        <ele>536</ele>
        <time>2026-03-26T20:15:22Z</time>
      </trkpt>
      <trkpt lat="44.1163" lon="5.23977">
        <ele>535.3</ele>
        <time>2026-03-26T20:15:23Z</time>
      </trkpt>
      <trkpt lat="44.116" lon="5.24008">
        <ele>532.1</ele>
        <time>2026-03-26T20:15:30Z</time>
      </trkpt>
      <trkpt lat="44.11581" lon="5.2401">
        <ele>531.4</ele>
        <time>2026-03-26T20:15:33Z</time>
      </trkpt>
      <trkpt lat="44.1157" lon="5.24017">
        <ele>531.4</ele>
        <time>2026-03-26T20:15:35Z</time>
      </trkpt>
      <trkpt lat="44.1155" lon="5.24023">
        <ele>531.4</ele>
        <time>2026-03-26T20:15:39Z</time>
      </trkpt>
      <trkpt lat="44.11514" lon="5.24028">
        <ele>531.8</ele>
        <time>2026-03-26T20:15:45Z</time>
      </trkpt>
      <trkpt lat="44.11489" lon="5.24026">
        <ele>533.1</ele>
        <time>2026-03-26T20:15:50Z</time>
      </trkpt>
      <trkpt lat="44.11424" lon="5.2398">
        <ele>536</ele>
        <time>2026-03-26T20:16:03Z</time>
      </trkpt>
      <trkpt lat="44.11385" lon="5.23968">
        <ele>538.3</ele>
        <time>2026-03-26T20:16:10Z</time>
      </trkpt>
      <trkpt lat="44.11363" lon="5.23966">
        <ele>540.2</ele>
        <time>2026-03-26T20:16:14Z</time>
      </trkpt>
      <trkpt lat="44.11357" lon="5.23968">
        <ele>540.8</ele>
        <time>2026-03-26T20:16:15Z</time>
      </trkpt>
      <trkpt lat="44.11351" lon="5.23974">
        <ele>541.4</ele>
        <time>2026-03-26T20:16:16Z</time>
      </trkpt>
      <trkpt lat="44.11349" lon="5.2398">
        <ele>541.8</ele>
        <time>2026-03-26T20:16:17Z</time>
      </trkpt>
      <trkpt lat="44.11353" lon="5.2399">
        <ele>542.4</ele>
        <time>2026-03-26T20:16:18Z</time>
      </trkpt>
      <trkpt lat="44.11392" lon="5.24011">
        <ele>545.7</ele>
        <time>2026-03-26T20:16:26Z</time>
      </trkpt>
      <trkpt lat="44.11408" lon="5.24026">
        <ele>547.6</ele>
        <time>2026-03-26T20:16:29Z</time>
      </trkpt>
      <trkpt lat="44.11477" lon="5.24129">
        <ele>556.8</ele>
        <time>2026-03-26T20:16:47Z</time>
      </trkpt>
      <trkpt lat="44.11507" lon="5.24161">
        <ele>560.4</ele>
        <time>2026-03-26T20:16:54Z</time>
      </trkpt>
      <trkpt lat="44.11589" lon="5.24222">
        <ele>569.8</ele>
        <time>2026-03-26T20:17:10Z</time>
      </trkpt>
      <trkpt lat="44.11609" lon="5.24249">
        <ele>573.1</ele>
        <time>2026-03-26T20:17:15Z</time>
      </trkpt>
      <trkpt lat="44.11613" lon="5.24259">
        <ele>574.1</ele>
        <time>2026-03-26T20:17:17Z</time>
      </trkpt>
      <trkpt lat="44.11613" lon="5.24269">
        <ele>575</ele>
        <time>2026-03-26T20:17:18Z</time>
      </trkpt>
      <trkpt lat="44.11571" lon="5.24338">
        <ele>582.5</ele>
        <time>2026-03-26T20:17:30Z</time>
      </trkpt>
      <trkpt lat="44.11549" lon="5.24378">
        <ele>586.4</ele>
        <time>2026-03-26T20:17:36Z</time>
      </trkpt>
      <trkpt lat="44.11543" lon="5.24394">
        <ele>587.6</ele>
        <time>2026-03-26T20:17:38Z</time>
      </trkpt>
      <trkpt lat="44.11544" lon="5.24421">
        <ele>589.2</ele>
        <time>2026-03-26T20:17:42Z</time>
      </trkpt>
      <trkpt lat="44.11547" lon="5.24431">
        <ele>589.9</ele>
        <time>2026-03-26T20:17:43Z</time>
      </trkpt>
      <trkpt lat="44.11564" lon="5.24456">
        <ele>592</ele>
        <time>2026-03-26T20:17:48Z</time>
      </trkpt>
      <trkpt lat="44.11607" lon="5.24507">
        <ele>596.8</ele>
        <time>2026-03-26T20:17:58Z</time>
      </trkpt>
      <trkpt lat="44.11771" lon="5.2469">
        <ele>617.5</ele>
        <time>2026-03-26T20:18:35Z</time>
      </trkpt>
      <trkpt lat="44.11883" lon="5.2479">
        <ele>633.3</ele>
        <time>2026-03-26T20:18:59Z</time>
      </trkpt>
      <trkpt lat="44.11895" lon="5.24795">
        <ele>635</ele>
        <time>2026-03-26T20:19:01Z</time>
      </trkpt>
      <trkpt lat="44.1194" lon="5.24805">
        <ele>640.3</ele>
        <time>2026-03-26T20:19:09Z</time>
      </trkpt>
      <trkpt lat="44.11949" lon="5.24811">
        <ele>641.4</ele>
        <time>2026-03-26T20:19:11Z</time>
      </trkpt>
      <trkpt lat="44.11976" lon="5.24838">
        <ele>645.2</ele>
        <time>2026-03-26T20:19:17Z</time>
      </trkpt>
      <trkpt lat="44.11999" lon="5.24853">
        <ele>648.3</ele>
        <time>2026-03-26T20:19:21Z</time>
      </trkpt>
      <trkpt lat="44.12099" lon="5.24876">
        <ele>659.9</ele>
        <time>2026-03-26T20:19:39Z</time>
      </trkpt>
      <trkpt lat="44.12107" lon="5.2488">
        <ele>660.8</ele>
        <time>2026-03-26T20:19:41Z</time>
      </trkpt>
      <trkpt lat="44.12112" lon="5.24884">
        <ele>661.4</ele>
        <time>2026-03-26T20:19:42Z</time>
      </trkpt>
      <trkpt lat="44.12116" lon="5.24893">
        <ele>662.2</ele>
        <time>2026-03-26T20:19:43Z</time>
      </trkpt>
      <trkpt lat="44.12126" lon="5.24926">
        <ele>665.2</ele>
        <time>2026-03-26T20:19:48Z</time>
      </trkpt>
      <trkpt lat="44.12136" lon="5.24935">
        <ele>666.8</ele>
        <time>2026-03-26T20:19:50Z</time>
      </trkpt>
      <trkpt lat="44.1215" lon="5.24938">
        <ele>668.6</ele>
        <time>2026-03-26T20:19:52Z</time>
      </trkpt>
      <trkpt lat="44.1216" lon="5.24935">
        <ele>669.8</ele>
        <time>2026-03-26T20:19:54Z</time>
      </trkpt>
      <trkpt lat="44.12174" lon="5.24922">
        <ele>671.5</ele>
        <time>2026-03-26T20:19:57Z</time>
      </trkpt>
      <trkpt lat="44.12197" lon="5.24912">
        <ele>673.9</ele>
        <time>2026-03-26T20:20:02Z</time>
      </trkpt>
      <trkpt lat="44.12211" lon="5.24916">
        <ele>675.3</ele>
        <time>2026-03-26T20:20:04Z</time>
      </trkpt>
      <trkpt lat="44.12222" lon="5.24924">
        <ele>676.5</ele>
        <time>2026-03-26T20:20:06Z</time>
      </trkpt>
      <trkpt lat="44.12445" lon="5.25307">
        <ele>711</ele>
        <time>2026-03-26T20:21:09Z</time>
      </trkpt>
      <trkpt lat="44.12462" lon="5.2534">
        <ele>714.1</ele>
        <time>2026-03-26T20:21:15Z</time>
      </trkpt>
      <trkpt lat="44.12467" lon="5.2536">
        <ele>715.8</ele>
        <time>2026-03-26T20:21:17Z</time>
      </trkpt>
      <trkpt lat="44.12466" lon="5.2553">
        <ele>729.2</ele>
        <time>2026-03-26T20:21:39Z</time>
      </trkpt>
      <trkpt lat="44.12469" lon="5.25573">
        <ele>732.8</ele>
        <time>2026-03-26T20:21:44Z</time>
      </trkpt>
      <trkpt lat="44.12515" lon="5.25773">
        <ele>750</ele>
        <time>2026-03-26T20:22:11Z</time>
      </trkpt>
      <trkpt lat="44.12515" lon="5.258">
        <ele>752.3</ele>
        <time>2026-03-26T20:22:15Z</time>
      </trkpt>
      <trkpt lat="44.12509" lon="5.25821">
        <ele>754.2</ele>
        <time>2026-03-26T20:22:18Z</time>
      </trkpt>
      <trkpt lat="44.12483" lon="5.25861">
        <ele>758.9</ele>
        <time>2026-03-26T20:22:24Z</time>
      </trkpt>
      <trkpt lat="44.12449" lon="5.25899">
        <ele>764.2</ele>
        <time>2026-03-26T20:22:32Z</time>
      </trkpt>
      <trkpt lat="44.12439" lon="5.25917">
        <ele>766</ele>
        <time>2026-03-26T20:22:35Z</time>
      </trkpt>
      <trkpt lat="44.12435" lon="5.25938">
        <ele>767.6</ele>
        <time>2026-03-26T20:22:38Z</time>
      </trkpt>
      <trkpt lat="44.12428" lon="5.26037">
        <ele>775.3</ele>
        <time>2026-03-26T20:22:51Z</time>
      </trkpt>
      <trkpt lat="44.12429" lon="5.2606">
        <ele>777.3</ele>
        <time>2026-03-26T20:22:54Z</time>
      </trkpt>
      <trkpt lat="44.12437" lon="5.26099">
        <ele>780.9</ele>
        <time>2026-03-26T20:22:59Z</time>
      </trkpt>
      <trkpt lat="44.12452" lon="5.26133">
        <ele>784.2</ele>
        <time>2026-03-26T20:23:04Z</time>
      </trkpt>
      <trkpt lat="44.12456" lon="5.26151">
        <ele>785.7</ele>
        <time>2026-03-26T20:23:06Z</time>
      </trkpt>
      <trkpt lat="44.12475" lon="5.26138">
        <ele>787.7</ele>
        <time>2026-03-26T20:23:10Z</time>
      </trkpt>
      <trkpt lat="44.12482" lon="5.26125">
        <ele>788.6</ele>
        <time>2026-03-26T20:23:12Z</time>
      </trkpt>
      <trkpt lat="44.12492" lon="5.26091">
        <ele>791.1</ele>
        <time>2026-03-26T20:23:17Z</time>
      </trkpt>
      <trkpt lat="44.125" lon="5.26052">
        <ele>793.7</ele>
        <time>2026-03-26T20:23:22Z</time>
      </trkpt>
      <trkpt lat="44.1251" lon="5.26037">
        <ele>795</ele>
        <time>2026-03-26T20:23:25Z</time>
      </trkpt>
      <trkpt lat="44.12546" lon="5.26006">
        <ele>798.2</ele>
        <time>2026-03-26T20:23:32Z</time>
      </trkpt>
      <trkpt lat="44.1256" lon="5.25989">
        <ele>799.5</ele>
        <time>2026-03-26T20:23:35Z</time>
      </trkpt>
      <trkpt lat="44.12582" lon="5.25942">
        <ele>802.8</ele>
        <time>2026-03-26T20:23:43Z</time>
      </trkpt>
      <trkpt lat="44.12599" lon="5.2589">
        <ele>806.3</ele>
        <time>2026-03-26T20:23:50Z</time>
      </trkpt>
      <trkpt lat="44.12612" lon="5.25863">
        <ele>808.2</ele>
        <time>2026-03-26T20:23:54Z</time>
      </trkpt>
      <trkpt lat="44.12668" lon="5.25786">
        <ele>813.2</ele>
        <time>2026-03-26T20:24:08Z</time>
      </trkpt>
      <trkpt lat="44.12796" lon="5.25638">
        <ele>818.1</ele>
        <time>2026-03-26T20:24:38Z</time>
      </trkpt>
      <trkpt lat="44.12823" lon="5.25617">
        <ele>819.1</ele>
        <time>2026-03-26T20:24:43Z</time>
      </trkpt>
      <trkpt lat="44.12837" lon="5.2561">
        <ele>819.6</ele>
        <time>2026-03-26T20:24:46Z</time>
      </trkpt>
      <trkpt lat="44.12851" lon="5.25607">
        <ele>820</ele>
        <time>2026-03-26T20:24:48Z</time>
      </trkpt>
      <trkpt lat="44.12885" lon="5.25615">
        <ele>820.8</ele>
        <time>2026-03-26T20:24:54Z</time>
      </trkpt>
      <trkpt lat="44.12919" lon="5.25631">
        <ele>821.6</ele>
        <time>2026-03-26T20:25:01Z</time>
      </trkpt>
      <trkpt lat="44.12954" lon="5.25653">
        <ele>822.8</ele>
        <time>2026-03-26T20:25:08Z</time>
      </trkpt>
      <trkpt lat="44.12966" lon="5.25652">
        <ele>823.3</ele>
        <time>2026-03-26T20:25:10Z</time>
      </trkpt>
      <trkpt lat="44.12972" lon="5.25646">
        <ele>823.5</ele>
        <time>2026-03-26T20:25:11Z</time>
      </trkpt>
      <trkpt lat="44.12975" lon="5.25638">
        <ele>823.6</ele>
        <time>2026-03-26T20:25:12Z</time>
      </trkpt>
      <trkpt lat="44.12984" lon="5.25587">
        <ele>825.1</ele>
        <time>2026-03-26T20:25:19Z</time>
      </trkpt>
      <trkpt lat="44.12991" lon="5.25576">
        <ele>825.7</ele>
        <time>2026-03-26T20:25:21Z</time>
      </trkpt>
      <trkpt lat="44.13001" lon="5.25567">
        <ele>826.3</ele>
        <time>2026-03-26T20:25:23Z</time>
      </trkpt>
      <trkpt lat="44.13094" lon="5.25536">
        <ele>831.3</ele>
        <time>2026-03-26T20:25:40Z</time>
      </trkpt>
      <trkpt lat="44.13149" lon="5.25514">
        <ele>834.5</ele>
        <time>2026-03-26T20:25:50Z</time>
      </trkpt>
      <trkpt lat="44.13232" lon="5.25461">
        <ele>840</ele>
        <time>2026-03-26T20:26:06Z</time>
      </trkpt>
      <trkpt lat="44.1325" lon="5.25457">
        <ele>841.3</ele>
        <time>2026-03-26T20:26:10Z</time>
      </trkpt>
      <trkpt lat="44.13256" lon="5.25463">
        <ele>841.9</ele>
        <time>2026-03-26T20:26:11Z</time>
      </trkpt>
      <trkpt lat="44.13257" lon="5.25479">
        <ele>843.1</ele>
        <time>2026-03-26T20:26:13Z</time>
      </trkpt>
      <trkpt lat="44.13229" lon="5.25531">
        <ele>847</ele>
        <time>2026-03-26T20:26:21Z</time>
      </trkpt>
      <trkpt lat="44.132" lon="5.25631">
        <ele>853.5</ele>
        <time>2026-03-26T20:26:35Z</time>
      </trkpt>
      <trkpt lat="44.13187" lon="5.25704">
        <ele>858.6</ele>
        <time>2026-03-26T20:26:45Z</time>
      </trkpt>
      <trkpt lat="44.13183" lon="5.25779">
        <ele>863.5</ele>
        <time>2026-03-26T20:26:54Z</time>
      </trkpt>
      <trkpt lat="44.13186" lon="5.25808">
        <ele>865.4</ele>
        <time>2026-03-26T20:26:58Z</time>
      </trkpt>
      <trkpt lat="44.13191" lon="5.25828">
        <ele>866.8</ele>
        <time>2026-03-26T20:27:01Z</time>
      </trkpt>
      <trkpt lat="44.13202" lon="5.2585">
        <ele>868.6</ele>
        <time>2026-03-26T20:27:04Z</time>
      </trkpt>
      <trkpt lat="44.1322" lon="5.25877">
        <ele>871.2</ele>
        <time>2026-03-26T20:27:09Z</time>
      </trkpt>
      <trkpt lat="44.13234" lon="5.25892">
        <ele>873</ele>
        <time>2026-03-26T20:27:12Z</time>
      </trkpt>
      <trkpt lat="44.13277" lon="5.25926">
        <ele>877.6</ele>
        <time>2026-03-26T20:27:21Z</time>
      </trkpt>
      <trkpt lat="44.13325" lon="5.25949">
        <ele>882.2</ele>
        <time>2026-03-26T20:27:30Z</time>
      </trkpt>
      <trkpt lat="44.13341" lon="5.25965">
        <ele>884</ele>
        <time>2026-03-26T20:27:33Z</time>
      </trkpt>
      <trkpt lat="44.13348" lon="5.2598">
        <ele>885.1</ele>
        <time>2026-03-26T20:27:36Z</time>
      </trkpt>
      <trkpt lat="44.13351" lon="5.25998">
        <ele>886</ele>
        <time>2026-03-26T20:27:38Z</time>
      </trkpt>
      <trkpt lat="44.13357" lon="5.26106">
        <ele>892.2</ele>
        <time>2026-03-26T20:27:52Z</time>
      </trkpt>
      <trkpt lat="44.13352" lon="5.26216">
        <ele>899.6</ele>
        <time>2026-03-26T20:28:06Z</time>
      </trkpt>
      <trkpt lat="44.13348" lon="5.2623">
        <ele>900.7</ele>
        <time>2026-03-26T20:28:08Z</time>
      </trkpt>
      <trkpt lat="44.13341" lon="5.26239">
        <ele>901.5</ele>
        <time>2026-03-26T20:28:10Z</time>
      </trkpt>
      <trkpt lat="44.13323" lon="5.26248">
        <ele>903.1</ele>
        <time>2026-03-26T20:28:13Z</time>
      </trkpt>
      <trkpt lat="44.13291" lon="5.2627">
        <ele>905.9</ele>
        <time>2026-03-26T20:28:19Z</time>
      </trkpt>
      <trkpt lat="44.13268" lon="5.2629">
        <ele>908.5</ele>
        <time>2026-03-26T20:28:24Z</time>
      </trkpt>
      <trkpt lat="44.13254" lon="5.26308">
        <ele>910.1</ele>
        <time>2026-03-26T20:28:27Z</time>
      </trkpt>
      <trkpt lat="44.13244" lon="5.26329">
        <ele>911.7</ele>
        <time>2026-03-26T20:28:31Z</time>
      </trkpt>
      <trkpt lat="44.13234" lon="5.2636">
        <ele>913.8</ele>
        <time>2026-03-26T20:28:35Z</time>
      </trkpt>
      <trkpt lat="44.1321" lon="5.26451">
        <ele>921</ele>
        <time>2026-03-26T20:28:47Z</time>
      </trkpt>
      <trkpt lat="44.13211" lon="5.26464">
        <ele>921.9</ele>
        <time>2026-03-26T20:28:49Z</time>
      </trkpt>
      <trkpt lat="44.13221" lon="5.26472">
        <ele>923.1</ele>
        <time>2026-03-26T20:28:51Z</time>
      </trkpt>
      <trkpt lat="44.13275" lon="5.26459">
        <ele>927.1</ele>
        <time>2026-03-26T20:29:01Z</time>
      </trkpt>
      <trkpt lat="44.13309" lon="5.26457">
        <ele>929.4</ele>
        <time>2026-03-26T20:29:07Z</time>
      </trkpt>
      <trkpt lat="44.13341" lon="5.26459">
        <ele>931.1</ele>
        <time>2026-03-26T20:29:13Z</time>
      </trkpt>
      <trkpt lat="44.1337" lon="5.26467">
        <ele>932.9</ele>
        <time>2026-03-26T20:29:18Z</time>
      </trkpt>
      <trkpt lat="44.13429" lon="5.26503">
        <ele>937.1</ele>
        <time>2026-03-26T20:29:29Z</time>
      </trkpt>
      <trkpt lat="44.13444" lon="5.26507">
        <ele>938</ele>
        <time>2026-03-26T20:29:32Z</time>
      </trkpt>
      <trkpt lat="44.13452" lon="5.26506">
        <ele>938.4</ele>
        <time>2026-03-26T20:29:34Z</time>
      </trkpt>
      <trkpt lat="44.13464" lon="5.26495">
        <ele>939</ele>
        <time>2026-03-26T20:29:36Z</time>
      </trkpt>
      <trkpt lat="44.13512" lon="5.26397">
        <ele>944.1</ele>
        <time>2026-03-26T20:29:51Z</time>
      </trkpt>
      <trkpt lat="44.13524" lon="5.26378">
        <ele>945.4</ele>
        <time>2026-03-26T20:29:54Z</time>
      </trkpt>
      <trkpt lat="44.13534" lon="5.26369">
        <ele>946.2</ele>
        <time>2026-03-26T20:29:57Z</time>
      </trkpt>
      <trkpt lat="44.13553" lon="5.26363">
        <ele>947.6</ele>
        <time>2026-03-26T20:30:00Z</time>
      </trkpt>
      <trkpt lat="44.13569" lon="5.26364">
        <ele>948.5</ele>
        <time>2026-03-26T20:30:03Z</time>
      </trkpt>
      <trkpt lat="44.1361" lon="5.26384">
        <ele>950.9</ele>
        <time>2026-03-26T20:30:11Z</time>
      </trkpt>
      <trkpt lat="44.13682" lon="5.26456">
        <ele>956.7</ele>
        <time>2026-03-26T20:30:26Z</time>
      </trkpt>
      <trkpt lat="44.13694" lon="5.26457">
        <ele>957.5</ele>
        <time>2026-03-26T20:30:29Z</time>
      </trkpt>
      <trkpt lat="44.13704" lon="5.26454">
        <ele>958.3</ele>
        <time>2026-03-26T20:30:30Z</time>
      </trkpt>
      <trkpt lat="44.13759" lon="5.26422">
        <ele>962.3</ele>
        <time>2026-03-26T20:30:41Z</time>
      </trkpt>
      <trkpt lat="44.13771" lon="5.26408">
        <ele>963.1</ele>
        <time>2026-03-26T20:30:44Z</time>
      </trkpt>
      <trkpt lat="44.13775" lon="5.26398">
        <ele>963.6</ele>
        <time>2026-03-26T20:30:45Z</time>
      </trkpt>
      <trkpt lat="44.13786" lon="5.26242">
        <ele>970.4</ele>
        <time>2026-03-26T20:31:05Z</time>
      </trkpt>
      <trkpt lat="44.13791" lon="5.26218">
        <ele>971.4</ele>
        <time>2026-03-26T20:31:08Z</time>
      </trkpt>
      <trkpt lat="44.138" lon="5.26191">
        <ele>972.5</ele>
        <time>2026-03-26T20:31:12Z</time>
      </trkpt>
      <trkpt lat="44.13815" lon="5.26162">
        <ele>973.9</ele>
        <time>2026-03-26T20:31:17Z</time>
      </trkpt>
      <trkpt lat="44.13847" lon="5.26127">
        <ele>976.4</ele>
        <time>2026-03-26T20:31:24Z</time>
      </trkpt>
      <trkpt lat="44.13867" lon="5.2611">
        <ele>978</ele>
        <time>2026-03-26T20:31:28Z</time>
      </trkpt>
      <trkpt lat="44.13888" lon="5.26099">
        <ele>979.5</ele>
        <time>2026-03-26T20:31:32Z</time>
      </trkpt>
      <trkpt lat="44.13906" lon="5.26094">
        <ele>980.6</ele>
        <time>2026-03-26T20:31:35Z</time>
      </trkpt>
      <trkpt lat="44.13941" lon="5.2609">
        <ele>982.7</ele>
        <time>2026-03-26T20:31:42Z</time>
      </trkpt>
      <trkpt lat="44.13973" lon="5.2609">
        <ele>984.4</ele>
        <time>2026-03-26T20:31:47Z</time>
      </trkpt>
      <trkpt lat="44.13983" lon="5.26097">
        <ele>985</ele>
        <time>2026-03-26T20:31:49Z</time>
      </trkpt>
      <trkpt lat="44.14013" lon="5.26145">
        <ele>987.7</ele>
        <time>2026-03-26T20:31:58Z</time>
      </trkpt>
      <trkpt lat="44.14024" lon="5.26153">
        <ele>988.6</ele>
        <time>2026-03-26T20:32:00Z</time>
      </trkpt>
      <trkpt lat="44.14033" lon="5.26156">
        <ele>989.3</ele>
        <time>2026-03-26T20:32:01Z</time>
      </trkpt>
      <trkpt lat="44.14056" lon="5.26149">
        <ele>991</ele>
        <time>2026-03-26T20:32:06Z</time>
      </trkpt>
      <trkpt lat="44.14064" lon="5.26139">
        <ele>991.6</ele>
        <time>2026-03-26T20:32:07Z</time>
      </trkpt>
      <trkpt lat="44.14083" lon="5.26104">
        <ele>993.8</ele>
        <time>2026-03-26T20:32:13Z</time>
      </trkpt>
      <trkpt lat="44.14091" lon="5.26101">
        <ele>994.5</ele>
        <time>2026-03-26T20:32:15Z</time>
      </trkpt>
      <trkpt lat="44.14096" lon="5.26115">
        <ele>995.8</ele>
        <time>2026-03-26T20:32:17Z</time>
      </trkpt>
      <trkpt lat="44.14096" lon="5.26168">
        <ele>999.9</ele>
        <time>2026-03-26T20:32:23Z</time>
      </trkpt>
      <trkpt lat="44.14112" lon="5.26236">
        <ele>1005.2</ele>
        <time>2026-03-26T20:32:32Z</time>
      </trkpt>
      <trkpt lat="44.14107" lon="5.26278">
        <ele>1007.9</ele>
        <time>2026-03-26T20:32:38Z</time>
      </trkpt>
      <trkpt lat="44.14101" lon="5.2629">
        <ele>1008.9</ele>
        <time>2026-03-26T20:32:40Z</time>
      </trkpt>
      <trkpt lat="44.14077" lon="5.26306">
        <ele>1011.6</ele>
        <time>2026-03-26T20:32:44Z</time>
      </trkpt>
      <trkpt lat="44.14029" lon="5.26328">
        <ele>1016.3</ele>
        <time>2026-03-26T20:32:53Z</time>
      </trkpt>
      <trkpt lat="44.1402" lon="5.26348">
        <ele>1017.8</ele>
        <time>2026-03-26T20:32:56Z</time>
      </trkpt>
      <trkpt lat="44.14019" lon="5.26366">
        <ele>1018.9</ele>
        <time>2026-03-26T20:32:59Z</time>
      </trkpt>
      <trkpt lat="44.14025" lon="5.26417">
        <ele>1022.4</ele>
        <time>2026-03-26T20:33:05Z</time>
      </trkpt>
      <trkpt lat="44.14033" lon="5.26453">
        <ele>1025.2</ele>
        <time>2026-03-26T20:33:10Z</time>
      </trkpt>
      <trkpt lat="44.14045" lon="5.2649">
        <ele>1027.8</ele>
        <time>2026-03-26T20:33:15Z</time>
      </trkpt>
      <trkpt lat="44.14079" lon="5.26546">
        <ele>1032.8</ele>
        <time>2026-03-26T20:33:25Z</time>
      </trkpt>
      <trkpt lat="44.14142" lon="5.26613">
        <ele>1040.3</ele>
        <time>2026-03-26T20:33:39Z</time>
      </trkpt>
      <trkpt lat="44.1416" lon="5.26637">
        <ele>1042.6</ele>
        <time>2026-03-26T20:33:43Z</time>
      </trkpt>
      <trkpt lat="44.14209" lon="5.26708">
        <ele>1049.5</ele>
        <time>2026-03-26T20:33:56Z</time>
      </trkpt>
      <trkpt lat="44.14218" lon="5.26728">
        <ele>1051.1</ele>
        <time>2026-03-26T20:33:59Z</time>
      </trkpt>
      <trkpt lat="44.14218" lon="5.26737">
        <ele>1051.8</ele>
        <time>2026-03-26T20:34:00Z</time>
      </trkpt>
      <trkpt lat="44.14211" lon="5.26754">
        <ele>1053.1</ele>
        <time>2026-03-26T20:34:03Z</time>
      </trkpt>
      <trkpt lat="44.14194" lon="5.26771">
        <ele>1055</ele>
        <time>2026-03-26T20:34:06Z</time>
      </trkpt>
      <trkpt lat="44.14157" lon="5.26841">
        <ele>1060.7</ele>
        <time>2026-03-26T20:34:17Z</time>
      </trkpt>
      <trkpt lat="44.14152" lon="5.26865">
        <ele>1062.7</ele>
        <time>2026-03-26T20:34:21Z</time>
      </trkpt>
      <trkpt lat="44.14153" lon="5.26872">
        <ele>1063.3</ele>
        <time>2026-03-26T20:34:21Z</time>
      </trkpt>
      <trkpt lat="44.14162" lon="5.26876">
        <ele>1064.5</ele>
        <time>2026-03-26T20:34:23Z</time>
      </trkpt>
      <trkpt lat="44.14178" lon="5.26876">
        <ele>1066.3</ele>
        <time>2026-03-26T20:34:26Z</time>
      </trkpt>
      <trkpt lat="44.1425" lon="5.26861">
        <ele>1073.4</ele>
        <time>2026-03-26T20:34:39Z</time>
      </trkpt>
      <trkpt lat="44.14276" lon="5.2686">
        <ele>1076</ele>
        <time>2026-03-26T20:34:44Z</time>
      </trkpt>
      <trkpt lat="44.14305" lon="5.26873">
        <ele>1079.3</ele>
        <time>2026-03-26T20:34:49Z</time>
      </trkpt>
      <trkpt lat="44.14327" lon="5.26889">
        <ele>1081.9</ele>
        <time>2026-03-26T20:34:53Z</time>
      </trkpt>
      <trkpt lat="44.14338" lon="5.26892">
        <ele>1082.9</ele>
        <time>2026-03-26T20:34:55Z</time>
      </trkpt>
      <trkpt lat="44.14344" lon="5.26887">
        <ele>1083.6</ele>
        <time>2026-03-26T20:34:57Z</time>
      </trkpt>
      <trkpt lat="44.14357" lon="5.26828">
        <ele>1087.6</ele>
        <time>2026-03-26T20:35:05Z</time>
      </trkpt>
      <trkpt lat="44.14374" lon="5.26798">
        <ele>1090.2</ele>
        <time>2026-03-26T20:35:09Z</time>
      </trkpt>
      <trkpt lat="44.14395" lon="5.2678">
        <ele>1092.9</ele>
        <time>2026-03-26T20:35:14Z</time>
      </trkpt>
      <trkpt lat="44.14429" lon="5.26768">
        <ele>1096.6</ele>
        <time>2026-03-26T20:35:20Z</time>
      </trkpt>
      <trkpt lat="44.14441" lon="5.26767">
        <ele>1097.8</ele>
        <time>2026-03-26T20:35:22Z</time>
      </trkpt>
      <trkpt lat="44.14537" lon="5.26782">
        <ele>1107.5</ele>
        <time>2026-03-26T20:35:39Z</time>
      </trkpt>
      <trkpt lat="44.14542" lon="5.26778">
        <ele>1107.9</ele>
        <time>2026-03-26T20:35:40Z</time>
      </trkpt>
      <trkpt lat="44.14547" lon="5.26772">
        <ele>1108.1</ele>
        <time>2026-03-26T20:35:42Z</time>
      </trkpt>
      <trkpt lat="44.14567" lon="5.26731">
        <ele>1111.8</ele>
        <time>2026-03-26T20:35:48Z</time>
      </trkpt>
      <trkpt lat="44.14615" lon="5.26687">
        <ele>1117.2</ele>
        <time>2026-03-26T20:35:58Z</time>
      </trkpt>
      <trkpt lat="44.1464" lon="5.26617">
        <ele>1122.6</ele>
        <time>2026-03-26T20:36:08Z</time>
      </trkpt>
      <trkpt lat="44.14654" lon="5.26597">
        <ele>1124.4</ele>
        <time>2026-03-26T20:36:12Z</time>
      </trkpt>
      <trkpt lat="44.14669" lon="5.26581">
        <ele>1126.3</ele>
        <time>2026-03-26T20:36:15Z</time>
      </trkpt>
      <trkpt lat="44.14683" lon="5.26573">
        <ele>1128.4</ele>
        <time>2026-03-26T20:36:18Z</time>
      </trkpt>
      <trkpt lat="44.14716" lon="5.26582">
        <ele>1133</ele>
        <time>2026-03-26T20:36:24Z</time>
      </trkpt>
      <trkpt lat="44.14799" lon="5.26641">
        <ele>1141.1</ele>
        <time>2026-03-26T20:36:40Z</time>
      </trkpt>
      <trkpt lat="44.14835" lon="5.26646">
        <ele>1143.1</ele>
        <time>2026-03-26T20:36:47Z</time>
      </trkpt>
      <trkpt lat="44.14856" lon="5.26644">
        <ele>1145.1</ele>
        <time>2026-03-26T20:36:50Z</time>
      </trkpt>
      <trkpt lat="44.14869" lon="5.26635">
        <ele>1146.8</ele>
        <time>2026-03-26T20:36:53Z</time>
      </trkpt>
      <trkpt lat="44.14867" lon="5.26621">
        <ele>1147.1</ele>
        <time>2026-03-26T20:36:55Z</time>
      </trkpt>
      <trkpt lat="44.14845" lon="5.26601">
        <ele>1147.9</ele>
        <time>2026-03-26T20:37:00Z</time>
      </trkpt>
      <trkpt lat="44.14838" lon="5.26589">
        <ele>1148.6</ele>
        <time>2026-03-26T20:37:02Z</time>
      </trkpt>
      <trkpt lat="44.14837" lon="5.26568">
        <ele>1149.6</ele>
        <time>2026-03-26T20:37:04Z</time>
      </trkpt>
      <trkpt lat="44.1484" lon="5.26561">
        <ele>1150.1</ele>
        <time>2026-03-26T20:37:05Z</time>
      </trkpt>
      <trkpt lat="44.14846" lon="5.26555">
        <ele>1150.6</ele>
        <time>2026-03-26T20:37:07Z</time>
      </trkpt>
      <trkpt lat="44.14854" lon="5.26553">
        <ele>1151.2</ele>
        <time>2026-03-26T20:37:08Z</time>
      </trkpt>
      <trkpt lat="44.14879" lon="5.26561">
        <ele>1153.3</ele>
        <time>2026-03-26T20:37:13Z</time>
      </trkpt>
      <trkpt lat="44.14886" lon="5.2656">
        <ele>1153.9</ele>
        <time>2026-03-26T20:37:14Z</time>
      </trkpt>
      <trkpt lat="44.14892" lon="5.26556">
        <ele>1154.7</ele>
        <time>2026-03-26T20:37:15Z</time>
      </trkpt>
      <trkpt lat="44.14914" lon="5.26537">
        <ele>1157.3</ele>
        <time>2026-03-26T20:37:20Z</time>
      </trkpt>
      <trkpt lat="44.14923" lon="5.26526">
        <ele>1158.5</ele>
        <time>2026-03-26T20:37:22Z</time>
      </trkpt>
      <trkpt lat="44.14944" lon="5.26486">
        <ele>1161.9</ele>
        <time>2026-03-26T20:37:28Z</time>
      </trkpt>
      <trkpt lat="44.14962" lon="5.26466">
        <ele>1164</ele>
        <time>2026-03-26T20:37:32Z</time>
      </trkpt>
      <trkpt lat="44.15047" lon="5.2639">
        <ele>1174.5</ele>
        <time>2026-03-26T20:37:50Z</time>
      </trkpt>
      <trkpt lat="44.15089" lon="5.26358">
        <ele>1179.3</ele>
        <time>2026-03-26T20:37:59Z</time>
      </trkpt>
      <trkpt lat="44.15117" lon="5.26343">
        <ele>1182</ele>
        <time>2026-03-26T20:38:04Z</time>
      </trkpt>
      <trkpt lat="44.15163" lon="5.26334">
        <ele>1185.7</ele>
        <time>2026-03-26T20:38:12Z</time>
      </trkpt>
      <trkpt lat="44.15208" lon="5.26345">
        <ele>1189.9</ele>
        <time>2026-03-26T20:38:20Z</time>
      </trkpt>
      <trkpt lat="44.15289" lon="5.2636">
        <ele>1194.1</ele>
        <time>2026-03-26T20:38:35Z</time>
      </trkpt>
      <trkpt lat="44.15297" lon="5.26357">
        <ele>1194.4</ele>
        <time>2026-03-26T20:38:36Z</time>
      </trkpt>
      <trkpt lat="44.15303" lon="5.26342">
        <ele>1194.9</ele>
        <time>2026-03-26T20:38:39Z</time>
      </trkpt>
      <trkpt lat="44.15302" lon="5.26332">
        <ele>1195.4</ele>
        <time>2026-03-26T20:38:40Z</time>
      </trkpt>
      <trkpt lat="44.15282" lon="5.26266">
        <ele>1199.9</ele>
        <time>2026-03-26T20:38:49Z</time>
      </trkpt>
      <trkpt lat="44.15276" lon="5.26239">
        <ele>1202</ele>
        <time>2026-03-26T20:38:53Z</time>
      </trkpt>
      <trkpt lat="44.15273" lon="5.26205">
        <ele>1204.4</ele>
        <time>2026-03-26T20:38:57Z</time>
      </trkpt>
      <trkpt lat="44.15279" lon="5.26163">
        <ele>1207.6</ele>
        <time>2026-03-26T20:39:02Z</time>
      </trkpt>
      <trkpt lat="44.15294" lon="5.26103">
        <ele>1212.8</ele>
        <time>2026-03-26T20:39:11Z</time>
      </trkpt>
      <trkpt lat="44.15301" lon="5.26055">
        <ele>1216.4</ele>
        <time>2026-03-26T20:39:17Z</time>
      </trkpt>
      <trkpt lat="44.15306" lon="5.26044">
        <ele>1217.3</ele>
        <time>2026-03-26T20:39:18Z</time>
      </trkpt>
      <trkpt lat="44.1534" lon="5.26028">
        <ele>1221.4</ele>
        <time>2026-03-26T20:39:25Z</time>
      </trkpt>
      <trkpt lat="44.1537" lon="5.26018">
        <ele>1225.3</ele>
        <time>2026-03-26T20:39:30Z</time>
      </trkpt>
      <trkpt lat="44.15435" lon="5.26024">
        <ele>1232.7</ele>
        <time>2026-03-26T20:39:42Z</time>
      </trkpt>
      <trkpt lat="44.15468" lon="5.26043">
        <ele>1236.8</ele>
        <time>2026-03-26T20:39:48Z</time>
      </trkpt>
      <trkpt lat="44.15477" lon="5.26042">
        <ele>1237.7</ele>
        <time>2026-03-26T20:39:50Z</time>
      </trkpt>
      <trkpt lat="44.15483" lon="5.26038">
        <ele>1238.4</ele>
        <time>2026-03-26T20:39:51Z</time>
      </trkpt>
      <trkpt lat="44.15495" lon="5.2602">
        <ele>1240.2</ele>
        <time>2026-03-26T20:39:54Z</time>
      </trkpt>
      <trkpt lat="44.15542" lon="5.25891">
        <ele>1250.4</ele>
        <time>2026-03-26T20:40:13Z</time>
      </trkpt>
      <trkpt lat="44.15581" lon="5.25819">
        <ele>1256.4</ele>
        <time>2026-03-26T20:40:24Z</time>
      </trkpt>
      <trkpt lat="44.1559" lon="5.2581">
        <ele>1257.5</ele>
        <time>2026-03-26T20:40:26Z</time>
      </trkpt>
      <trkpt lat="44.15598" lon="5.25806">
        <ele>1258.5</ele>
        <time>2026-03-26T20:40:28Z</time>
      </trkpt>
      <trkpt lat="44.15616" lon="5.25805">
        <ele>1260.3</ele>
        <time>2026-03-26T20:40:31Z</time>
      </trkpt>
      <trkpt lat="44.15644" lon="5.25846">
        <ele>1264.4</ele>
        <time>2026-03-26T20:40:38Z</time>
      </trkpt>
      <trkpt lat="44.15653" lon="5.25849">
        <ele>1265.5</ele>
        <time>2026-03-26T20:40:40Z</time>
      </trkpt>
      <trkpt lat="44.15715" lon="5.25768">
        <ele>1276.3</ele>
        <time>2026-03-26T20:40:55Z</time>
      </trkpt>
      <trkpt lat="44.15787" lon="5.25624">
        <ele>1291.1</ele>
        <time>2026-03-26T20:41:17Z</time>
      </trkpt>
      <trkpt lat="44.15795" lon="5.25599">
        <ele>1293.3</ele>
        <time>2026-03-26T20:41:21Z</time>
      </trkpt>
      <trkpt lat="44.158" lon="5.25562">
        <ele>1295.8</ele>
        <time>2026-03-26T20:41:26Z</time>
      </trkpt>
      <trkpt lat="44.15804" lon="5.25555">
        <ele>1296.5</ele>
        <time>2026-03-26T20:41:27Z</time>
      </trkpt>
      <trkpt lat="44.1581" lon="5.25552">
        <ele>1297.2</ele>
        <time>2026-03-26T20:41:28Z</time>
      </trkpt>
      <trkpt lat="44.15822" lon="5.25558">
        <ele>1298.8</ele>
        <time>2026-03-26T20:41:30Z</time>
      </trkpt>
      <trkpt lat="44.15827" lon="5.25567">
        <ele>1299.9</ele>
        <time>2026-03-26T20:41:32Z</time>
      </trkpt>
      <trkpt lat="44.15829" lon="5.25578">
        <ele>1300.9</ele>
        <time>2026-03-26T20:41:33Z</time>
      </trkpt>
      <trkpt lat="44.15828" lon="5.25723">
        <ele>1311</ele>
        <time>2026-03-26T20:41:52Z</time>
      </trkpt>
      <trkpt lat="44.15834" lon="5.25922">
        <ele>1327.1</ele>
        <time>2026-03-26T20:42:17Z</time>
      </trkpt>
      <trkpt lat="44.15844" lon="5.26">
        <ele>1334.1</ele>
        <time>2026-03-26T20:42:27Z</time>
      </trkpt>
      <trkpt lat="44.15848" lon="5.26006">
        <ele>1334.9</ele>
        <time>2026-03-26T20:42:28Z</time>
      </trkpt>
      <trkpt lat="44.15853" lon="5.26007">
        <ele>1335.7</ele>
        <time>2026-03-26T20:42:29Z</time>
      </trkpt>
      <trkpt lat="44.15857" lon="5.26002">
        <ele>1336.4</ele>
        <time>2026-03-26T20:42:30Z</time>
      </trkpt>
      <trkpt lat="44.15867" lon="5.2596">
        <ele>1340.5</ele>
        <time>2026-03-26T20:42:36Z</time>
      </trkpt>
      <trkpt lat="44.15897" lon="5.25902">
        <ele>1346.6</ele>
        <time>2026-03-26T20:42:45Z</time>
      </trkpt>
      <trkpt lat="44.1593" lon="5.25856">
        <ele>1352.4</ele>
        <time>2026-03-26T20:42:53Z</time>
      </trkpt>
      <trkpt lat="44.15953" lon="5.25832">
        <ele>1355.9</ele>
        <time>2026-03-26T20:42:58Z</time>
      </trkpt>
      <trkpt lat="44.15976" lon="5.25824">
        <ele>1359.2</ele>
        <time>2026-03-26T20:43:02Z</time>
      </trkpt>
      <trkpt lat="44.16024" lon="5.25829">
        <ele>1365.3</ele>
        <time>2026-03-26T20:43:11Z</time>
      </trkpt>
      <trkpt lat="44.16077" lon="5.25851">
        <ele>1371.8</ele>
        <time>2026-03-26T20:43:21Z</time>
      </trkpt>
      <trkpt lat="44.16089" lon="5.2584">
        <ele>1373.1</ele>
        <time>2026-03-26T20:43:23Z</time>
      </trkpt>
      <trkpt lat="44.16102" lon="5.25802">
        <ele>1375.7</ele>
        <time>2026-03-26T20:43:29Z</time>
      </trkpt>
      <trkpt lat="44.16111" lon="5.25755">
        <ele>1379</ele>
        <time>2026-03-26T20:43:35Z</time>
      </trkpt>
      <trkpt lat="44.16139" lon="5.25687">
        <ele>1384.7</ele>
        <time>2026-03-26T20:43:45Z</time>
      </trkpt>
      <trkpt lat="44.16173" lon="5.25624">
        <ele>1390.5</ele>
        <time>2026-03-26T20:43:55Z</time>
      </trkpt>
      <trkpt lat="44.16187" lon="5.25591">
        <ele>1393.3</ele>
        <time>2026-03-26T20:44:00Z</time>
      </trkpt>
      <trkpt lat="44.16239" lon="5.255">
        <ele>1402.4</ele>
        <time>2026-03-26T20:44:15Z</time>
      </trkpt>
      <trkpt lat="44.16327" lon="5.25431">
        <ele>1413.8</ele>
        <time>2026-03-26T20:44:33Z</time>
      </trkpt>
      <trkpt lat="44.16346" lon="5.25391">
        <ele>1417.6</ele>
        <time>2026-03-26T20:44:39Z</time>
      </trkpt>
      <trkpt lat="44.16358" lon="5.25375">
        <ele>1419.1</ele>
        <time>2026-03-26T20:44:42Z</time>
      </trkpt>
      <trkpt lat="44.16361" lon="5.25386">
        <ele>1419.4</ele>
        <time>2026-03-26T20:44:43Z</time>
      </trkpt>
      <trkpt lat="44.16359" lon="5.25399">
        <ele>1419.8</ele>
        <time>2026-03-26T20:44:45Z</time>
      </trkpt>
      <trkpt lat="44.16303" lon="5.25535">
        <ele>1426</ele>
        <time>2026-03-26T20:45:05Z</time>
      </trkpt>
      <trkpt lat="44.1629" lon="5.25616">
        <ele>1429.9</ele>
        <time>2026-03-26T20:45:16Z</time>
      </trkpt>
      <trkpt lat="44.16289" lon="5.25695">
        <ele>1433.3</ele>
        <time>2026-03-26T20:45:26Z</time>
      </trkpt>
      <trkpt lat="44.16294" lon="5.25769">
        <ele>1436.6</ele>
        <time>2026-03-26T20:45:35Z</time>
      </trkpt>
      <trkpt lat="44.16295" lon="5.25852">
        <ele>1440.1</ele>
        <time>2026-03-26T20:45:46Z</time>
      </trkpt>
      <trkpt lat="44.16282" lon="5.26062">
        <ele>1449.2</ele>
        <time>2026-03-26T20:46:13Z</time>
      </trkpt>
      <trkpt lat="44.16269" lon="5.26167">
        <ele>1453.8</ele>
        <time>2026-03-26T20:46:26Z</time>
      </trkpt>
      <trkpt lat="44.16251" lon="5.26247">
        <ele>1457.7</ele>
        <time>2026-03-26T20:46:37Z</time>
      </trkpt>
      <trkpt lat="44.16244" lon="5.26294">
        <ele>1459.3</ele>
        <time>2026-03-26T20:46:43Z</time>
      </trkpt>
      <trkpt lat="44.16243" lon="5.26319">
        <ele>1459.9</ele>
        <time>2026-03-26T20:46:46Z</time>
      </trkpt>
      <trkpt lat="44.16244" lon="5.26334">
        <ele>1460.2</ele>
        <time>2026-03-26T20:46:48Z</time>
      </trkpt>
      <trkpt lat="44.1625" lon="5.26355">
        <ele>1460.6</ele>
        <time>2026-03-26T20:46:51Z</time>
      </trkpt>
      <trkpt lat="44.16255" lon="5.26362">
        <ele>1460.8</ele>
        <time>2026-03-26T20:46:52Z</time>
      </trkpt>
      <trkpt lat="44.16307" lon="5.26393">
        <ele>1462.2</ele>
        <time>2026-03-26T20:47:02Z</time>
      </trkpt>
      <trkpt lat="44.16309" lon="5.26401">
        <ele>1462.4</ele>
        <time>2026-03-26T20:47:04Z</time>
      </trkpt>
      <trkpt lat="44.16309" lon="5.2641">
        <ele>1462.6</ele>
        <time>2026-03-26T20:47:05Z</time>
      </trkpt>
      <trkpt lat="44.16289" lon="5.26447">
        <ele>1463.3</ele>
        <time>2026-03-26T20:47:11Z</time>
      </trkpt>
      <trkpt lat="44.16286" lon="5.26479">
        <ele>1463.8</ele>
        <time>2026-03-26T20:47:15Z</time>
      </trkpt>
      <trkpt lat="44.16303" lon="5.26552">
        <ele>1465.5</ele>
        <time>2026-03-26T20:47:25Z</time>
      </trkpt>
      <trkpt lat="44.16313" lon="5.26644">
        <ele>1467.9</ele>
        <time>2026-03-26T20:47:36Z</time>
      </trkpt>
      <trkpt lat="44.16322" lon="5.26692">
        <ele>1469.2</ele>
        <time>2026-03-26T20:47:43Z</time>
      </trkpt>
      <trkpt lat="44.16319" lon="5.26707">
        <ele>1469.6</ele>
        <time>2026-03-26T20:47:45Z</time>
      </trkpt>
      <trkpt lat="44.16297" lon="5.26728">
        <ele>1470.4</ele>
        <time>2026-03-26T20:47:49Z</time>
      </trkpt>
      <trkpt lat="44.16291" lon="5.26741">
        <ele>1470.7</ele>
        <time>2026-03-26T20:47:51Z</time>
      </trkpt>
      <trkpt lat="44.16278" lon="5.2679">
        <ele>1472</ele>
        <time>2026-03-26T20:47:58Z</time>
      </trkpt>
      <trkpt lat="44.16271" lon="5.268">
        <ele>1472.5</ele>
        <time>2026-03-26T20:48:00Z</time>
      </trkpt>
      <trkpt lat="44.1626" lon="5.26801">
        <ele>1473.1</ele>
        <time>2026-03-26T20:48:02Z</time>
      </trkpt>
      <trkpt lat="44.16248" lon="5.26793">
        <ele>1473.7</ele>
        <time>2026-03-26T20:48:04Z</time>
      </trkpt>
      <trkpt lat="44.16232" lon="5.26775">
        <ele>1474.4</ele>
        <time>2026-03-26T20:48:08Z</time>
      </trkpt>
      <trkpt lat="44.16226" lon="5.26772">
        <ele>1474.5</ele>
        <time>2026-03-26T20:48:09Z</time>
      </trkpt>
      <trkpt lat="44.16215" lon="5.26776">
        <ele>1474.8</ele>
        <time>2026-03-26T20:48:11Z</time>
      </trkpt>
      <trkpt lat="44.16201" lon="5.26792">
        <ele>1475.2</ele>
        <time>2026-03-26T20:48:14Z</time>
      </trkpt>
      <trkpt lat="44.16187" lon="5.26819">
        <ele>1476.1</ele>
        <time>2026-03-26T20:48:18Z</time>
      </trkpt>
      <trkpt lat="44.16155" lon="5.26916">
        <ele>1478.5</ele>
        <time>2026-03-26T20:48:32Z</time>
      </trkpt>
      <trkpt lat="44.16152" lon="5.26934">
        <ele>1478.8</ele>
        <time>2026-03-26T20:48:34Z</time>
      </trkpt>
      <trkpt lat="44.16154" lon="5.26957">
        <ele>1479.2</ele>
        <time>2026-03-26T20:48:37Z</time>
      </trkpt>
      <trkpt lat="44.16163" lon="5.26986">
        <ele>1479.9</ele>
        <time>2026-03-26T20:48:41Z</time>
      </trkpt>
      <trkpt lat="44.16179" lon="5.27021">
        <ele>1481.1</ele>
        <time>2026-03-26T20:48:47Z</time>
      </trkpt>
      <trkpt lat="44.16215" lon="5.27084">
        <ele>1483.2</ele>
        <time>2026-03-26T20:48:57Z</time>
      </trkpt>
      <trkpt lat="44.16238" lon="5.27152">
        <ele>1485.1</ele>
        <time>2026-03-26T20:49:07Z</time>
      </trkpt>
      <trkpt lat="44.16241" lon="5.27198">
        <ele>1486.7</ele>
        <time>2026-03-26T20:49:13Z</time>
      </trkpt>
      <trkpt lat="44.1624" lon="5.27217">
        <ele>1487.3</ele>
        <time>2026-03-26T20:49:15Z</time>
      </trkpt>
      <trkpt lat="44.16235" lon="5.27227">
        <ele>1487.8</ele>
        <time>2026-03-26T20:49:17Z</time>
      </trkpt>
      <trkpt lat="44.16207" lon="5.27217">
        <ele>1489.1</ele>
        <time>2026-03-26T20:49:22Z</time>
      </trkpt>
      <trkpt lat="44.16198" lon="5.27216">
        <ele>1489.4</ele>
        <time>2026-03-26T20:49:23Z</time>
      </trkpt>
      <trkpt lat="44.16189" lon="5.27218">
        <ele>1489.7</ele>
        <time>2026-03-26T20:49:25Z</time>
      </trkpt>
      <trkpt lat="44.1618" lon="5.27228">
        <ele>1490.2</ele>
        <time>2026-03-26T20:49:27Z</time>
      </trkpt>
      <trkpt lat="44.16174" lon="5.27259">
        <ele>1491.4</ele>
        <time>2026-03-26T20:49:31Z</time>
      </trkpt>
      <trkpt lat="44.16171" lon="5.27307">
        <ele>1493.2</ele>
        <time>2026-03-26T20:49:37Z</time>
      </trkpt>
      <trkpt lat="44.16173" lon="5.27439">
        <ele>1497.8</ele>
        <time>2026-03-26T20:49:54Z</time>
      </trkpt>
      <trkpt lat="44.16182" lon="5.27491">
        <ele>1500</ele>
        <time>2026-03-26T20:50:01Z</time>
      </trkpt>
      <trkpt lat="44.16281" lon="5.27805">
        <ele>1512.7</ele>
        <time>2026-03-26T20:50:45Z</time>
      </trkpt>
      <trkpt lat="44.16287" lon="5.27839">
        <ele>1514.6</ele>
        <time>2026-03-26T20:50:49Z</time>
      </trkpt>
      <trkpt lat="44.16288" lon="5.27877">
        <ele>1516.8</ele>
        <time>2026-03-26T20:50:54Z</time>
      </trkpt>
      <trkpt lat="44.16315" lon="5.27916">
        <ele>1517.5</ele>
        <time>2026-03-26T20:51:01Z</time>
      </trkpt>
      <trkpt lat="44.16347" lon="5.27954">
        <ele>1517.1</ele>
        <time>2026-03-26T20:51:08Z</time>
      </trkpt>
      <trkpt lat="44.16407" lon="5.28004">
        <ele>1516.8</ele>
        <time>2026-03-26T20:51:21Z</time>
      </trkpt>
      <trkpt lat="44.16477" lon="5.28082">
        <ele>1518</ele>
        <time>2026-03-26T20:51:37Z</time>
      </trkpt>
      <trkpt lat="44.1648" lon="5.28093">
        <ele>1517.9</ele>
        <time>2026-03-26T20:51:38Z</time>
      </trkpt>
      <trkpt lat="44.16478" lon="5.28101">
        <ele>1517.7</ele>
        <time>2026-03-26T20:51:39Z</time>
      </trkpt>
      <trkpt lat="44.16454" lon="5.28118">
        <ele>1517.1</ele>
        <time>2026-03-26T20:51:44Z</time>
      </trkpt>
      <trkpt lat="44.16416" lon="5.28131">
        <ele>1516.6</ele>
        <time>2026-03-26T20:51:51Z</time>
      </trkpt>
      <trkpt lat="44.16405" lon="5.28143">
        <ele>1516.7</ele>
        <time>2026-03-26T20:51:54Z</time>
      </trkpt>
      <trkpt lat="44.16392" lon="5.28186">
        <ele>1517.2</ele>
        <time>2026-03-26T20:52:00Z</time>
      </trkpt>
      <trkpt lat="44.16389" lon="5.28192">
        <ele>1517.3</ele>
        <time>2026-03-26T20:52:00Z</time>
      </trkpt>
      <trkpt lat="44.16383" lon="5.28195">
        <ele>1517.4</ele>
        <time>2026-03-26T20:52:02Z</time>
      </trkpt>
      <trkpt lat="44.16375" lon="5.28196">
        <ele>1517.4</ele>
        <time>2026-03-26T20:52:03Z</time>
      </trkpt>
      <trkpt lat="44.16348" lon="5.28182">
        <ele>1517.3</ele>
        <time>2026-03-26T20:52:08Z</time>
      </trkpt>
      <trkpt lat="44.16328" lon="5.28176">
        <ele>1517.1</ele>
        <time>2026-03-26T20:52:12Z</time>
      </trkpt>
      <trkpt lat="44.16299" lon="5.28181">
        <ele>1516.9</ele>
        <time>2026-03-26T20:52:17Z</time>
      </trkpt>
      <trkpt lat="44.16158" lon="5.28228">
        <ele>1516.2</ele>
        <time>2026-03-26T20:52:43Z</time>
      </trkpt>
      <trkpt lat="44.16145" lon="5.28238">
        <ele>1516.2</ele>
        <time>2026-03-26T20:52:45Z</time>
      </trkpt>
      <trkpt lat="44.16139" lon="5.28251">
        <ele>1516.3</ele>
        <time>2026-03-26T20:52:47Z</time>
      </trkpt>
      <trkpt lat="44.16132" lon="5.28288">
        <ele>1516.4</ele>
        <time>2026-03-26T20:52:52Z</time>
      </trkpt>
      <trkpt lat="44.16128" lon="5.28347">
        <ele>1516.6</ele>
        <time>2026-03-26T20:53:00Z</time>
      </trkpt>
      <trkpt lat="44.16121" lon="5.28371">
        <ele>1516.6</ele>
        <time>2026-03-26T20:53:03Z</time>
      </trkpt>
      <trkpt lat="44.16109" lon="5.28406">
        <ele>1516.4</ele>
        <time>2026-03-26T20:53:08Z</time>
      </trkpt>
      <trkpt lat="44.16073" lon="5.28452">
        <ele>1515.9</ele>
        <time>2026-03-26T20:53:17Z</time>
      </trkpt>
      <trkpt lat="44.16065" lon="5.28468">
        <ele>1515.9</ele>
        <time>2026-03-26T20:53:19Z</time>
      </trkpt>
      <trkpt lat="44.1606" lon="5.28486">
        <ele>1515.8</ele>
        <time>2026-03-26T20:53:22Z</time>
      </trkpt>
      <trkpt lat="44.1606" lon="5.28509">
        <ele>1515.8</ele>
        <time>2026-03-26T20:53:25Z</time>
      </trkpt>
      <trkpt lat="44.16064" lon="5.2854">
        <ele>1515.7</ele>
        <time>2026-03-26T20:53:29Z</time>
      </trkpt>
      <trkpt lat="44.16086" lon="5.28614">
        <ele>1515.5</ele>
        <time>2026-03-26T20:53:39Z</time>
      </trkpt>
      <trkpt lat="44.16099" lon="5.28635">
        <ele>1515.5</ele>
        <time>2026-03-26T20:53:42Z</time>
      </trkpt>
      <trkpt lat="44.16116" lon="5.28653">
        <ele>1515.6</ele>
        <time>2026-03-26T20:53:46Z</time>
      </trkpt>
      <trkpt lat="44.16141" lon="5.28676">
        <ele>1515.5</ele>
        <time>2026-03-26T20:53:52Z</time>
      </trkpt>
      <trkpt lat="44.16167" lon="5.28691">
        <ele>1515.6</ele>
        <time>2026-03-26T20:53:57Z</time>
      </trkpt>
      <trkpt lat="44.16173" lon="5.28699">
        <ele>1515.5</ele>
        <time>2026-03-26T20:53:58Z</time>
      </trkpt>
      <trkpt lat="44.16174" lon="5.28712">
        <ele>1515.5</ele>
        <time>2026-03-26T20:54:00Z</time>
      </trkpt>
      <trkpt lat="44.16163" lon="5.28748">
        <ele>1515.4</ele>
        <time>2026-03-26T20:54:05Z</time>
      </trkpt>
      <trkpt lat="44.16162" lon="5.28778">
        <ele>1515.3</ele>
        <time>2026-03-26T20:54:09Z</time>
      </trkpt>
      <trkpt lat="44.16178" lon="5.28816">
        <ele>1515.6</ele>
        <time>2026-03-26T20:54:14Z</time>
      </trkpt>
      <trkpt lat="44.16192" lon="5.28837">
        <ele>1516</ele>
        <time>2026-03-26T20:54:18Z</time>
      </trkpt>
      <trkpt lat="44.16195" lon="5.28846">
        <ele>1516</ele>
        <time>2026-03-26T20:54:19Z</time>
      </trkpt>
      <trkpt lat="44.16191" lon="5.28882">
        <ele>1515.9</ele>
        <time>2026-03-26T20:54:24Z</time>
      </trkpt>
      <trkpt lat="44.16191" lon="5.28927">
        <ele>1515.7</ele>
        <time>2026-03-26T20:54:30Z</time>
      </trkpt>
      <trkpt lat="44.16204" lon="5.29094">
        <ele>1516.7</ele>
        <time>2026-03-26T20:54:51Z</time>
      </trkpt>
      <trkpt lat="44.162" lon="5.2913">
        <ele>1517.1</ele>
        <time>2026-03-26T20:54:56Z</time>
      </trkpt>
      <trkpt lat="44.16196" lon="5.29141">
        <ele>1517.2</ele>
        <time>2026-03-26T20:54:57Z</time>
      </trkpt>
      <trkpt lat="44.16189" lon="5.29149">
        <ele>1517.1</ele>
        <time>2026-03-26T20:54:59Z</time>
      </trkpt>
      <trkpt lat="44.16181" lon="5.2915">
        <ele>1517</ele>
        <time>2026-03-26T20:55:00Z</time>
      </trkpt>
      <trkpt lat="44.16171" lon="5.29144">
        <ele>1516.8</ele>
        <time>2026-03-26T20:55:02Z</time>
      </trkpt>
      <trkpt lat="44.16149" lon="5.29089">
        <ele>1515.8</ele>
        <time>2026-03-26T20:55:10Z</time>
      </trkpt>
      <trkpt lat="44.16093" lon="5.29">
        <ele>1515.6</ele>
        <time>2026-03-26T20:55:25Z</time>
      </trkpt>
      <trkpt lat="44.16079" lon="5.28982">
        <ele>1515.7</ele>
        <time>2026-03-26T20:55:29Z</time>
      </trkpt>
      <trkpt lat="44.16061" lon="5.2897">
        <ele>1515.7</ele>
        <time>2026-03-26T20:55:32Z</time>
      </trkpt>
      <trkpt lat="44.16034" lon="5.28959">
        <ele>1515.4</ele>
        <time>2026-03-26T20:55:37Z</time>
      </trkpt>
      <trkpt lat="44.16018" lon="5.28959">
        <ele>1515.3</ele>
        <time>2026-03-26T20:55:40Z</time>
      </trkpt>
      <trkpt lat="44.16007" lon="5.28965">
        <ele>1515.2</ele>
        <time>2026-03-26T20:55:42Z</time>
      </trkpt>
      <trkpt lat="44.15997" lon="5.28978">
        <ele>1515.1</ele>
        <time>2026-03-26T20:55:45Z</time>
      </trkpt>
      <trkpt lat="44.15991" lon="5.28998">
        <ele>1515</ele>
        <time>2026-03-26T20:55:47Z</time>
      </trkpt>
      <trkpt lat="44.15989" lon="5.29037">
        <ele>1515</ele>
        <time>2026-03-26T20:55:52Z</time>
      </trkpt>
      <trkpt lat="44.1599" lon="5.29069">
        <ele>1515.2</ele>
        <time>2026-03-26T20:55:56Z</time>
      </trkpt>
      <trkpt lat="44.16005" lon="5.29116">
        <ele>1515.3</ele>
        <time>2026-03-26T20:56:03Z</time>
      </trkpt>
      <trkpt lat="44.16045" lon="5.292">
        <ele>1515.2</ele>
        <time>2026-03-26T20:56:16Z</time>
      </trkpt>
      <trkpt lat="44.16053" lon="5.29234">
        <ele>1515.1</ele>
        <time>2026-03-26T20:56:20Z</time>
      </trkpt>
      <trkpt lat="44.16066" lon="5.29315">
        <ele>1514.7</ele>
        <time>2026-03-26T20:56:31Z</time>
      </trkpt>
      <trkpt lat="44.16098" lon="5.29426">
        <ele>1514.5</ele>
        <time>2026-03-26T20:56:46Z</time>
      </trkpt>
      <trkpt lat="44.16139" lon="5.29528">
        <ele>1515.8</ele>
        <time>2026-03-26T20:57:01Z</time>
      </trkpt>
      <trkpt lat="44.16152" lon="5.29549">
        <ele>1516.2</ele>
        <time>2026-03-26T20:57:05Z</time>
      </trkpt>
      <trkpt lat="44.16192" lon="5.2959">
        <ele>1516.7</ele>
        <time>2026-03-26T20:57:14Z</time>
      </trkpt>
      <trkpt lat="44.16198" lon="5.29602">
        <ele>1516.8</ele>
        <time>2026-03-26T20:57:16Z</time>
      </trkpt>
      <trkpt lat="44.16201" lon="5.29617">
        <ele>1516.9</ele>
        <time>2026-03-26T20:57:18Z</time>
      </trkpt>
      <trkpt lat="44.16199" lon="5.29649">
        <ele>1517.4</ele>
        <time>2026-03-26T20:57:22Z</time>
      </trkpt>
      <trkpt lat="44.16203" lon="5.29667">
        <ele>1517.8</ele>
        <time>2026-03-26T20:57:24Z</time>
      </trkpt>
      <trkpt lat="44.16236" lon="5.29762">
        <ele>1520.4</ele>
        <time>2026-03-26T20:57:37Z</time>
      </trkpt>
      <trkpt lat="44.16236" lon="5.29771">
        <ele>1520.6</ele>
        <time>2026-03-26T20:57:39Z</time>
      </trkpt>
      <trkpt lat="44.16233" lon="5.29779">
        <ele>1520.6</ele>
        <time>2026-03-26T20:57:40Z</time>
      </trkpt>
      <trkpt lat="44.16221" lon="5.29782">
        <ele>1520.5</ele>
        <time>2026-03-26T20:57:42Z</time>
      </trkpt>
      <trkpt lat="44.16096" lon="5.29714">
        <ele>1515.8</ele>
        <time>2026-03-26T20:58:06Z</time>
      </trkpt>
      <trkpt lat="44.15939" lon="5.29588">
        <ele>1510.7</ele>
        <time>2026-03-26T20:58:38Z</time>
      </trkpt>
      <trkpt lat="44.15905" lon="5.29554">
        <ele>1509.8</ele>
        <time>2026-03-26T20:58:46Z</time>
      </trkpt>
      <trkpt lat="44.15897" lon="5.29553">
        <ele>1509.7</ele>
        <time>2026-03-26T20:58:47Z</time>
      </trkpt>
      <trkpt lat="44.1589" lon="5.29557">
        <ele>1509.6</ele>
        <time>2026-03-26T20:58:48Z</time>
      </trkpt>
      <trkpt lat="44.15883" lon="5.29572">
        <ele>1509.5</ele>
        <time>2026-03-26T20:58:51Z</time>
      </trkpt>
      <trkpt lat="44.15844" lon="5.29699">
        <ele>1508.9</ele>
        <time>2026-03-26T20:59:08Z</time>
      </trkpt>
      <trkpt lat="44.1583" lon="5.29733">
        <ele>1509</ele>
        <time>2026-03-26T20:59:13Z</time>
      </trkpt>
      <trkpt lat="44.15819" lon="5.29755">
        <ele>1509</ele>
        <time>2026-03-26T20:59:17Z</time>
      </trkpt>
      <trkpt lat="44.15738" lon="5.29886">
        <ele>1506.5</ele>
        <time>2026-03-26T20:59:39Z</time>
      </trkpt>
      <trkpt lat="44.15704" lon="5.29957">
        <ele>1503.9</ele>
        <time>2026-03-26T20:59:50Z</time>
      </trkpt>
      <trkpt lat="44.15685" lon="5.30016">
        <ele>1502.2</ele>
        <time>2026-03-26T20:59:58Z</time>
      </trkpt>
      <trkpt lat="44.15667" lon="5.30085">
        <ele>1500.3</ele>
        <time>2026-03-26T21:00:07Z</time>
      </trkpt>
      <trkpt lat="44.15607" lon="5.30451">
        <ele>1487.6</ele>
        <time>2026-03-26T21:00:55Z</time>
      </trkpt>
      <trkpt lat="44.15605" lon="5.30484">
        <ele>1486.1</ele>
        <time>2026-03-26T21:00:59Z</time>
      </trkpt>
      <trkpt lat="44.15607" lon="5.30508">
        <ele>1485.2</ele>
        <time>2026-03-26T21:01:02Z</time>
      </trkpt>
      <trkpt lat="44.15614" lon="5.30531">
        <ele>1484.6</ele>
        <time>2026-03-26T21:01:06Z</time>
      </trkpt>
      <trkpt lat="44.15626" lon="5.30553">
        <ele>1484.4</ele>
        <time>2026-03-26T21:01:09Z</time>
      </trkpt>
      <trkpt lat="44.15687" lon="5.30624">
        <ele>1484.7</ele>
        <time>2026-03-26T21:01:23Z</time>
      </trkpt>
      <trkpt lat="44.1569" lon="5.30632">
        <ele>1484.6</ele>
        <time>2026-03-26T21:01:24Z</time>
      </trkpt>
      <trkpt lat="44.15688" lon="5.30646">
        <ele>1484.6</ele>
        <time>2026-03-26T21:01:26Z</time>
      </trkpt>
      <trkpt lat="44.15678" lon="5.30652">
        <ele>1484</ele>
        <time>2026-03-26T21:01:28Z</time>
      </trkpt>
      <trkpt lat="44.15624" lon="5.30664">
        <ele>1481.6</ele>
        <time>2026-03-26T21:01:38Z</time>
      </trkpt>
      <trkpt lat="44.15577" lon="5.30667">
        <ele>1479.6</ele>
        <time>2026-03-26T21:01:46Z</time>
      </trkpt>
      <trkpt lat="44.1555" lon="5.30672">
        <ele>1478.4</ele>
        <time>2026-03-26T21:01:51Z</time>
      </trkpt>
      <trkpt lat="44.15516" lon="5.30696">
        <ele>1476.7</ele>
        <time>2026-03-26T21:01:58Z</time>
      </trkpt>
      <trkpt lat="44.15506" lon="5.30709">
        <ele>1476.1</ele>
        <time>2026-03-26T21:02:00Z</time>
      </trkpt>
      <trkpt lat="44.15496" lon="5.30732">
        <ele>1475.4</ele>
        <time>2026-03-26T21:02:04Z</time>
      </trkpt>
      <trkpt lat="44.15493" lon="5.30747">
        <ele>1474.9</ele>
        <time>2026-03-26T21:02:06Z</time>
      </trkpt>
      <trkpt lat="44.1549" lon="5.30789">
        <ele>1473.7</ele>
        <time>2026-03-26T21:02:11Z</time>
      </trkpt>
      <trkpt lat="44.15494" lon="5.3082">
        <ele>1473.1</ele>
        <time>2026-03-26T21:02:15Z</time>
      </trkpt>
      <trkpt lat="44.15557" lon="5.31032">
        <ele>1467.9</ele>
        <time>2026-03-26T21:02:45Z</time>
      </trkpt>
      <trkpt lat="44.15567" lon="5.31061">
        <ele>1467.7</ele>
        <time>2026-03-26T21:02:49Z</time>
      </trkpt>
      <trkpt lat="44.15593" lon="5.31113">
        <ele>1467.9</ele>
        <time>2026-03-26T21:02:57Z</time>
      </trkpt>
      <trkpt lat="44.15596" lon="5.3113">
        <ele>1468</ele>
        <time>2026-03-26T21:02:59Z</time>
      </trkpt>
      <trkpt lat="44.15587" lon="5.31141">
        <ele>1467.8</ele>
        <time>2026-03-26T21:03:01Z</time>
      </trkpt>
      <trkpt lat="44.15575" lon="5.31139">
        <ele>1467.4</ele>
        <time>2026-03-26T21:03:03Z</time>
      </trkpt>
      <trkpt lat="44.15526" lon="5.31091">
        <ele>1465.2</ele>
        <time>2026-03-26T21:03:14Z</time>
      </trkpt>
      <trkpt lat="44.15502" lon="5.31071">
        <ele>1464.3</ele>
        <time>2026-03-26T21:03:19Z</time>
      </trkpt>
      <trkpt lat="44.15425" lon="5.31023">
        <ele>1462.4</ele>
        <time>2026-03-26T21:03:34Z</time>
      </trkpt>
      <trkpt lat="44.15398" lon="5.31017">
        <ele>1461.6</ele>
        <time>2026-03-26T21:03:39Z</time>
      </trkpt>
      <trkpt lat="44.15357" lon="5.31022">
        <ele>1459.9</ele>
        <time>2026-03-26T21:03:46Z</time>
      </trkpt>
      <trkpt lat="44.15346" lon="5.31028">
        <ele>1459.4</ele>
        <time>2026-03-26T21:03:48Z</time>
      </trkpt>
      <trkpt lat="44.15324" lon="5.31063">
        <ele>1458.2</ele>
        <time>2026-03-26T21:03:54Z</time>
      </trkpt>
      <trkpt lat="44.15318" lon="5.31091">
        <ele>1457.6</ele>
        <time>2026-03-26T21:03:58Z</time>
      </trkpt>
      <trkpt lat="44.15314" lon="5.3113">
        <ele>1456.9</ele>
        <time>2026-03-26T21:04:03Z</time>
      </trkpt>
      <trkpt lat="44.15314" lon="5.31167">
        <ele>1456.4</ele>
        <time>2026-03-26T21:04:08Z</time>
      </trkpt>
      <trkpt lat="44.15317" lon="5.31196">
        <ele>1455.8</ele>
        <time>2026-03-26T21:04:11Z</time>
      </trkpt>
      <trkpt lat="44.15336" lon="5.31278">
        <ele>1455.5</ele>
        <time>2026-03-26T21:04:22Z</time>
      </trkpt>
      <trkpt lat="44.15348" lon="5.31322">
        <ele>1455.5</ele>
        <time>2026-03-26T21:04:28Z</time>
      </trkpt>
      <trkpt lat="44.15364" lon="5.31367">
        <ele>1455.6</ele>
        <time>2026-03-26T21:04:35Z</time>
      </trkpt>
      <trkpt lat="44.15363" lon="5.31376">
        <ele>1455.5</ele>
        <time>2026-03-26T21:04:36Z</time>
      </trkpt>
      <trkpt lat="44.1536" lon="5.3138">
        <ele>1455.4</ele>
        <time>2026-03-26T21:04:37Z</time>
      </trkpt>
      <trkpt lat="44.15349" lon="5.31381">
        <ele>1455</ele>
        <time>2026-03-26T21:04:39Z</time>
      </trkpt>
      <trkpt lat="44.15266" lon="5.31315">
        <ele>1451.4</ele>
        <time>2026-03-26T21:04:56Z</time>
      </trkpt>
      <trkpt lat="44.15207" lon="5.31264">
        <ele>1449.9</ele>
        <time>2026-03-26T21:05:08Z</time>
      </trkpt>
      <trkpt lat="44.15199" lon="5.3126">
        <ele>1449.7</ele>
        <time>2026-03-26T21:05:09Z</time>
      </trkpt>
      <trkpt lat="44.1518" lon="5.31258">
        <ele>1449.3</ele>
        <time>2026-03-26T21:05:13Z</time>
      </trkpt>
      <trkpt lat="44.15159" lon="5.31267">
        <ele>1449.3</ele>
        <time>2026-03-26T21:05:17Z</time>
      </trkpt>
      <trkpt lat="44.15144" lon="5.3128">
        <ele>1449.4</ele>
        <time>2026-03-26T21:05:20Z</time>
      </trkpt>
      <trkpt lat="44.15118" lon="5.31324">
        <ele>1449.6</ele>
        <time>2026-03-26T21:05:27Z</time>
      </trkpt>
      <trkpt lat="44.15104" lon="5.31376">
        <ele>1446.7</ele>
        <time>2026-03-26T21:05:34Z</time>
      </trkpt>
      <trkpt lat="44.15105" lon="5.31388">
        <ele>1445.7</ele>
        <time>2026-03-26T21:05:36Z</time>
      </trkpt>
      <trkpt lat="44.15097" lon="5.314">
        <ele>1444.6</ele>
        <time>2026-03-26T21:05:38Z</time>
      </trkpt>
      <trkpt lat="44.15089" lon="5.31426">
        <ele>1442.5</ele>
        <time>2026-03-26T21:05:42Z</time>
      </trkpt>
      <trkpt lat="44.1509" lon="5.3144">
        <ele>1441.6</ele>
        <time>2026-03-26T21:05:43Z</time>
      </trkpt>
      <trkpt lat="44.15095" lon="5.31455">
        <ele>1440.6</ele>
        <time>2026-03-26T21:05:45Z</time>
      </trkpt>
      <trkpt lat="44.15118" lon="5.315">
        <ele>1437.8</ele>
        <time>2026-03-26T21:05:52Z</time>
      </trkpt>
      <trkpt lat="44.15156" lon="5.31643">
        <ele>1428.9</ele>
        <time>2026-03-26T21:06:12Z</time>
      </trkpt>
      <trkpt lat="44.15191" lon="5.31733">
        <ele>1423.4</ele>
        <time>2026-03-26T21:06:25Z</time>
      </trkpt>
      <trkpt lat="44.15222" lon="5.31839">
        <ele>1417.3</ele>
        <time>2026-03-26T21:06:40Z</time>
      </trkpt>
      <trkpt lat="44.1522" lon="5.31868">
        <ele>1416.9</ele>
        <time>2026-03-26T21:06:43Z</time>
      </trkpt>
      <trkpt lat="44.15203" lon="5.31886">
        <ele>1416.5</ele>
        <time>2026-03-26T21:06:47Z</time>
      </trkpt>
      <trkpt lat="44.15198" lon="5.31886">
        <ele>1416.4</ele>
        <time>2026-03-26T21:06:48Z</time>
      </trkpt>
      <trkpt lat="44.15191" lon="5.31891">
        <ele>1416.8</ele>
        <time>2026-03-26T21:06:49Z</time>
      </trkpt>
      <trkpt lat="44.15183" lon="5.3189">
        <ele>1417.1</ele>
        <time>2026-03-26T21:06:51Z</time>
      </trkpt>
      <trkpt lat="44.15109" lon="5.3183">
        <ele>1416.8</ele>
        <time>2026-03-26T21:07:06Z</time>
      </trkpt>
      <trkpt lat="44.15091" lon="5.31818">
        <ele>1416.9</ele>
        <time>2026-03-26T21:07:10Z</time>
      </trkpt>
      <trkpt lat="44.15063" lon="5.31804">
        <ele>1417</ele>
        <time>2026-03-26T21:07:15Z</time>
      </trkpt>
      <trkpt lat="44.14962" lon="5.31769">
        <ele>1416.2</ele>
        <time>2026-03-26T21:07:33Z</time>
      </trkpt>
      <trkpt lat="44.14942" lon="5.31767">
        <ele>1416.1</ele>
        <time>2026-03-26T21:07:37Z</time>
      </trkpt>
      <trkpt lat="44.14926" lon="5.31775">
        <ele>1415.9</ele>
        <time>2026-03-26T21:07:40Z</time>
      </trkpt>
      <trkpt lat="44.14919" lon="5.31785">
        <ele>1415.8</ele>
        <time>2026-03-26T21:07:42Z</time>
      </trkpt>
      <trkpt lat="44.14913" lon="5.31801">
        <ele>1415.8</ele>
        <time>2026-03-26T21:07:44Z</time>
      </trkpt>
      <trkpt lat="44.149" lon="5.31858">
        <ele>1415.4</ele>
        <time>2026-03-26T21:07:52Z</time>
      </trkpt>
      <trkpt lat="44.14895" lon="5.31927">
        <ele>1415</ele>
        <time>2026-03-26T21:08:01Z</time>
      </trkpt>
      <trkpt lat="44.14895" lon="5.32021">
        <ele>1414.3</ele>
        <time>2026-03-26T21:08:13Z</time>
      </trkpt>
      <trkpt lat="44.14888" lon="5.3207">
        <ele>1413.9</ele>
        <time>2026-03-26T21:08:19Z</time>
      </trkpt>
      <trkpt lat="44.1488" lon="5.321">
        <ele>1413.6</ele>
        <time>2026-03-26T21:08:23Z</time>
      </trkpt>
      <trkpt lat="44.14867" lon="5.32135">
        <ele>1413.2</ele>
        <time>2026-03-26T21:08:28Z</time>
      </trkpt>
      <trkpt lat="44.14839" lon="5.32197">
        <ele>1412.4</ele>
        <time>2026-03-26T21:08:37Z</time>
      </trkpt>
      <trkpt lat="44.1483" lon="5.32229">
        <ele>1412.1</ele>
        <time>2026-03-26T21:08:42Z</time>
      </trkpt>
      <trkpt lat="44.14829" lon="5.3225">
        <ele>1411.9</ele>
        <time>2026-03-26T21:08:45Z</time>
      </trkpt>
      <trkpt lat="44.14832" lon="5.32278">
        <ele>1411.5</ele>
        <time>2026-03-26T21:08:48Z</time>
      </trkpt>
      <trkpt lat="44.1484" lon="5.32307">
        <ele>1411.1</ele>
        <time>2026-03-26T21:08:52Z</time>
      </trkpt>
      <trkpt lat="44.14846" lon="5.3232">
        <ele>1410.8</ele>
        <time>2026-03-26T21:08:54Z</time>
      </trkpt>
      <trkpt lat="44.14872" lon="5.32349">
        <ele>1410.2</ele>
        <time>2026-03-26T21:09:00Z</time>
      </trkpt>
      <trkpt lat="44.14934" lon="5.3239">
        <ele>1409.3</ele>
        <time>2026-03-26T21:09:12Z</time>
      </trkpt>
      <trkpt lat="44.15003" lon="5.32445">
        <ele>1408.8</ele>
        <time>2026-03-26T21:09:26Z</time>
      </trkpt>
      <trkpt lat="44.15037" lon="5.32477">
        <ele>1408.6</ele>
        <time>2026-03-26T21:09:34Z</time>
      </trkpt>
      <trkpt lat="44.15074" lon="5.32517">
        <ele>1408.3</ele>
        <time>2026-03-26T21:09:42Z</time>
      </trkpt>
      <trkpt lat="44.15095" lon="5.32544">
        <ele>1408.1</ele>
        <time>2026-03-26T21:09:47Z</time>
      </trkpt>
      <trkpt lat="44.15153" lon="5.32636">
        <ele>1407</ele>
        <time>2026-03-26T21:10:03Z</time>
      </trkpt>
      <trkpt lat="44.15177" lon="5.32666">
        <ele>1406.6</ele>
        <time>2026-03-26T21:10:08Z</time>
      </trkpt>
      <trkpt lat="44.15204" lon="5.32687">
        <ele>1406.2</ele>
        <time>2026-03-26T21:10:14Z</time>
      </trkpt>
      <trkpt lat="44.15241" lon="5.32711">
        <ele>1405.6</ele>
        <time>2026-03-26T21:10:21Z</time>
      </trkpt>
      <trkpt lat="44.15318" lon="5.3275">
        <ele>1405.6</ele>
        <time>2026-03-26T21:10:36Z</time>
      </trkpt>
      <trkpt lat="44.15329" lon="5.32762">
        <ele>1405.6</ele>
        <time>2026-03-26T21:10:38Z</time>
      </trkpt>
      <trkpt lat="44.1533" lon="5.32771">
        <ele>1405.6</ele>
        <time>2026-03-26T21:10:39Z</time>
      </trkpt>
      <trkpt lat="44.15325" lon="5.32785">
        <ele>1405.4</ele>
        <time>2026-03-26T21:10:41Z</time>
      </trkpt>
      <trkpt lat="44.15319" lon="5.32789">
        <ele>1405.3</ele>
        <time>2026-03-26T21:10:43Z</time>
      </trkpt>
      <trkpt lat="44.15311" lon="5.3279">
        <ele>1405.1</ele>
        <time>2026-03-26T21:10:44Z</time>
      </trkpt>
      <trkpt lat="44.15236" lon="5.32789">
        <ele>1404</ele>
        <time>2026-03-26T21:10:57Z</time>
      </trkpt>
      <trkpt lat="44.15189" lon="5.32785">
        <ele>1403.5</ele>
        <time>2026-03-26T21:11:06Z</time>
      </trkpt>
      <trkpt lat="44.15129" lon="5.32775">
        <ele>1402.7</ele>
        <time>2026-03-26T21:11:17Z</time>
      </trkpt>
      <trkpt lat="44.15093" lon="5.32765">
        <ele>1402.3</ele>
        <time>2026-03-26T21:11:23Z</time>
      </trkpt>
      <trkpt lat="44.15022" lon="5.32736">
        <ele>1401.1</ele>
        <time>2026-03-26T21:11:36Z</time>
      </trkpt>
      <trkpt lat="44.14921" lon="5.32683">
        <ele>1400</ele>
        <time>2026-03-26T21:11:55Z</time>
      </trkpt>
      <trkpt lat="44.14902" lon="5.32679">
        <ele>1399.8</ele>
        <time>2026-03-26T21:11:59Z</time>
      </trkpt>
      <trkpt lat="44.14893" lon="5.3268">
        <ele>1399.7</ele>
        <time>2026-03-26T21:12:00Z</time>
      </trkpt>
      <trkpt lat="44.1488" lon="5.32695">
        <ele>1399.5</ele>
        <time>2026-03-26T21:12:03Z</time>
      </trkpt>
      <trkpt lat="44.14876" lon="5.32707">
        <ele>1399.4</ele>
        <time>2026-03-26T21:12:05Z</time>
      </trkpt>
      <trkpt lat="44.14875" lon="5.3272">
        <ele>1399.3</ele>
        <time>2026-03-26T21:12:07Z</time>
      </trkpt>
      <trkpt lat="44.14879" lon="5.32748">
        <ele>1399.2</ele>
        <time>2026-03-26T21:12:10Z</time>
      </trkpt>
      <trkpt lat="44.14897" lon="5.3281">
        <ele>1399.3</ele>
        <time>2026-03-26T21:12:19Z</time>
      </trkpt>
      <trkpt lat="44.14899" lon="5.32826">
        <ele>1399.2</ele>
        <time>2026-03-26T21:12:21Z</time>
      </trkpt>
      <trkpt lat="44.14896" lon="5.32912">
        <ele>1398.6</ele>
        <time>2026-03-26T21:12:32Z</time>
      </trkpt>
      <trkpt lat="44.14888" lon="5.32982">
        <ele>1397.9</ele>
        <time>2026-03-26T21:12:41Z</time>
      </trkpt>
      <trkpt lat="44.14892" lon="5.3303">
        <ele>1397.5</ele>
        <time>2026-03-26T21:12:47Z</time>
      </trkpt>
      <trkpt lat="44.14904" lon="5.33085">
        <ele>1397.1</ele>
        <time>2026-03-26T21:12:55Z</time>
      </trkpt>
      <trkpt lat="44.14934" lon="5.33181">
        <ele>1396.6</ele>
        <time>2026-03-26T21:13:08Z</time>
      </trkpt>
      <trkpt lat="44.14942" lon="5.33222">
        <ele>1396.7</ele>
        <time>2026-03-26T21:13:13Z</time>
      </trkpt>
      <trkpt lat="44.14942" lon="5.33239">
        <ele>1396.7</ele>
        <time>2026-03-26T21:13:16Z</time>
      </trkpt>
      <trkpt lat="44.15005" lon="5.33293">
        <ele>1404.2</ele>
        <time>2026-03-26T21:13:29Z</time>
      </trkpt>
      <trkpt lat="44.1501" lon="5.33312">
        <ele>1405.3</ele>
        <time>2026-03-26T21:13:31Z</time>
      </trkpt>
      <trkpt lat="44.15006" lon="5.33322">
        <ele>1405.7</ele>
        <time>2026-03-26T21:13:33Z</time>
      </trkpt>
      <trkpt lat="44.14996" lon="5.33325">
        <ele>1405.9</ele>
        <time>2026-03-26T21:13:35Z</time>
      </trkpt>
      <trkpt lat="44.1498" lon="5.33318">
        <ele>1406.3</ele>
        <time>2026-03-26T21:13:38Z</time>
      </trkpt>
      <trkpt lat="44.14968" lon="5.33318">
        <ele>1406.7</ele>
        <time>2026-03-26T21:13:40Z</time>
      </trkpt>
      <trkpt lat="44.14961" lon="5.33329">
        <ele>1406.9</ele>
        <time>2026-03-26T21:13:42Z</time>
      </trkpt>
      <trkpt lat="44.14961" lon="5.33345">
        <ele>1407.3</ele>
        <time>2026-03-26T21:13:44Z</time>
      </trkpt>
      <trkpt lat="44.14969" lon="5.33359">
        <ele>1407.7</ele>
        <time>2026-03-26T21:13:46Z</time>
      </trkpt>
      <trkpt lat="44.15093" lon="5.33441">
        <ele>1412.1</ele>
        <time>2026-03-26T21:14:10Z</time>
      </trkpt>
      <trkpt lat="44.15109" lon="5.33459">
        <ele>1413.6</ele>
        <time>2026-03-26T21:14:14Z</time>
      </trkpt>
      <trkpt lat="44.15111" lon="5.33467">
        <ele>1414</ele>
        <time>2026-03-26T21:14:15Z</time>
      </trkpt>
      <trkpt lat="44.1511" lon="5.33477">
        <ele>1414.6</ele>
        <time>2026-03-26T21:14:16Z</time>
      </trkpt>
      <trkpt lat="44.15106" lon="5.33485">
        <ele>1414.9</ele>
        <time>2026-03-26T21:14:18Z</time>
      </trkpt>
      <trkpt lat="44.151" lon="5.33488">
        <ele>1415.2</ele>
        <time>2026-03-26T21:14:19Z</time>
      </trkpt>
      <trkpt lat="44.15039" lon="5.33487">
        <ele>1417.9</ele>
        <time>2026-03-26T21:14:30Z</time>
      </trkpt>
      <trkpt lat="44.1502" lon="5.33491">
        <ele>1418.8</ele>
        <time>2026-03-26T21:14:33Z</time>
      </trkpt>
      <trkpt lat="44.14925" lon="5.33524">
        <ele>1424.3</ele>
        <time>2026-03-26T21:14:50Z</time>
      </trkpt>
      <trkpt lat="44.14906" lon="5.33535">
        <ele>1425.5</ele>
        <time>2026-03-26T21:14:54Z</time>
      </trkpt>
      <trkpt lat="44.14887" lon="5.33561">
        <ele>1426.8</ele>
        <time>2026-03-26T21:14:59Z</time>
      </trkpt>
      <trkpt lat="44.1488" lon="5.33576">
        <ele>1427.4</ele>
        <time>2026-03-26T21:15:01Z</time>
      </trkpt>
      <trkpt lat="44.14874" lon="5.33617">
        <ele>1429</ele>
        <time>2026-03-26T21:15:07Z</time>
      </trkpt>
      <trkpt lat="44.14876" lon="5.33637">
        <ele>1429.9</ele>
        <time>2026-03-26T21:15:09Z</time>
      </trkpt>
      <trkpt lat="44.1489" lon="5.33671">
        <ele>1432.2</ele>
        <time>2026-03-26T21:15:14Z</time>
      </trkpt>
      <trkpt lat="44.14899" lon="5.33683">
        <ele>1433.5</ele>
        <time>2026-03-26T21:15:16Z</time>
      </trkpt>
      <trkpt lat="44.14913" lon="5.33693">
        <ele>1435.4</ele>
        <time>2026-03-26T21:15:19Z</time>
      </trkpt>
      <trkpt lat="44.14935" lon="5.33701">
        <ele>1438.7</ele>
        <time>2026-03-26T21:15:23Z</time>
      </trkpt>
      <trkpt lat="44.14943" lon="5.33701">
        <ele>1439.9</ele>
        <time>2026-03-26T21:15:25Z</time>
      </trkpt>
      <trkpt lat="44.14954" lon="5.33697">
        <ele>1441.6</ele>
        <time>2026-03-26T21:15:27Z</time>
      </trkpt>
      <trkpt lat="44.14999" lon="5.33672">
        <ele>1449.3</ele>
        <time>2026-03-26T21:15:35Z</time>
      </trkpt>
      <trkpt lat="44.15013" lon="5.33668">
        <ele>1451.7</ele>
        <time>2026-03-26T21:15:38Z</time>
      </trkpt>
      <trkpt lat="44.1506" lon="5.33677">
        <ele>1459</ele>
        <time>2026-03-26T21:15:46Z</time>
      </trkpt>
      <trkpt lat="44.15293" lon="5.33733">
        <ele>1491.7</ele>
        <time>2026-03-26T21:16:28Z</time>
      </trkpt>
      <trkpt lat="44.15328" lon="5.33731">
        <ele>1496.6</ele>
        <time>2026-03-26T21:16:35Z</time>
      </trkpt>
      <trkpt lat="44.1536" lon="5.33722">
        <ele>1500.6</ele>
        <time>2026-03-26T21:16:40Z</time>
      </trkpt>
      <trkpt lat="44.15406" lon="5.33703">
        <ele>1505</ele>
        <time>2026-03-26T21:16:49Z</time>
      </trkpt>
      <trkpt lat="44.15468" lon="5.33664">
        <ele>1512.1</ele>
        <time>2026-03-26T21:17:01Z</time>
      </trkpt>
      <trkpt lat="44.15499" lon="5.33637">
        <ele>1516.3</ele>
        <time>2026-03-26T21:17:07Z</time>
      </trkpt>
      <trkpt lat="44.15532" lon="5.33598">
        <ele>1521.6</ele>
        <time>2026-03-26T21:17:15Z</time>
      </trkpt>
      <trkpt lat="44.15552" lon="5.33569">
        <ele>1525.1</ele>
        <time>2026-03-26T21:17:20Z</time>
      </trkpt>
      <trkpt lat="44.15571" lon="5.33527">
        <ele>1528.9</ele>
        <time>2026-03-26T21:17:27Z</time>
      </trkpt>
      <trkpt lat="44.15577" lon="5.33504">
        <ele>1530.4</ele>
        <time>2026-03-26T21:17:30Z</time>
      </trkpt>
      <trkpt lat="44.1558" lon="5.33478">
        <ele>1531.6</ele>
        <time>2026-03-26T21:17:33Z</time>
      </trkpt>
      <trkpt lat="44.15578" lon="5.33428">
        <ele>1533.5</ele>
        <time>2026-03-26T21:17:40Z</time>
      </trkpt>
      <trkpt lat="44.15574" lon="5.33404">
        <ele>1534.7</ele>
        <time>2026-03-26T21:17:43Z</time>
      </trkpt>
      <trkpt lat="44.15542" lon="5.33325">
        <ele>1538.2</ele>
        <time>2026-03-26T21:17:54Z</time>
      </trkpt>
      <trkpt lat="44.15532" lon="5.33284">
        <ele>1539</ele>
        <time>2026-03-26T21:18:00Z</time>
      </trkpt>
      <trkpt lat="44.15535" lon="5.33249">
        <ele>1539.9</ele>
        <time>2026-03-26T21:18:04Z</time>
      </trkpt>
      <trkpt lat="44.15553" lon="5.33209">
        <ele>1543.2</ele>
        <time>2026-03-26T21:18:10Z</time>
      </trkpt>
      <trkpt lat="44.15583" lon="5.33171">
        <ele>1547.6</ele>
        <time>2026-03-26T21:18:18Z</time>
      </trkpt>
      <trkpt lat="44.15625" lon="5.33126">
        <ele>1553</ele>
        <time>2026-03-26T21:18:27Z</time>
      </trkpt>
      <trkpt lat="44.15645" lon="5.33109">
        <ele>1554.9</ele>
        <time>2026-03-26T21:18:31Z</time>
      </trkpt>
      <trkpt lat="44.15688" lon="5.33081">
        <ele>1558.3</ele>
        <time>2026-03-26T21:18:40Z</time>
      </trkpt>
      <trkpt lat="44.15812" lon="5.33023">
        <ele>1570.1</ele>
        <time>2026-03-26T21:19:03Z</time>
      </trkpt>
      <trkpt lat="44.15821" lon="5.33022">
        <ele>1571.3</ele>
        <time>2026-03-26T21:19:04Z</time>
      </trkpt>
      <trkpt lat="44.15828" lon="5.33027">
        <ele>1572.3</ele>
        <time>2026-03-26T21:19:06Z</time>
      </trkpt>
      <trkpt lat="44.15834" lon="5.33036">
        <ele>1573.3</ele>
        <time>2026-03-26T21:19:07Z</time>
      </trkpt>
      <trkpt lat="44.15837" lon="5.33047">
        <ele>1574.1</ele>
        <time>2026-03-26T21:19:09Z</time>
      </trkpt>
      <trkpt lat="44.15837" lon="5.33062">
        <ele>1574.9</ele>
        <time>2026-03-26T21:19:11Z</time>
      </trkpt>
      <trkpt lat="44.15833" lon="5.33072">
        <ele>1575.5</ele>
        <time>2026-03-26T21:19:12Z</time>
      </trkpt>
      <trkpt lat="44.15838" lon="5.33075">
        <ele>1575.2</ele>
        <time>2026-03-26T21:19:13Z</time>
      </trkpt>
      <trkpt lat="44.15847" lon="5.33074">
        <ele>1574.8</ele>
        <time>2026-03-26T21:19:15Z</time>
      </trkpt>
      <trkpt lat="44.15856" lon="5.33053">
        <ele>1574.4</ele>
        <time>2026-03-26T21:19:18Z</time>
      </trkpt>
      <trkpt lat="44.15876" lon="5.32975">
        <ele>1574.5</ele>
        <time>2026-03-26T21:19:29Z</time>
      </trkpt>
      <trkpt lat="44.15895" lon="5.32924">
        <ele>1578.9</ele>
        <time>2026-03-26T21:19:36Z</time>
      </trkpt>
      <trkpt lat="44.15908" lon="5.32902">
        <ele>1581</ele>
        <time>2026-03-26T21:19:40Z</time>
      </trkpt>
      <trkpt lat="44.15913" lon="5.32876">
        <ele>1582.4</ele>
        <time>2026-03-26T21:19:43Z</time>
      </trkpt>
      <trkpt lat="44.15913" lon="5.32846">
        <ele>1583.5</ele>
        <time>2026-03-26T21:19:47Z</time>
      </trkpt>
      <trkpt lat="44.15924" lon="5.32805">
        <ele>1586.6</ele>
        <time>2026-03-26T21:19:52Z</time>
      </trkpt>
      <trkpt lat="44.15935" lon="5.32694">
        <ele>1598.5</ele>
        <time>2026-03-26T21:20:07Z</time>
      </trkpt>
      <trkpt lat="44.15957" lon="5.32643">
        <ele>1605.7</ele>
        <time>2026-03-26T21:20:14Z</time>
      </trkpt>
      <trkpt lat="44.1597" lon="5.32606">
        <ele>1608.9</ele>
        <time>2026-03-26T21:20:20Z</time>
      </trkpt>
      <trkpt lat="44.15976" lon="5.32579">
        <ele>1609.8</ele>
        <time>2026-03-26T21:20:23Z</time>
      </trkpt>
      <trkpt lat="44.15983" lon="5.32531">
        <ele>1611</ele>
        <time>2026-03-26T21:20:29Z</time>
      </trkpt>
      <trkpt lat="44.16007" lon="5.32181">
        <ele>1614.4</ele>
        <time>2026-03-26T21:21:14Z</time>
      </trkpt>
      <trkpt lat="44.16013" lon="5.32126">
        <ele>1621.5</ele>
        <time>2026-03-26T21:21:21Z</time>
      </trkpt>
      <trkpt lat="44.16018" lon="5.321">
        <ele>1624.1</ele>
        <time>2026-03-26T21:21:25Z</time>
      </trkpt>
      <trkpt lat="44.16056" lon="5.32023">
        <ele>1631.9</ele>
        <time>2026-03-26T21:21:37Z</time>
      </trkpt>
      <trkpt lat="44.16064" lon="5.31994">
        <ele>1632.8</ele>
        <time>2026-03-26T21:21:41Z</time>
      </trkpt>
      <trkpt lat="44.16063" lon="5.31864">
        <ele>1627.2</ele>
        <time>2026-03-26T21:21:57Z</time>
      </trkpt>
      <trkpt lat="44.16099" lon="5.31726">
        <ele>1624.2</ele>
        <time>2026-03-26T21:22:16Z</time>
      </trkpt>
      <trkpt lat="44.16227" lon="5.31502">
        <ele>1636.9</ele>
        <time>2026-03-26T21:22:53Z</time>
      </trkpt>
      <trkpt lat="44.16234" lon="5.31473">
        <ele>1639.3</ele>
        <time>2026-03-26T21:22:56Z</time>
      </trkpt>
      <trkpt lat="44.16213" lon="5.31294">
        <ele>1637.5</ele>
        <time>2026-03-26T21:23:20Z</time>
      </trkpt>
      <trkpt lat="44.16197" lon="5.31195">
        <ele>1635.9</ele>
        <time>2026-03-26T21:23:33Z</time>
      </trkpt>
      <trkpt lat="44.162" lon="5.31173">
        <ele>1635.5</ele>
        <time>2026-03-26T21:23:35Z</time>
      </trkpt>
      <trkpt lat="44.16212" lon="5.31136">
        <ele>1635.6</ele>
        <time>2026-03-26T21:23:41Z</time>
      </trkpt>
      <trkpt lat="44.16283" lon="5.3095">
        <ele>1642.9</ele>
        <time>2026-03-26T21:24:08Z</time>
      </trkpt>
      <trkpt lat="44.16316" lon="5.30801">
        <ele>1664.2</ele>
        <time>2026-03-26T21:24:27Z</time>
      </trkpt>
      <trkpt lat="44.16327" lon="5.30724">
        <ele>1671</ele>
        <time>2026-03-26T21:24:37Z</time>
      </trkpt>
      <trkpt lat="44.16362" lon="5.30603">
        <ele>1679.4</ele>
        <time>2026-03-26T21:24:54Z</time>
      </trkpt>
      <trkpt lat="44.16371" lon="5.30582">
        <ele>1680.3</ele>
        <time>2026-03-26T21:24:57Z</time>
      </trkpt>
      <trkpt lat="44.16409" lon="5.30513">
        <ele>1681.7</ele>
        <time>2026-03-26T21:25:08Z</time>
      </trkpt>
      <trkpt lat="44.16499" lon="5.30359">
        <ele>1684.9</ele>
        <time>2026-03-26T21:25:34Z</time>
      </trkpt>
      <trkpt lat="44.16527" lon="5.3028">
        <ele>1687.8</ele>
        <time>2026-03-26T21:25:45Z</time>
      </trkpt>
      <trkpt lat="44.16541" lon="5.30247">
        <ele>1690.1</ele>
        <time>2026-03-26T21:25:50Z</time>
      </trkpt>
      <trkpt lat="44.16748" lon="5.29781">
        <ele>1731.9</ele>
        <time>2026-03-26T21:27:00Z</time>
      </trkpt>
      <trkpt lat="44.16772" lon="5.29722">
        <ele>1733.6</ele>
        <time>2026-03-26T21:27:08Z</time>
      </trkpt>
      <trkpt lat="44.16796" lon="5.29673">
        <ele>1732.3</ele>
        <time>2026-03-26T21:27:16Z</time>
      </trkpt>
      <trkpt lat="44.16849" lon="5.29588">
        <ele>1736.4</ele>
        <time>2026-03-26T21:27:30Z</time>
      </trkpt>
      <trkpt lat="44.16863" lon="5.29556">
        <ele>1739.8</ele>
        <time>2026-03-26T21:27:35Z</time>
      </trkpt>
      <trkpt lat="44.16909" lon="5.29427">
        <ele>1762.8</ele>
        <time>2026-03-26T21:27:54Z</time>
      </trkpt>
      <trkpt lat="44.16941" lon="5.29356">
        <ele>1773.5</ele>
        <time>2026-03-26T21:28:04Z</time>
      </trkpt>
      <trkpt lat="44.16964" lon="5.29291">
        <ele>1778.5</ele>
        <time>2026-03-26T21:28:14Z</time>
      </trkpt>
      <trkpt lat="44.16988" lon="5.29252">
        <ele>1782.6</ele>
        <time>2026-03-26T21:28:20Z</time>
      </trkpt>
      <trkpt lat="44.17003" lon="5.29234">
        <ele>1784.5</ele>
        <time>2026-03-26T21:28:24Z</time>
      </trkpt>
      <trkpt lat="44.17095" lon="5.29148">
        <ele>1800.1</ele>
        <time>2026-03-26T21:28:43Z</time>
      </trkpt>
      <trkpt lat="44.17158" lon="5.29053">
        <ele>1818.2</ele>
        <time>2026-03-26T21:29:00Z</time>
      </trkpt>
      <trkpt lat="44.17183" lon="5.29024">
        <ele>1824.7</ele>
        <time>2026-03-26T21:29:06Z</time>
      </trkpt>
      <trkpt lat="44.1719" lon="5.29009">
        <ele>1826.3</ele>
        <time>2026-03-26T21:29:08Z</time>
      </trkpt>
      <trkpt lat="44.17198" lon="5.28981">
        <ele>1827.8</ele>
        <time>2026-03-26T21:29:12Z</time>
      </trkpt>
      <trkpt lat="44.17196" lon="5.28913">
        <ele>1830.4</ele>
        <time>2026-03-26T21:29:20Z</time>
      </trkpt>
      <trkpt lat="44.17181" lon="5.28849">
        <ele>1831.8</ele>
        <time>2026-03-26T21:29:29Z</time>
      </trkpt>
      <trkpt lat="44.17186" lon="5.28828">
        <ele>1831.7</ele>
        <time>2026-03-26T21:29:32Z</time>
      </trkpt>
      <trkpt lat="44.17199" lon="5.28813">
        <ele>1831.7</ele>
        <time>2026-03-26T21:29:35Z</time>
      </trkpt>
      <trkpt lat="44.17208" lon="5.28784">
        <ele>1831.2</ele>
        <time>2026-03-26T21:29:39Z</time>
      </trkpt>
      <trkpt lat="44.17215" lon="5.28725">
        <ele>1831</ele>
        <time>2026-03-26T21:29:46Z</time>
      </trkpt>
      <trkpt lat="44.17241" lon="5.28611">
        <ele>1831.5</ele>
        <time>2026-03-26T21:30:02Z</time>
      </trkpt>
      <trkpt lat="44.17269" lon="5.28534">
        <ele>1830.6</ele>
        <time>2026-03-26T21:30:13Z</time>
      </trkpt>
      <trkpt lat="44.173" lon="5.28469">
        <ele>1827.6</ele>
        <time>2026-03-26T21:30:23Z</time>
      </trkpt>
      <trkpt lat="44.17347" lon="5.28433">
        <ele>1824.1</ele>
        <time>2026-03-26T21:30:32Z</time>
      </trkpt>
      <trkpt lat="44.17386" lon="5.28408">
        <ele>1822</ele>
        <time>2026-03-26T21:30:40Z</time>
      </trkpt>
      <trkpt lat="44.17416" lon="5.28375">
        <ele>1823.7</ele>
        <time>2026-03-26T21:30:47Z</time>
      </trkpt>
      <trkpt lat="44.17422" lon="5.28359">
        <ele>1824.8</ele>
        <time>2026-03-26T21:30:49Z</time>
      </trkpt>
      <trkpt lat="44.17424" lon="5.2835">
        <ele>1825.6</ele>
        <time>2026-03-26T21:30:50Z</time>
      </trkpt>
      <trkpt lat="44.1742" lon="5.28302">
        <ele>1829.3</ele>
        <time>2026-03-26T21:30:56Z</time>
      </trkpt>
      <trkpt lat="44.17379" lon="5.28087">
        <ele>1846.9</ele>
        <time>2026-03-26T21:31:25Z</time>
      </trkpt>
      <trkpt lat="44.17373" lon="5.28066">
        <ele>1848.6</ele>
        <time>2026-03-26T21:31:28Z</time>
      </trkpt>
      <trkpt lat="44.17307" lon="5.27927">
        <ele>1861.4</ele>
        <time>2026-03-26T21:31:49Z</time>
      </trkpt>
      <trkpt lat="44.17299" lon="5.27902">
        <ele>1863.7</ele>
        <time>2026-03-26T21:31:52Z</time>
      </trkpt>
      <trkpt lat="44.17296" lon="5.27875">
        <ele>1866.1</ele>
        <time>2026-03-26T21:31:56Z</time>
      </trkpt>
      <trkpt lat="44.17296" lon="5.27846">
        <ele>1868.6</ele>
        <time>2026-03-26T21:32:00Z</time>
      </trkpt>
      <trkpt lat="44.17302" lon="5.27803">
        <ele>1870.8</ele>
        <time>2026-03-26T21:32:05Z</time>
      </trkpt>
      <trkpt lat="44.17325" lon="5.27745">
        <ele>1875.7</ele>
        <time>2026-03-26T21:32:14Z</time>
      </trkpt>
      <trkpt lat="44.17335" lon="5.27709">
        <ele>1879.1</ele>
        <time>2026-03-26T21:32:19Z</time>
      </trkpt>
      <trkpt lat="44.1734" lon="5.27702">
        <ele>1880.2</ele>
        <time>2026-03-26T21:32:20Z</time>
      </trkpt>
      <trkpt lat="44.17345" lon="5.27702">
        <ele>1880.9</ele>
        <time>2026-03-26T21:32:21Z</time>
      </trkpt>
      <trkpt lat="44.1735" lon="5.27706">
        <ele>1881.3</ele>
        <time>2026-03-26T21:32:22Z</time>
      </trkpt>
      <trkpt lat="44.17352" lon="5.27715">
        <ele>1881.8</ele>
        <time>2026-03-26T21:32:23Z</time>
      </trkpt>
      <trkpt lat="44.1735" lon="5.2784">
        <ele>1891.7</ele>
        <time>2026-03-26T21:32:39Z</time>
      </trkpt>
      <trkpt lat="44.17352" lon="5.27862">
        <ele>1891.9</ele>
        <time>2026-03-26T21:32:42Z</time>
      </trkpt>
      <trkpt lat="44.17358" lon="5.27881">
        <ele>1891.9</ele>
        <time>2026-03-26T21:32:44Z</time>
      </trkpt>
      <trkpt lat="44.17374" lon="5.27907">
        <ele>1890</ele>
        <time>2026-03-26T21:32:49Z</time>
      </trkpt>
      <trkpt lat="44.17385" lon="5.2792">
        <ele>1888.4</ele>
        <time>2026-03-26T21:32:51Z</time>
      </trkpt>
      <trkpt lat="44.17424" lon="5.27955">
        <ele>1883.9</ele>
        <time>2026-03-26T21:33:00Z</time>
      </trkpt>
      <trkpt lat="44.17432" lon="5.27967">
        <ele>1883</ele>
        <time>2026-03-26T21:33:02Z</time>
      </trkpt>
      <trkpt lat="44.17439" lon="5.27971">
        <ele>1882.5</ele>
        <time>2026-03-26T21:33:03Z</time>
      </trkpt>
      <trkpt lat="44.17446" lon="5.2798">
        <ele>1881.4</ele>
        <time>2026-03-26T21:33:05Z</time>
      </trkpt>
      <trkpt lat="44.17474" lon="5.28038">
        <ele>1877.8</ele>
        <time>2026-03-26T21:33:14Z</time>
      </trkpt>
      <trkpt lat="44.17484" lon="5.28049">
        <ele>1877.4</ele>
        <time>2026-03-26T21:33:16Z</time>
      </trkpt>
      <trkpt lat="44.17493" lon="5.28048">
        <ele>1877.1</ele>
        <time>2026-03-26T21:33:18Z</time>
      </trkpt>
      <trkpt lat="44.17501" lon="5.28038">
        <ele>1876.4</ele>
        <time>2026-03-26T21:33:19Z</time>
      </trkpt>
      <trkpt lat="44.17505" lon="5.28026">
        <ele>1875.5</ele>
        <time>2026-03-26T21:33:21Z</time>
      </trkpt>
      <trkpt lat="44.17518" lon="5.27962">
        <ele>1870.1</ele>
        <time>2026-03-26T21:33:30Z</time>
      </trkpt>
      <trkpt lat="44.17525" lon="5.27901">
        <ele>1865.2</ele>
        <time>2026-03-26T21:33:38Z</time>
      </trkpt>
      <trkpt lat="44.17515" lon="5.27821">
        <ele>1859.6</ele>
        <time>2026-03-26T21:33:48Z</time>
      </trkpt>
      <trkpt lat="44.17504" lon="5.27789">
        <ele>1856.9</ele>
        <time>2026-03-26T21:33:52Z</time>
      </trkpt>
      <trkpt lat="44.17479" lon="5.27746">
        <ele>1852.9</ele>
        <time>2026-03-26T21:33:59Z</time>
      </trkpt>
      <trkpt lat="44.17426" lon="5.27692">
        <ele>1846.4</ele>
        <time>2026-03-26T21:34:11Z</time>
      </trkpt>
      <trkpt lat="44.17413" lon="5.27671">
        <ele>1844.4</ele>
        <time>2026-03-26T21:34:15Z</time>
      </trkpt>
      <trkpt lat="44.17369" lon="5.27571">
        <ele>1836.6</ele>
        <time>2026-03-26T21:34:30Z</time>
      </trkpt>
      <trkpt lat="44.17353" lon="5.2752">
        <ele>1833</ele>
        <time>2026-03-26T21:34:37Z</time>
      </trkpt>
      <trkpt lat="44.17351" lon="5.275">
        <ele>1831.6</ele>
        <time>2026-03-26T21:34:39Z</time>
      </trkpt>
      <trkpt lat="44.17353" lon="5.27394">
        <ele>1825.5</ele>
        <time>2026-03-26T21:34:53Z</time>
      </trkpt>
      <trkpt lat="44.17347" lon="5.27258">
        <ele>1820.8</ele>
        <time>2026-03-26T21:35:10Z</time>
      </trkpt>
      <trkpt lat="44.17351" lon="5.27246">
        <ele>1820.3</ele>
        <time>2026-03-26T21:35:12Z</time>
      </trkpt>
      <trkpt lat="44.17362" lon="5.27239">
        <ele>1819.6</ele>
        <time>2026-03-26T21:35:14Z</time>
      </trkpt>
      <trkpt lat="44.17373" lon="5.27239">
        <ele>1819</ele>
        <time>2026-03-26T21:35:16Z</time>
      </trkpt>
      <trkpt lat="44.17381" lon="5.27245">
        <ele>1818.6</ele>
        <time>2026-03-26T21:35:18Z</time>
      </trkpt>
      <trkpt lat="44.17386" lon="5.27257">
        <ele>1818.2</ele>
        <time>2026-03-26T21:35:19Z</time>
      </trkpt>
      <trkpt lat="44.17386" lon="5.27277">
        <ele>1817.2</ele>
        <time>2026-03-26T21:35:22Z</time>
      </trkpt>
      <trkpt lat="44.1738" lon="5.27318">
        <ele>1815.1</ele>
        <time>2026-03-26T21:35:27Z</time>
      </trkpt>
      <trkpt lat="44.17382" lon="5.27449">
        <ele>1808.4</ele>
        <time>2026-03-26T21:35:44Z</time>
      </trkpt>
      <trkpt lat="44.17385" lon="5.27474">
        <ele>1806.5</ele>
        <time>2026-03-26T21:35:47Z</time>
      </trkpt>
      <trkpt lat="44.17394" lon="5.27496">
        <ele>1804.5</ele>
        <time>2026-03-26T21:35:51Z</time>
      </trkpt>
      <trkpt lat="44.17455" lon="5.27579">
        <ele>1795</ele>
        <time>2026-03-26T21:36:06Z</time>
      </trkpt>
      <trkpt lat="44.17469" lon="5.27594">
        <ele>1793.1</ele>
        <time>2026-03-26T21:36:09Z</time>
      </trkpt>
      <trkpt lat="44.1749" lon="5.27607">
        <ele>1790.5</ele>
        <time>2026-03-26T21:36:13Z</time>
      </trkpt>
      <trkpt lat="44.17541" lon="5.27618">
        <ele>1784.7</ele>
        <time>2026-03-26T21:36:22Z</time>
      </trkpt>
      <trkpt lat="44.17581" lon="5.27634">
        <ele>1780</ele>
        <time>2026-03-26T21:36:29Z</time>
      </trkpt>
      <trkpt lat="44.17638" lon="5.27674">
        <ele>1772.8</ele>
        <time>2026-03-26T21:36:41Z</time>
      </trkpt>
      <trkpt lat="44.1766" lon="5.27701">
        <ele>1769.8</ele>
        <time>2026-03-26T21:36:46Z</time>
      </trkpt>
      <trkpt lat="44.17683" lon="5.2775">
        <ele>1765.9</ele>
        <time>2026-03-26T21:36:54Z</time>
      </trkpt>
      <trkpt lat="44.1771" lon="5.27819">
        <ele>1759.7</ele>
        <time>2026-03-26T21:37:04Z</time>
      </trkpt>
      <trkpt lat="44.17725" lon="5.27868">
        <ele>1755.3</ele>
        <time>2026-03-26T21:37:10Z</time>
      </trkpt>
      <trkpt lat="44.17738" lon="5.27933">
        <ele>1750.7</ele>
        <time>2026-03-26T21:37:19Z</time>
      </trkpt>
      <trkpt lat="44.17741" lon="5.27965">
        <ele>1749.1</ele>
        <time>2026-03-26T21:37:23Z</time>
      </trkpt>
      <trkpt lat="44.17741" lon="5.27997">
        <ele>1747.5</ele>
        <time>2026-03-26T21:37:27Z</time>
      </trkpt>
      <trkpt lat="44.17737" lon="5.28026">
        <ele>1745.7</ele>
        <time>2026-03-26T21:37:31Z</time>
      </trkpt>
      <trkpt lat="44.17739" lon="5.28033">
        <ele>1745.2</ele>
        <time>2026-03-26T21:37:32Z</time>
      </trkpt>
      <trkpt lat="44.17745" lon="5.28041">
        <ele>1744.3</ele>
        <time>2026-03-26T21:37:33Z</time>
      </trkpt>
      <trkpt lat="44.17755" lon="5.28038">
        <ele>1743.1</ele>
        <time>2026-03-26T21:37:35Z</time>
      </trkpt>
      <trkpt lat="44.17757" lon="5.28034">
        <ele>1742.7</ele>
        <time>2026-03-26T21:37:36Z</time>
      </trkpt>
      <trkpt lat="44.17759" lon="5.28024">
        <ele>1741.7</ele>
        <time>2026-03-26T21:37:37Z</time>
      </trkpt>
      <trkpt lat="44.17758" lon="5.27996">
        <ele>1739.2</ele>
        <time>2026-03-26T21:37:41Z</time>
      </trkpt>
      <trkpt lat="44.17767" lon="5.27918">
        <ele>1731.9</ele>
        <time>2026-03-26T21:37:51Z</time>
      </trkpt>
      <trkpt lat="44.17775" lon="5.27737">
        <ele>1717.8</ele>
        <time>2026-03-26T21:38:14Z</time>
      </trkpt>
      <trkpt lat="44.1777" lon="5.27673">
        <ele>1713</ele>
        <time>2026-03-26T21:38:22Z</time>
      </trkpt>
      <trkpt lat="44.1776" lon="5.27622">
        <ele>1708.9</ele>
        <time>2026-03-26T21:38:29Z</time>
      </trkpt>
      <trkpt lat="44.17733" lon="5.2754">
        <ele>1702.3</ele>
        <time>2026-03-26T21:38:40Z</time>
      </trkpt>
      <trkpt lat="44.17718" lon="5.27513">
        <ele>1699.9</ele>
        <time>2026-03-26T21:38:45Z</time>
      </trkpt>
      <trkpt lat="44.17702" lon="5.27491">
        <ele>1697.7</ele>
        <time>2026-03-26T21:38:49Z</time>
      </trkpt>
      <trkpt lat="44.17683" lon="5.27471">
        <ele>1695.3</ele>
        <time>2026-03-26T21:38:53Z</time>
      </trkpt>
      <trkpt lat="44.1767" lon="5.27462">
        <ele>1693.8</ele>
        <time>2026-03-26T21:38:56Z</time>
      </trkpt>
      <trkpt lat="44.17627" lon="5.27445">
        <ele>1690.2</ele>
        <time>2026-03-26T21:39:04Z</time>
      </trkpt>
      <trkpt lat="44.17618" lon="5.27439">
        <ele>1689.3</ele>
        <time>2026-03-26T21:39:05Z</time>
      </trkpt>
      <trkpt lat="44.17612" lon="5.27433">
        <ele>1688.6</ele>
        <time>2026-03-26T21:39:07Z</time>
      </trkpt>
      <trkpt lat="44.17607" lon="5.27422">
        <ele>1687.6</ele>
        <time>2026-03-26T21:39:08Z</time>
      </trkpt>
      <trkpt lat="44.17607" lon="5.27416">
        <ele>1687.2</ele>
        <time>2026-03-26T21:39:09Z</time>
      </trkpt>
      <trkpt lat="44.17624" lon="5.27373">
        <ele>1683.2</ele>
        <time>2026-03-26T21:39:15Z</time>
      </trkpt>
      <trkpt lat="44.17646" lon="5.27326">
        <ele>1679.4</ele>
        <time>2026-03-26T21:39:23Z</time>
      </trkpt>
      <trkpt lat="44.17656" lon="5.2731">
        <ele>1678.2</ele>
        <time>2026-03-26T21:39:25Z</time>
      </trkpt>
      <trkpt lat="44.17673" lon="5.2729">
        <ele>1676.5</ele>
        <time>2026-03-26T21:39:29Z</time>
      </trkpt>
      <trkpt lat="44.17704" lon="5.27268">
        <ele>1673.7</ele>
        <time>2026-03-26T21:39:35Z</time>
      </trkpt>
      <trkpt lat="44.17709" lon="5.27262">
        <ele>1673.1</ele>
        <time>2026-03-26T21:39:37Z</time>
      </trkpt>
      <trkpt lat="44.17717" lon="5.27249">
        <ele>1671.9</ele>
        <time>2026-03-26T21:39:39Z</time>
      </trkpt>
      <trkpt lat="44.17725" lon="5.27221">
        <ele>1669.7</ele>
        <time>2026-03-26T21:39:43Z</time>
      </trkpt>
      <trkpt lat="44.17732" lon="5.27154">
        <ele>1665</ele>
        <time>2026-03-26T21:39:51Z</time>
      </trkpt>
      <trkpt lat="44.1775" lon="5.27062">
        <ele>1658.6</ele>
        <time>2026-03-26T21:40:03Z</time>
      </trkpt>
      <trkpt lat="44.17763" lon="5.26924">
        <ele>1649.4</ele>
        <time>2026-03-26T21:40:21Z</time>
      </trkpt>
      <trkpt lat="44.17768" lon="5.26833">
        <ele>1643.4</ele>
        <time>2026-03-26T21:40:33Z</time>
      </trkpt>
      <trkpt lat="44.17769" lon="5.26695">
        <ele>1635.2</ele>
        <time>2026-03-26T21:40:50Z</time>
      </trkpt>
      <trkpt lat="44.1776" lon="5.26598">
        <ele>1629.7</ele>
        <time>2026-03-26T21:41:03Z</time>
      </trkpt>
      <trkpt lat="44.17776" lon="5.26544">
        <ele>1625.8</ele>
        <time>2026-03-26T21:41:10Z</time>
      </trkpt>
      <trkpt lat="44.17783" lon="5.26491">
        <ele>1622.2</ele>
        <time>2026-03-26T21:41:17Z</time>
      </trkpt>
      <trkpt lat="44.17787" lon="5.26375">
        <ele>1614.3</ele>
        <time>2026-03-26T21:41:32Z</time>
      </trkpt>
      <trkpt lat="44.17782" lon="5.2622">
        <ele>1603.9</ele>
        <time>2026-03-26T21:41:52Z</time>
      </trkpt>
      <trkpt lat="44.17788" lon="5.26129">
        <ele>1597.3</ele>
        <time>2026-03-26T21:42:03Z</time>
      </trkpt>
      <trkpt lat="44.17789" lon="5.26049">
        <ele>1592</ele>
        <time>2026-03-26T21:42:14Z</time>
      </trkpt>
      <trkpt lat="44.17785" lon="5.25963">
        <ele>1586.7</ele>
        <time>2026-03-26T21:42:25Z</time>
      </trkpt>
      <trkpt lat="44.1777" lon="5.25912">
        <ele>1583.3</ele>
        <time>2026-03-26T21:42:32Z</time>
      </trkpt>
      <trkpt lat="44.1777" lon="5.25899">
        <ele>1582.4</ele>
        <time>2026-03-26T21:42:33Z</time>
      </trkpt>
      <trkpt lat="44.17786" lon="5.25858">
        <ele>1579.1</ele>
        <time>2026-03-26T21:42:39Z</time>
      </trkpt>
      <trkpt lat="44.17796" lon="5.25818">
        <ele>1576.5</ele>
        <time>2026-03-26T21:42:45Z</time>
      </trkpt>
      <trkpt lat="44.17801" lon="5.25727">
        <ele>1572</ele>
        <time>2026-03-26T21:42:56Z</time>
      </trkpt>
      <trkpt lat="44.17793" lon="5.25629">
        <ele>1567.4</ele>
        <time>2026-03-26T21:43:09Z</time>
      </trkpt>
      <trkpt lat="44.17788" lon="5.25609">
        <ele>1566.5</ele>
        <time>2026-03-26T21:43:12Z</time>
      </trkpt>
      <trkpt lat="44.17769" lon="5.25558">
        <ele>1564.5</ele>
        <time>2026-03-26T21:43:19Z</time>
      </trkpt>
      <trkpt lat="44.17767" lon="5.25544">
        <ele>1563.9</ele>
        <time>2026-03-26T21:43:21Z</time>
      </trkpt>
      <trkpt lat="44.17768" lon="5.25522">
        <ele>1563</ele>
        <time>2026-03-26T21:43:24Z</time>
      </trkpt>
      <trkpt lat="44.17778" lon="5.25482">
        <ele>1561.2</ele>
        <time>2026-03-26T21:43:29Z</time>
      </trkpt>
      <trkpt lat="44.17781" lon="5.25451">
        <ele>1559.9</ele>
        <time>2026-03-26T21:43:33Z</time>
      </trkpt>
      <trkpt lat="44.17756" lon="5.25077">
        <ele>1546.1</ele>
        <time>2026-03-26T21:44:21Z</time>
      </trkpt>
      <trkpt lat="44.17739" lon="5.2496">
        <ele>1540.1</ele>
        <time>2026-03-26T21:44:36Z</time>
      </trkpt>
      <trkpt lat="44.17729" lon="5.24909">
        <ele>1537.4</ele>
        <time>2026-03-26T21:44:43Z</time>
      </trkpt>
      <trkpt lat="44.17684" lon="5.24732">
        <ele>1528</ele>
        <time>2026-03-26T21:45:07Z</time>
      </trkpt>
      <trkpt lat="44.17678" lon="5.24712">
        <ele>1526.8</ele>
        <time>2026-03-26T21:45:10Z</time>
      </trkpt>
      <trkpt lat="44.1766" lon="5.24682">
        <ele>1525.3</ele>
        <time>2026-03-26T21:45:15Z</time>
      </trkpt>
      <trkpt lat="44.1766" lon="5.24674">
        <ele>1525</ele>
        <time>2026-03-26T21:45:16Z</time>
      </trkpt>
      <trkpt lat="44.17664" lon="5.24665">
        <ele>1524.7</ele>
        <time>2026-03-26T21:45:17Z</time>
      </trkpt>
      <trkpt lat="44.17576" lon="5.24433">
        <ele>1517.9</ele>
        <time>2026-03-26T21:45:51Z</time>
      </trkpt>
      <trkpt lat="44.17562" lon="5.24404">
        <ele>1516.5</ele>
        <time>2026-03-26T21:45:55Z</time>
      </trkpt>
      <trkpt lat="44.17529" lon="5.24357">
        <ele>1514.3</ele>
        <time>2026-03-26T21:46:03Z</time>
      </trkpt>
      <trkpt lat="44.17503" lon="5.24327">
        <ele>1512.4</ele>
        <time>2026-03-26T21:46:09Z</time>
      </trkpt>
      <trkpt lat="44.17424" lon="5.24247">
        <ele>1509</ele>
        <time>2026-03-26T21:46:27Z</time>
      </trkpt>
      <trkpt lat="44.17418" lon="5.24235">
        <ele>1508.6</ele>
        <time>2026-03-26T21:46:29Z</time>
      </trkpt>
      <trkpt lat="44.17411" lon="5.2421">
        <ele>1507.9</ele>
        <time>2026-03-26T21:46:32Z</time>
      </trkpt>
      <trkpt lat="44.17416" lon="5.24099">
        <ele>1504.5</ele>
        <time>2026-03-26T21:46:46Z</time>
      </trkpt>
      <trkpt lat="44.17414" lon="5.2407">
        <ele>1503.5</ele>
        <time>2026-03-26T21:46:50Z</time>
      </trkpt>
      <trkpt lat="44.17408" lon="5.24043">
        <ele>1502.6</ele>
        <time>2026-03-26T21:46:54Z</time>
      </trkpt>
      <trkpt lat="44.17401" lon="5.24017">
        <ele>1501.9</ele>
        <time>2026-03-26T21:46:57Z</time>
      </trkpt>
      <trkpt lat="44.1739" lon="5.23991">
        <ele>1501.1</ele>
        <time>2026-03-26T21:47:01Z</time>
      </trkpt>
      <trkpt lat="44.17335" lon="5.23885">
        <ele>1498</ele>
        <time>2026-03-26T21:47:18Z</time>
      </trkpt>
      <trkpt lat="44.17299" lon="5.23828">
        <ele>1496.6</ele>
        <time>2026-03-26T21:47:27Z</time>
      </trkpt>
      <trkpt lat="44.17254" lon="5.23767">
        <ele>1494.3</ele>
        <time>2026-03-26T21:47:39Z</time>
      </trkpt>
      <trkpt lat="44.17214" lon="5.23729">
        <ele>1492.2</ele>
        <time>2026-03-26T21:47:47Z</time>
      </trkpt>
      <trkpt lat="44.17191" lon="5.23717">
        <ele>1490.9</ele>
        <time>2026-03-26T21:47:52Z</time>
      </trkpt>
      <trkpt lat="44.17155" lon="5.23707">
        <ele>1489</ele>
        <time>2026-03-26T21:47:58Z</time>
      </trkpt>
      <trkpt lat="44.17095" lon="5.23698">
        <ele>1486.3</ele>
        <time>2026-03-26T21:48:09Z</time>
      </trkpt>
      <trkpt lat="44.17068" lon="5.23688">
        <ele>1485.6</ele>
        <time>2026-03-26T21:48:14Z</time>
      </trkpt>
      <trkpt lat="44.17044" lon="5.23676">
        <ele>1485.4</ele>
        <time>2026-03-26T21:48:18Z</time>
      </trkpt>
      <trkpt lat="44.17019" lon="5.23659">
        <ele>1485.2</ele>
        <time>2026-03-26T21:48:23Z</time>
      </trkpt>
      <trkpt lat="44.17004" lon="5.23644">
        <ele>1485.2</ele>
        <time>2026-03-26T21:48:27Z</time>
      </trkpt>
      <trkpt lat="44.16993" lon="5.23638">
        <ele>1485.3</ele>
        <time>2026-03-26T21:48:29Z</time>
      </trkpt>
      <trkpt lat="44.16965" lon="5.23637">
        <ele>1485.6</ele>
        <time>2026-03-26T21:48:34Z</time>
      </trkpt>
      <trkpt lat="44.16933" lon="5.23644">
        <ele>1486</ele>
        <time>2026-03-26T21:48:39Z</time>
      </trkpt>
      <trkpt lat="44.16904" lon="5.23665">
        <ele>1487</ele>
        <time>2026-03-26T21:48:45Z</time>
      </trkpt>
      <trkpt lat="44.16893" lon="5.23679">
        <ele>1487.1</ele>
        <time>2026-03-26T21:48:48Z</time>
      </trkpt>
      <trkpt lat="44.16881" lon="5.23698">
        <ele>1486.9</ele>
        <time>2026-03-26T21:48:51Z</time>
      </trkpt>
      <trkpt lat="44.16864" lon="5.23734">
        <ele>1486.6</ele>
        <time>2026-03-26T21:48:57Z</time>
      </trkpt>
      <trkpt lat="44.16846" lon="5.23806">
        <ele>1485.7</ele>
        <time>2026-03-26T21:49:06Z</time>
      </trkpt>
      <trkpt lat="44.16833" lon="5.23874">
        <ele>1485.9</ele>
        <time>2026-03-26T21:49:15Z</time>
      </trkpt>
      <trkpt lat="44.16792" lon="5.24026">
        <ele>1486.3</ele>
        <time>2026-03-26T21:49:36Z</time>
      </trkpt>
      <trkpt lat="44.16779" lon="5.24108">
        <ele>1486.2</ele>
        <time>2026-03-26T21:49:47Z</time>
      </trkpt>
      <trkpt lat="44.16763" lon="5.24247">
        <ele>1486.7</ele>
        <time>2026-03-26T21:50:05Z</time>
      </trkpt>
      <trkpt lat="44.16739" lon="5.24388">
        <ele>1487.6</ele>
        <time>2026-03-26T21:50:23Z</time>
      </trkpt>
      <trkpt lat="44.16688" lon="5.2457">
        <ele>1488.1</ele>
        <time>2026-03-26T21:50:48Z</time>
      </trkpt>
      <trkpt lat="44.1669" lon="5.24621">
        <ele>1487.3</ele>
        <time>2026-03-26T21:50:55Z</time>
      </trkpt>
      <trkpt lat="44.1671" lon="5.2473">
        <ele>1485.6</ele>
        <time>2026-03-26T21:51:09Z</time>
      </trkpt>
      <trkpt lat="44.16713" lon="5.2476">
        <ele>1484.9</ele>
        <time>2026-03-26T21:51:13Z</time>
      </trkpt>
      <trkpt lat="44.16714" lon="5.24794">
        <ele>1484.1</ele>
        <time>2026-03-26T21:51:17Z</time>
      </trkpt>
      <trkpt lat="44.1671" lon="5.2482">
        <ele>1483.2</ele>
        <time>2026-03-26T21:51:21Z</time>
      </trkpt>
      <trkpt lat="44.16698" lon="5.24845">
        <ele>1481.6</ele>
        <time>2026-03-26T21:51:24Z</time>
      </trkpt>
      <trkpt lat="44.16678" lon="5.24865">
        <ele>1479.1</ele>
        <time>2026-03-26T21:51:29Z</time>
      </trkpt>
      <trkpt lat="44.16653" lon="5.24866">
        <ele>1475.9</ele>
        <time>2026-03-26T21:51:33Z</time>
      </trkpt>
      <trkpt lat="44.1664" lon="5.2487">
        <ele>1474.3</ele>
        <time>2026-03-26T21:51:36Z</time>
      </trkpt>
      <trkpt lat="44.16627" lon="5.24884">
        <ele>1472.6</ele>
        <time>2026-03-26T21:51:39Z</time>
      </trkpt>
      <trkpt lat="44.16584" lon="5.24942">
        <ele>1466.4</ele>
        <time>2026-03-26T21:51:49Z</time>
      </trkpt>
      <trkpt lat="44.16441" lon="5.25113">
        <ele>1445.6</ele>
        <time>2026-03-26T21:52:23Z</time>
      </trkpt>
      <trkpt lat="44.16419" lon="5.2515">
        <ele>1441.8</ele>
        <time>2026-03-26T21:52:29Z</time>
      </trkpt>
      <trkpt lat="44.16375" lon="5.25209">
        <ele>1434.1</ele>
        <time>2026-03-26T21:52:40Z</time>
      </trkpt>
      <trkpt lat="44.16354" lon="5.25259">
        <ele>1428.6</ele>
        <time>2026-03-26T21:52:47Z</time>
      </trkpt>
      <trkpt lat="44.16345" lon="5.25293">
        <ele>1425.6</ele>
        <time>2026-03-26T21:52:52Z</time>
      </trkpt>
      <trkpt lat="44.16342" lon="5.25317">
        <ele>1423.6</ele>
        <time>2026-03-26T21:52:55Z</time>
      </trkpt>
      <trkpt lat="44.16343" lon="5.25339">
        <ele>1421.8</ele>
        <time>2026-03-26T21:52:58Z</time>
      </trkpt>
      <trkpt lat="44.16356" lon="5.25365">
        <ele>1419.6</ele>
        <time>2026-03-26T21:53:02Z</time>
      </trkpt>
      <trkpt lat="44.16359" lon="5.25376">
        <ele>1419.1</ele>
        <time>2026-03-26T21:53:03Z</time>
      </trkpt>
      <trkpt lat="44.16348" lon="5.25373">
        <ele>1418.7</ele>
        <time>2026-03-26T21:53:05Z</time>
      </trkpt>
      <trkpt lat="44.16342" lon="5.25362">
        <ele>1418.3</ele>
        <time>2026-03-26T21:53:07Z</time>
      </trkpt>
      <trkpt lat="44.16327" lon="5.25318">
        <ele>1417.4</ele>
        <time>2026-03-26T21:53:13Z</time>
      </trkpt>
      <trkpt lat="44.16319" lon="5.25277">
        <ele>1417</ele>
        <time>2026-03-26T21:53:19Z</time>
      </trkpt>
      <trkpt lat="44.1632" lon="5.25229">
        <ele>1416.5</ele>
        <time>2026-03-26T21:53:25Z</time>
      </trkpt>
      <trkpt lat="44.16336" lon="5.25153">
        <ele>1415.4</ele>
        <time>2026-03-26T21:53:35Z</time>
      </trkpt>
      <trkpt lat="44.1636" lon="5.25056">
        <ele>1412.8</ele>
        <time>2026-03-26T21:53:48Z</time>
      </trkpt>
      <trkpt lat="44.16412" lon="5.24953">
        <ele>1410.8</ele>
        <time>2026-03-26T21:54:04Z</time>
      </trkpt>
      <trkpt lat="44.16463" lon="5.24871">
        <ele>1410</ele>
        <time>2026-03-26T21:54:18Z</time>
      </trkpt>
      <trkpt lat="44.1649" lon="5.24835">
        <ele>1409.3</ele>
        <time>2026-03-26T21:54:25Z</time>
      </trkpt>
      <trkpt lat="44.16522" lon="5.24777">
        <ele>1408.3</ele>
        <time>2026-03-26T21:54:34Z</time>
      </trkpt>
      <trkpt lat="44.16523" lon="5.24761">
        <ele>1408.1</ele>
        <time>2026-03-26T21:54:36Z</time>
      </trkpt>
      <trkpt lat="44.16513" lon="5.24752">
        <ele>1407.7</ele>
        <time>2026-03-26T21:54:38Z</time>
      </trkpt>
      <trkpt lat="44.16476" lon="5.24728">
        <ele>1405</ele>
        <time>2026-03-26T21:54:45Z</time>
      </trkpt>
      <trkpt lat="44.16431" lon="5.2471">
        <ele>1401.2</ele>
        <time>2026-03-26T21:54:54Z</time>
      </trkpt>
      <trkpt lat="44.16418" lon="5.24698">
        <ele>1400.1</ele>
        <time>2026-03-26T21:54:56Z</time>
      </trkpt>
      <trkpt lat="44.16392" lon="5.24651">
        <ele>1398.1</ele>
        <time>2026-03-26T21:55:04Z</time>
      </trkpt>
      <trkpt lat="44.16379" lon="5.2464">
        <ele>1397.7</ele>
        <time>2026-03-26T21:55:07Z</time>
      </trkpt>
      <trkpt lat="44.16364" lon="5.24632">
        <ele>1397.5</ele>
        <time>2026-03-26T21:55:10Z</time>
      </trkpt>
      <trkpt lat="44.16357" lon="5.24618">
        <ele>1397.4</ele>
        <time>2026-03-26T21:55:12Z</time>
      </trkpt>
      <trkpt lat="44.16354" lon="5.24603">
        <ele>1397.2</ele>
        <time>2026-03-26T21:55:14Z</time>
      </trkpt>
      <trkpt lat="44.16349" lon="5.24493">
        <ele>1392.9</ele>
        <time>2026-03-26T21:55:28Z</time>
      </trkpt>
      <trkpt lat="44.16357" lon="5.24432">
        <ele>1389.2</ele>
        <time>2026-03-26T21:55:36Z</time>
      </trkpt>
      <trkpt lat="44.16354" lon="5.24389">
        <ele>1386.4</ele>
        <time>2026-03-26T21:55:41Z</time>
      </trkpt>
      <trkpt lat="44.1635" lon="5.24368">
        <ele>1385.2</ele>
        <time>2026-03-26T21:55:44Z</time>
      </trkpt>
      <trkpt lat="44.16352" lon="5.24351">
        <ele>1384.2</ele>
        <time>2026-03-26T21:55:46Z</time>
      </trkpt>
      <trkpt lat="44.16405" lon="5.24271">
        <ele>1377.5</ele>
        <time>2026-03-26T21:56:00Z</time>
      </trkpt>
      <trkpt lat="44.16428" lon="5.24248">
        <ele>1374.6</ele>
        <time>2026-03-26T21:56:05Z</time>
      </trkpt>
      <trkpt lat="44.16455" lon="5.24193">
        <ele>1369.7</ele>
        <time>2026-03-26T21:56:14Z</time>
      </trkpt>
      <trkpt lat="44.16454" lon="5.24175">
        <ele>1368.5</ele>
        <time>2026-03-26T21:56:16Z</time>
      </trkpt>
      <trkpt lat="44.16448" lon="5.24149">
        <ele>1366.6</ele>
        <time>2026-03-26T21:56:19Z</time>
      </trkpt>
      <trkpt lat="44.16432" lon="5.24112">
        <ele>1363.4</ele>
        <time>2026-03-26T21:56:25Z</time>
      </trkpt>
      <trkpt lat="44.16402" lon="5.24063">
        <ele>1359.1</ele>
        <time>2026-03-26T21:56:33Z</time>
      </trkpt>
      <trkpt lat="44.16376" lon="5.24008">
        <ele>1354.6</ele>
        <time>2026-03-26T21:56:42Z</time>
      </trkpt>
      <trkpt lat="44.16365" lon="5.23957">
        <ele>1351.2</ele>
        <time>2026-03-26T21:56:48Z</time>
      </trkpt>
      <trkpt lat="44.16358" lon="5.2391">
        <ele>1348.1</ele>
        <time>2026-03-26T21:56:54Z</time>
      </trkpt>
      <trkpt lat="44.1636" lon="5.23838">
        <ele>1344.2</ele>
        <time>2026-03-26T21:57:04Z</time>
      </trkpt>
      <trkpt lat="44.16366" lon="5.23805">
        <ele>1342.3</ele>
        <time>2026-03-26T21:57:08Z</time>
      </trkpt>
      <trkpt lat="44.16365" lon="5.23795">
        <ele>1341.7</ele>
        <time>2026-03-26T21:57:09Z</time>
      </trkpt>
      <trkpt lat="44.16358" lon="5.23793">
        <ele>1340.9</ele>
        <time>2026-03-26T21:57:11Z</time>
      </trkpt>
      <trkpt lat="44.16352" lon="5.23805">
        <ele>1340</ele>
        <time>2026-03-26T21:57:12Z</time>
      </trkpt>
      <trkpt lat="44.16339" lon="5.23852">
        <ele>1337.3</ele>
        <time>2026-03-26T21:57:19Z</time>
      </trkpt>
      <trkpt lat="44.16322" lon="5.23895">
        <ele>1334.4</ele>
        <time>2026-03-26T21:57:25Z</time>
      </trkpt>
      <trkpt lat="44.16302" lon="5.2399">
        <ele>1328.1</ele>
        <time>2026-03-26T21:57:38Z</time>
      </trkpt>
      <trkpt lat="44.16304" lon="5.24027">
        <ele>1325.8</ele>
        <time>2026-03-26T21:57:43Z</time>
      </trkpt>
      <trkpt lat="44.16322" lon="5.24091">
        <ele>1321.7</ele>
        <time>2026-03-26T21:57:51Z</time>
      </trkpt>
      <trkpt lat="44.1632" lon="5.24107">
        <ele>1320.6</ele>
        <time>2026-03-26T21:57:53Z</time>
      </trkpt>
      <trkpt lat="44.16314" lon="5.24115">
        <ele>1319.7</ele>
        <time>2026-03-26T21:57:55Z</time>
      </trkpt>
      <trkpt lat="44.16306" lon="5.24119">
        <ele>1318.8</ele>
        <time>2026-03-26T21:57:56Z</time>
      </trkpt>
      <trkpt lat="44.16267" lon="5.24118">
        <ele>1314.7</ele>
        <time>2026-03-26T21:58:03Z</time>
      </trkpt>
      <trkpt lat="44.16242" lon="5.24129">
        <ele>1312.5</ele>
        <time>2026-03-26T21:58:08Z</time>
      </trkpt>
      <trkpt lat="44.16211" lon="5.24161">
        <ele>1309.2</ele>
        <time>2026-03-26T21:58:15Z</time>
      </trkpt>
      <trkpt lat="44.16179" lon="5.24187">
        <ele>1305.7</ele>
        <time>2026-03-26T21:58:21Z</time>
      </trkpt>
      <trkpt lat="44.16167" lon="5.242">
        <ele>1304.5</ele>
        <time>2026-03-26T21:58:24Z</time>
      </trkpt>
      <trkpt lat="44.16157" lon="5.24219">
        <ele>1303.2</ele>
        <time>2026-03-26T21:58:27Z</time>
      </trkpt>
      <trkpt lat="44.16148" lon="5.24265">
        <ele>1300.3</ele>
        <time>2026-03-26T21:58:33Z</time>
      </trkpt>
      <trkpt lat="44.16142" lon="5.24269">
        <ele>1299.6</ele>
        <time>2026-03-26T21:58:34Z</time>
      </trkpt>
      <trkpt lat="44.16138" lon="5.24262">
        <ele>1299</ele>
        <time>2026-03-26T21:58:36Z</time>
      </trkpt>
      <trkpt lat="44.16139" lon="5.24223">
        <ele>1296.5</ele>
        <time>2026-03-26T21:58:41Z</time>
      </trkpt>
      <trkpt lat="44.16143" lon="5.24203">
        <ele>1295.3</ele>
        <time>2026-03-26T21:58:43Z</time>
      </trkpt>
      <trkpt lat="44.16151" lon="5.24169">
        <ele>1293.3</ele>
        <time>2026-03-26T21:58:48Z</time>
      </trkpt>
      <trkpt lat="44.16173" lon="5.2411">
        <ele>1289.9</ele>
        <time>2026-03-26T21:58:56Z</time>
      </trkpt>
      <trkpt lat="44.16183" lon="5.24088">
        <ele>1288.9</ele>
        <time>2026-03-26T21:59:00Z</time>
      </trkpt>
      <trkpt lat="44.16194" lon="5.24079">
        <ele>1288.5</ele>
        <time>2026-03-26T21:59:02Z</time>
      </trkpt>
      <trkpt lat="44.16215" lon="5.24072">
        <ele>1287.8</ele>
        <time>2026-03-26T21:59:06Z</time>
      </trkpt>
      <trkpt lat="44.16223" lon="5.24067">
        <ele>1287.4</ele>
        <time>2026-03-26T21:59:07Z</time>
      </trkpt>
      <trkpt lat="44.16227" lon="5.24054">
        <ele>1286.8</ele>
        <time>2026-03-26T21:59:09Z</time>
      </trkpt>
      <trkpt lat="44.16193" lon="5.23955">
        <ele>1279.5</ele>
        <time>2026-03-26T21:59:23Z</time>
      </trkpt>
      <trkpt lat="44.16178" lon="5.23898">
        <ele>1276.3</ele>
        <time>2026-03-26T21:59:31Z</time>
      </trkpt>
      <trkpt lat="44.16172" lon="5.23804">
        <ele>1270.9</ele>
        <time>2026-03-26T21:59:43Z</time>
      </trkpt>
      <trkpt lat="44.1617" lon="5.23713">
        <ele>1264.8</ele>
        <time>2026-03-26T21:59:54Z</time>
      </trkpt>
      <trkpt lat="44.16175" lon="5.23678">
        <ele>1262.7</ele>
        <time>2026-03-26T21:59:59Z</time>
      </trkpt>
      <trkpt lat="44.16183" lon="5.23645">
        <ele>1260.9</ele>
        <time>2026-03-26T22:00:03Z</time>
      </trkpt>
      <trkpt lat="44.16182" lon="5.23638">
        <ele>1260.4</ele>
        <time>2026-03-26T22:00:04Z</time>
      </trkpt>
      <trkpt lat="44.16178" lon="5.23636">
        <ele>1260.1</ele>
        <time>2026-03-26T22:00:05Z</time>
      </trkpt>
      <trkpt lat="44.16172" lon="5.23644">
        <ele>1259.3</ele>
        <time>2026-03-26T22:00:07Z</time>
      </trkpt>
      <trkpt lat="44.16154" lon="5.23687">
        <ele>1255.6</ele>
        <time>2026-03-26T22:00:13Z</time>
      </trkpt>
      <trkpt lat="44.16125" lon="5.23776">
        <ele>1248.9</ele>
        <time>2026-03-26T22:00:25Z</time>
      </trkpt>
      <trkpt lat="44.16121" lon="5.23781">
        <ele>1248.5</ele>
        <time>2026-03-26T22:00:26Z</time>
      </trkpt>
      <trkpt lat="44.16116" lon="5.23778">
        <ele>1248</ele>
        <time>2026-03-26T22:00:27Z</time>
      </trkpt>
      <trkpt lat="44.16116" lon="5.23768">
        <ele>1247.3</ele>
        <time>2026-03-26T22:00:29Z</time>
      </trkpt>
      <trkpt lat="44.16121" lon="5.23739">
        <ele>1245.6</ele>
        <time>2026-03-26T22:00:32Z</time>
      </trkpt>
      <trkpt lat="44.16122" lon="5.23647">
        <ele>1240.8</ele>
        <time>2026-03-26T22:00:44Z</time>
      </trkpt>
      <trkpt lat="44.16127" lon="5.2362">
        <ele>1239.3</ele>
        <time>2026-03-26T22:00:48Z</time>
      </trkpt>
      <trkpt lat="44.1614" lon="5.23572">
        <ele>1236.7</ele>
        <time>2026-03-26T22:00:54Z</time>
      </trkpt>
      <trkpt lat="44.1617" lon="5.23569">
        <ele>1235</ele>
        <time>2026-03-26T22:01:00Z</time>
      </trkpt>
      <trkpt lat="44.16216" lon="5.23548">
        <ele>1231.9</ele>
        <time>2026-03-26T22:01:08Z</time>
      </trkpt>
      <trkpt lat="44.16236" lon="5.23521">
        <ele>1230.4</ele>
        <time>2026-03-26T22:01:13Z</time>
      </trkpt>
      <trkpt lat="44.16248" lon="5.23497">
        <ele>1229</ele>
        <time>2026-03-26T22:01:17Z</time>
      </trkpt>
      <trkpt lat="44.16262" lon="5.23483">
        <ele>1227.5</ele>
        <time>2026-03-26T22:01:20Z</time>
      </trkpt>
      <trkpt lat="44.16287" lon="5.23467">
        <ele>1224.9</ele>
        <time>2026-03-26T22:01:25Z</time>
      </trkpt>
      <trkpt lat="44.16291" lon="5.2346">
        <ele>1224.3</ele>
        <time>2026-03-26T22:01:26Z</time>
      </trkpt>
      <trkpt lat="44.16292" lon="5.23451">
        <ele>1223.8</ele>
        <time>2026-03-26T22:01:27Z</time>
      </trkpt>
      <trkpt lat="44.16289" lon="5.23444">
        <ele>1223.1</ele>
        <time>2026-03-26T22:01:28Z</time>
      </trkpt>
      <trkpt lat="44.16264" lon="5.23429">
        <ele>1220.2</ele>
        <time>2026-03-26T22:01:33Z</time>
      </trkpt>
      <trkpt lat="44.16246" lon="5.2341">
        <ele>1218.1</ele>
        <time>2026-03-26T22:01:37Z</time>
      </trkpt>
      <trkpt lat="44.16236" lon="5.23393">
        <ele>1217</ele>
        <time>2026-03-26T22:01:40Z</time>
      </trkpt>
      <trkpt lat="44.16221" lon="5.23348">
        <ele>1214.8</ele>
        <time>2026-03-26T22:01:46Z</time>
      </trkpt>
      <trkpt lat="44.16206" lon="5.23312">
        <ele>1213</ele>
        <time>2026-03-26T22:01:52Z</time>
      </trkpt>
      <trkpt lat="44.16141" lon="5.23199">
        <ele>1204.9</ele>
        <time>2026-03-26T22:02:10Z</time>
      </trkpt>
      <trkpt lat="44.16107" lon="5.23069">
        <ele>1195.3</ele>
        <time>2026-03-26T22:02:28Z</time>
      </trkpt>
      <trkpt lat="44.16105" lon="5.23027">
        <ele>1192.7</ele>
        <time>2026-03-26T22:02:33Z</time>
      </trkpt>
      <trkpt lat="44.16106" lon="5.22986">
        <ele>1190</ele>
        <time>2026-03-26T22:02:38Z</time>
      </trkpt>
      <trkpt lat="44.16114" lon="5.22951">
        <ele>1187.7</ele>
        <time>2026-03-26T22:02:43Z</time>
      </trkpt>
      <trkpt lat="44.16129" lon="5.22917">
        <ele>1185.7</ele>
        <time>2026-03-26T22:02:48Z</time>
      </trkpt>
      <trkpt lat="44.16154" lon="5.22878">
        <ele>1183.1</ele>
        <time>2026-03-26T22:02:55Z</time>
      </trkpt>
      <trkpt lat="44.16177" lon="5.22849">
        <ele>1180.7</ele>
        <time>2026-03-26T22:03:00Z</time>
      </trkpt>
      <trkpt lat="44.16203" lon="5.228">
        <ele>1177</ele>
        <time>2026-03-26T22:03:08Z</time>
      </trkpt>
      <trkpt lat="44.16217" lon="5.22782">
        <ele>1175.7</ele>
        <time>2026-03-26T22:03:11Z</time>
      </trkpt>
      <trkpt lat="44.16222" lon="5.22776">
        <ele>1175.2</ele>
        <time>2026-03-26T22:03:13Z</time>
      </trkpt>
      <trkpt lat="44.16249" lon="5.22765">
        <ele>1173.1</ele>
        <time>2026-03-26T22:03:18Z</time>
      </trkpt>
      <trkpt lat="44.16273" lon="5.22744">
        <ele>1171</ele>
        <time>2026-03-26T22:03:23Z</time>
      </trkpt>
      <trkpt lat="44.16295" lon="5.22718">
        <ele>1168.5</ele>
        <time>2026-03-26T22:03:28Z</time>
      </trkpt>
      <trkpt lat="44.16305" lon="5.22694">
        <ele>1166.5</ele>
        <time>2026-03-26T22:03:31Z</time>
      </trkpt>
      <trkpt lat="44.16304" lon="5.2268">
        <ele>1165.5</ele>
        <time>2026-03-26T22:03:33Z</time>
      </trkpt>
      <trkpt lat="44.1627" lon="5.22599">
        <ele>1158.6</ele>
        <time>2026-03-26T22:03:45Z</time>
      </trkpt>
      <trkpt lat="44.16241" lon="5.22517">
        <ele>1153</ele>
        <time>2026-03-26T22:03:57Z</time>
      </trkpt>
      <trkpt lat="44.1622" lon="5.22448">
        <ele>1148.6</ele>
        <time>2026-03-26T22:04:06Z</time>
      </trkpt>
      <trkpt lat="44.16214" lon="5.22415">
        <ele>1146.6</ele>
        <time>2026-03-26T22:04:11Z</time>
      </trkpt>
      <trkpt lat="44.16215" lon="5.2237">
        <ele>1143.7</ele>
        <time>2026-03-26T22:04:16Z</time>
      </trkpt>
      <trkpt lat="44.16222" lon="5.22324">
        <ele>1140.5</ele>
        <time>2026-03-26T22:04:22Z</time>
      </trkpt>
      <trkpt lat="44.16257" lon="5.22226">
        <ele>1133.3</ele>
        <time>2026-03-26T22:04:36Z</time>
      </trkpt>
      <trkpt lat="44.16269" lon="5.22184">
        <ele>1130.4</ele>
        <time>2026-03-26T22:04:42Z</time>
      </trkpt>
      <trkpt lat="44.16269" lon="5.22164">
        <ele>1129.2</ele>
        <time>2026-03-26T22:04:45Z</time>
      </trkpt>
      <trkpt lat="44.1626" lon="5.22135">
        <ele>1127.1</ele>
        <time>2026-03-26T22:04:49Z</time>
      </trkpt>
      <trkpt lat="44.16242" lon="5.22091">
        <ele>1124.1</ele>
        <time>2026-03-26T22:04:55Z</time>
      </trkpt>
      <trkpt lat="44.1622" lon="5.21945">
        <ele>1114.7</ele>
        <time>2026-03-26T22:05:14Z</time>
      </trkpt>
      <trkpt lat="44.16218" lon="5.21917">
        <ele>1113</ele>
        <time>2026-03-26T22:05:18Z</time>
      </trkpt>
      <trkpt lat="44.16221" lon="5.21853">
        <ele>1109.2</ele>
        <time>2026-03-26T22:05:26Z</time>
      </trkpt>
      <trkpt lat="44.16235" lon="5.21775">
        <ele>1104</ele>
        <time>2026-03-26T22:05:36Z</time>
      </trkpt>
      <trkpt lat="44.16245" lon="5.21626">
        <ele>1094.6</ele>
        <time>2026-03-26T22:05:55Z</time>
      </trkpt>
      <trkpt lat="44.16246" lon="5.2155">
        <ele>1090</ele>
        <time>2026-03-26T22:06:05Z</time>
      </trkpt>
      <trkpt lat="44.16238" lon="5.21418">
        <ele>1081.9</ele>
        <time>2026-03-26T22:06:22Z</time>
      </trkpt>
      <trkpt lat="44.1624" lon="5.21396">
        <ele>1080.3</ele>
        <time>2026-03-26T22:06:25Z</time>
      </trkpt>
      <trkpt lat="44.16246" lon="5.21384">
        <ele>1079.3</ele>
        <time>2026-03-26T22:06:27Z</time>
      </trkpt>
      <trkpt lat="44.16272" lon="5.21366">
        <ele>1076.4</ele>
        <time>2026-03-26T22:06:32Z</time>
      </trkpt>
      <trkpt lat="44.16281" lon="5.21357">
        <ele>1075.2</ele>
        <time>2026-03-26T22:06:34Z</time>
      </trkpt>
      <trkpt lat="44.16294" lon="5.21328">
        <ele>1072.8</ele>
        <time>2026-03-26T22:06:38Z</time>
      </trkpt>
      <trkpt lat="44.16309" lon="5.21315">
        <ele>1071.3</ele>
        <time>2026-03-26T22:06:41Z</time>
      </trkpt>
      <trkpt lat="44.16325" lon="5.21312">
        <ele>1070.2</ele>
        <time>2026-03-26T22:06:44Z</time>
      </trkpt>
      <trkpt lat="44.16332" lon="5.21307">
        <ele>1069.5</ele>
        <time>2026-03-26T22:06:46Z</time>
      </trkpt>
      <trkpt lat="44.16336" lon="5.21292">
        <ele>1068.5</ele>
        <time>2026-03-26T22:06:48Z</time>
      </trkpt>
      <trkpt lat="44.16334" lon="5.21269">
        <ele>1066.9</ele>
        <time>2026-03-26T22:06:51Z</time>
      </trkpt>
      <trkpt lat="44.16337" lon="5.21241">
        <ele>1065</ele>
        <time>2026-03-26T22:06:54Z</time>
      </trkpt>
      <trkpt lat="44.16348" lon="5.21204">
        <ele>1062.9</ele>
        <time>2026-03-26T22:06:59Z</time>
      </trkpt>
      <trkpt lat="44.16373" lon="5.21156">
        <ele>1059.7</ele>
        <time>2026-03-26T22:07:07Z</time>
      </trkpt>
      <trkpt lat="44.16375" lon="5.21139">
        <ele>1058.9</ele>
        <time>2026-03-26T22:07:09Z</time>
      </trkpt>
      <trkpt lat="44.16371" lon="5.21134">
        <ele>1058.4</ele>
        <time>2026-03-26T22:07:10Z</time>
      </trkpt>
      <trkpt lat="44.16341" lon="5.21144">
        <ele>1055.9</ele>
        <time>2026-03-26T22:07:16Z</time>
      </trkpt>
      <trkpt lat="44.16333" lon="5.2115">
        <ele>1055</ele>
        <time>2026-03-26T22:07:17Z</time>
      </trkpt>
      <trkpt lat="44.16317" lon="5.21168">
        <ele>1052.8</ele>
        <time>2026-03-26T22:07:21Z</time>
      </trkpt>
      <trkpt lat="44.16286" lon="5.21215">
        <ele>1047.9</ele>
        <time>2026-03-26T22:07:29Z</time>
      </trkpt>
      <trkpt lat="44.16275" lon="5.21224">
        <ele>1046.5</ele>
        <time>2026-03-26T22:07:31Z</time>
      </trkpt>
      <trkpt lat="44.16151" lon="5.21241">
        <ele>1031.3</ele>
        <time>2026-03-26T22:07:53Z</time>
      </trkpt>
      <trkpt lat="44.16124" lon="5.21248">
        <ele>1028.5</ele>
        <time>2026-03-26T22:07:58Z</time>
      </trkpt>
      <trkpt lat="44.161" lon="5.21259">
        <ele>1025.9</ele>
        <time>2026-03-26T22:08:03Z</time>
      </trkpt>
      <trkpt lat="44.16085" lon="5.21272">
        <ele>1024.1</ele>
        <time>2026-03-26T22:08:06Z</time>
      </trkpt>
      <trkpt lat="44.16069" lon="5.21291">
        <ele>1022.3</ele>
        <time>2026-03-26T22:08:10Z</time>
      </trkpt>
      <trkpt lat="44.16058" lon="5.21317">
        <ele>1020.6</ele>
        <time>2026-03-26T22:08:14Z</time>
      </trkpt>
      <trkpt lat="44.16052" lon="5.21344">
        <ele>1019.2</ele>
        <time>2026-03-26T22:08:17Z</time>
      </trkpt>
      <trkpt lat="44.16044" lon="5.21407">
        <ele>1015.4</ele>
        <time>2026-03-26T22:08:25Z</time>
      </trkpt>
      <trkpt lat="44.16042" lon="5.21591">
        <ele>1002.5</ele>
        <time>2026-03-26T22:08:49Z</time>
      </trkpt>
      <trkpt lat="44.16035" lon="5.21613">
        <ele>1000.7</ele>
        <time>2026-03-26T22:08:52Z</time>
      </trkpt>
      <trkpt lat="44.15906" lon="5.21806">
        <ele>980.8</ele>
        <time>2026-03-26T22:09:26Z</time>
      </trkpt>
      <trkpt lat="44.1585" lon="5.21846">
        <ele>974.4</ele>
        <time>2026-03-26T22:09:37Z</time>
      </trkpt>
      <trkpt lat="44.15833" lon="5.21864">
        <ele>972.5</ele>
        <time>2026-03-26T22:09:41Z</time>
      </trkpt>
      <trkpt lat="44.15823" lon="5.21882">
        <ele>971</ele>
        <time>2026-03-26T22:09:44Z</time>
      </trkpt>
      <trkpt lat="44.15818" lon="5.21898">
        <ele>969.8</ele>
        <time>2026-03-26T22:09:46Z</time>
      </trkpt>
      <trkpt lat="44.15813" lon="5.21903">
        <ele>969.2</ele>
        <time>2026-03-26T22:09:47Z</time>
      </trkpt>
      <trkpt lat="44.15808" lon="5.21902">
        <ele>968.7</ele>
        <time>2026-03-26T22:09:48Z</time>
      </trkpt>
      <trkpt lat="44.15805" lon="5.21894">
        <ele>968.1</ele>
        <time>2026-03-26T22:09:49Z</time>
      </trkpt>
      <trkpt lat="44.15806" lon="5.21869">
        <ele>967</ele>
        <time>2026-03-26T22:09:52Z</time>
      </trkpt>
      <trkpt lat="44.15815" lon="5.21828">
        <ele>964.4</ele>
        <time>2026-03-26T22:09:58Z</time>
      </trkpt>
      <trkpt lat="44.15823" lon="5.21805">
        <ele>962.7</ele>
        <time>2026-03-26T22:10:01Z</time>
      </trkpt>
      <trkpt lat="44.15855" lon="5.21751">
        <ele>958.2</ele>
        <time>2026-03-26T22:10:10Z</time>
      </trkpt>
      <trkpt lat="44.15859" lon="5.21739">
        <ele>957.5</ele>
        <time>2026-03-26T22:10:11Z</time>
      </trkpt>
      <trkpt lat="44.15871" lon="5.21651">
        <ele>951.7</ele>
        <time>2026-03-26T22:10:23Z</time>
      </trkpt>
      <trkpt lat="44.1589" lon="5.21576">
        <ele>946.8</ele>
        <time>2026-03-26T22:10:33Z</time>
      </trkpt>
      <trkpt lat="44.15886" lon="5.21545">
        <ele>944.5</ele>
        <time>2026-03-26T22:10:37Z</time>
      </trkpt>
      <trkpt lat="44.15866" lon="5.21479">
        <ele>939.2</ele>
        <time>2026-03-26T22:10:46Z</time>
      </trkpt>
      <trkpt lat="44.15854" lon="5.21404">
        <ele>933.7</ele>
        <time>2026-03-26T22:10:56Z</time>
      </trkpt>
      <trkpt lat="44.15845" lon="5.21308">
        <ele>926.9</ele>
        <time>2026-03-26T22:11:08Z</time>
      </trkpt>
      <trkpt lat="44.15841" lon="5.21196">
        <ele>919.9</ele>
        <time>2026-03-26T22:11:23Z</time>
      </trkpt>
      <trkpt lat="44.15834" lon="5.21141">
        <ele>916.3</ele>
        <time>2026-03-26T22:11:30Z</time>
      </trkpt>
      <trkpt lat="44.15805" lon="5.21038">
        <ele>908.9</ele>
        <time>2026-03-26T22:11:44Z</time>
      </trkpt>
      <trkpt lat="44.15782" lon="5.20895">
        <ele>900.4</ele>
        <time>2026-03-26T22:12:03Z</time>
      </trkpt>
      <trkpt lat="44.15776" lon="5.20831">
        <ele>896.5</ele>
        <time>2026-03-26T22:12:11Z</time>
      </trkpt>
      <trkpt lat="44.15778" lon="5.20813">
        <ele>895.6</ele>
        <time>2026-03-26T22:12:13Z</time>
      </trkpt>
      <trkpt lat="44.15788" lon="5.20787">
        <ele>894.1</ele>
        <time>2026-03-26T22:12:17Z</time>
      </trkpt>
      <trkpt lat="44.15788" lon="5.20781">
        <ele>893.7</ele>
        <time>2026-03-26T22:12:18Z</time>
      </trkpt>
      <trkpt lat="44.15785" lon="5.20777">
        <ele>893.3</ele>
        <time>2026-03-26T22:12:18Z</time>
      </trkpt>
      <trkpt lat="44.15781" lon="5.20777">
        <ele>893</ele>
        <time>2026-03-26T22:12:19Z</time>
      </trkpt>
      <trkpt lat="44.15776" lon="5.20781">
        <ele>892.4</ele>
        <time>2026-03-26T22:12:20Z</time>
      </trkpt>
      <trkpt lat="44.15748" lon="5.20836">
        <ele>887.6</ele>
        <time>2026-03-26T22:12:29Z</time>
      </trkpt>
      <trkpt lat="44.15731" lon="5.20922">
        <ele>881.6</ele>
        <time>2026-03-26T22:12:40Z</time>
      </trkpt>
      <trkpt lat="44.1572" lon="5.2105">
        <ele>873.2</ele>
        <time>2026-03-26T22:12:57Z</time>
      </trkpt>
      <trkpt lat="44.15724" lon="5.21161">
        <ele>866.6</ele>
        <time>2026-03-26T22:13:11Z</time>
      </trkpt>
      <trkpt lat="44.15722" lon="5.21179">
        <ele>865.6</ele>
        <time>2026-03-26T22:13:13Z</time>
      </trkpt>
      <trkpt lat="44.15705" lon="5.21252">
        <ele>861.1</ele>
        <time>2026-03-26T22:13:23Z</time>
      </trkpt>
      <trkpt lat="44.15699" lon="5.21326">
        <ele>856.6</ele>
        <time>2026-03-26T22:13:32Z</time>
      </trkpt>
      <trkpt lat="44.15697" lon="5.21333">
        <ele>856.1</ele>
        <time>2026-03-26T22:13:33Z</time>
      </trkpt>
      <trkpt lat="44.15693" lon="5.21337">
        <ele>855.7</ele>
        <time>2026-03-26T22:13:34Z</time>
      </trkpt>
      <trkpt lat="44.15689" lon="5.21339">
        <ele>855.4</ele>
        <time>2026-03-26T22:13:35Z</time>
      </trkpt>
      <trkpt lat="44.1568" lon="5.21334">
        <ele>854.5</ele>
        <time>2026-03-26T22:13:37Z</time>
      </trkpt>
      <trkpt lat="44.15586" lon="5.21234">
        <ele>843.4</ele>
        <time>2026-03-26T22:13:58Z</time>
      </trkpt>
      <trkpt lat="44.15528" lon="5.21191">
        <ele>837.5</ele>
        <time>2026-03-26T22:14:10Z</time>
      </trkpt>
      <trkpt lat="44.15518" lon="5.21187">
        <ele>836.7</ele>
        <time>2026-03-26T22:14:11Z</time>
      </trkpt>
      <trkpt lat="44.15509" lon="5.21188">
        <ele>836</ele>
        <time>2026-03-26T22:14:13Z</time>
      </trkpt>
      <trkpt lat="44.15493" lon="5.21203">
        <ele>834.2</ele>
        <time>2026-03-26T22:14:16Z</time>
      </trkpt>
      <trkpt lat="44.15484" lon="5.21221">
        <ele>832.6</ele>
        <time>2026-03-26T22:14:19Z</time>
      </trkpt>
      <trkpt lat="44.15444" lon="5.21355">
        <ele>822.7</ele>
        <time>2026-03-26T22:14:38Z</time>
      </trkpt>
      <trkpt lat="44.15417" lon="5.21466">
        <ele>814.9</ele>
        <time>2026-03-26T22:14:53Z</time>
      </trkpt>
      <trkpt lat="44.15413" lon="5.21473">
        <ele>814.3</ele>
        <time>2026-03-26T22:14:54Z</time>
      </trkpt>
      <trkpt lat="44.154" lon="5.21471">
        <ele>813.1</ele>
        <time>2026-03-26T22:14:56Z</time>
      </trkpt>
      <trkpt lat="44.15272" lon="5.21361">
        <ele>799.2</ele>
        <time>2026-03-26T22:15:23Z</time>
      </trkpt>
      <trkpt lat="44.15252" lon="5.21352">
        <ele>797.5</ele>
        <time>2026-03-26T22:15:27Z</time>
      </trkpt>
      <trkpt lat="44.15228" lon="5.21348">
        <ele>795.4</ele>
        <time>2026-03-26T22:15:31Z</time>
      </trkpt>
      <trkpt lat="44.15202" lon="5.21347">
        <ele>793</ele>
        <time>2026-03-26T22:15:36Z</time>
      </trkpt>
      <trkpt lat="44.15176" lon="5.21351">
        <ele>790.4</ele>
        <time>2026-03-26T22:15:40Z</time>
      </trkpt>
      <trkpt lat="44.15152" lon="5.21361">
        <ele>788.1</ele>
        <time>2026-03-26T22:15:45Z</time>
      </trkpt>
      <trkpt lat="44.15085" lon="5.21418">
        <ele>779.8</ele>
        <time>2026-03-26T22:15:59Z</time>
      </trkpt>
      <trkpt lat="44.15012" lon="5.21459">
        <ele>771.4</ele>
        <time>2026-03-26T22:16:13Z</time>
      </trkpt>
      <trkpt lat="44.14994" lon="5.21465">
        <ele>769.3</ele>
        <time>2026-03-26T22:16:16Z</time>
      </trkpt>
      <trkpt lat="44.14963" lon="5.21468">
        <ele>766</ele>
        <time>2026-03-26T22:16:21Z</time>
      </trkpt>
      <trkpt lat="44.14904" lon="5.21467">
        <ele>759.8</ele>
        <time>2026-03-26T22:16:32Z</time>
      </trkpt>
      <trkpt lat="44.14881" lon="5.2147">
        <ele>757.3</ele>
        <time>2026-03-26T22:16:36Z</time>
      </trkpt>
      <trkpt lat="44.14865" lon="5.21478">
        <ele>755.4</ele>
        <time>2026-03-26T22:16:39Z</time>
      </trkpt>
      <trkpt lat="44.14851" lon="5.21488">
        <ele>753.7</ele>
        <time>2026-03-26T22:16:42Z</time>
      </trkpt>
      <trkpt lat="44.14841" lon="5.21499">
        <ele>752.7</ele>
        <time>2026-03-26T22:16:44Z</time>
      </trkpt>
      <trkpt lat="44.14831" lon="5.21537">
        <ele>750.7</ele>
        <time>2026-03-26T22:16:49Z</time>
      </trkpt>
      <trkpt lat="44.14828" lon="5.21542">
        <ele>750.2</ele>
        <time>2026-03-26T22:16:50Z</time>
      </trkpt>
      <trkpt lat="44.14823" lon="5.21543">
        <ele>749.7</ele>
        <time>2026-03-26T22:16:51Z</time>
      </trkpt>
      <trkpt lat="44.14819" lon="5.21542">
        <ele>749.3</ele>
        <time>2026-03-26T22:16:52Z</time>
      </trkpt>
      <trkpt lat="44.14814" lon="5.21534">
        <ele>748.5</ele>
        <time>2026-03-26T22:16:53Z</time>
      </trkpt>
      <trkpt lat="44.14807" lon="5.21497">
        <ele>745.1</ele>
        <time>2026-03-26T22:16:58Z</time>
      </trkpt>
      <trkpt lat="44.14805" lon="5.21418">
        <ele>739.2</ele>
        <time>2026-03-26T22:17:08Z</time>
      </trkpt>
      <trkpt lat="44.1482" lon="5.21276">
        <ele>728.5</ele>
        <time>2026-03-26T22:17:26Z</time>
      </trkpt>
      <trkpt lat="44.14819" lon="5.21263">
        <ele>727.5</ele>
        <time>2026-03-26T22:17:28Z</time>
      </trkpt>
      <trkpt lat="44.14816" lon="5.21258">
        <ele>727</ele>
        <time>2026-03-26T22:17:29Z</time>
      </trkpt>
      <trkpt lat="44.14809" lon="5.21256">
        <ele>726.3</ele>
        <time>2026-03-26T22:17:30Z</time>
      </trkpt>
      <trkpt lat="44.14798" lon="5.21267">
        <ele>725.1</ele>
        <time>2026-03-26T22:17:33Z</time>
      </trkpt>
      <trkpt lat="44.14761" lon="5.21342">
        <ele>719</ele>
        <time>2026-03-26T22:17:44Z</time>
      </trkpt>
      <trkpt lat="44.14708" lon="5.21414">
        <ele>713.7</ele>
        <time>2026-03-26T22:17:57Z</time>
      </trkpt>
      <trkpt lat="44.14684" lon="5.21474">
        <ele>709.6</ele>
        <time>2026-03-26T22:18:06Z</time>
      </trkpt>
      <trkpt lat="44.14653" lon="5.21562">
        <ele>703.3</ele>
        <time>2026-03-26T22:18:19Z</time>
      </trkpt>
      <trkpt lat="44.14645" lon="5.21573">
        <ele>702</ele>
        <time>2026-03-26T22:18:21Z</time>
      </trkpt>
      <trkpt lat="44.1464" lon="5.21573">
        <ele>701.4</ele>
        <time>2026-03-26T22:18:22Z</time>
      </trkpt>
      <trkpt lat="44.14636" lon="5.21557">
        <ele>700.1</ele>
        <time>2026-03-26T22:18:24Z</time>
      </trkpt>
      <trkpt lat="44.14634" lon="5.21497">
        <ele>695.7</ele>
        <time>2026-03-26T22:18:31Z</time>
      </trkpt>
      <trkpt lat="44.14621" lon="5.21397">
        <ele>689.6</ele>
        <time>2026-03-26T22:18:44Z</time>
      </trkpt>
      <trkpt lat="44.14621" lon="5.21379">
        <ele>688.7</ele>
        <time>2026-03-26T22:18:47Z</time>
      </trkpt>
      <trkpt lat="44.14627" lon="5.21348">
        <ele>687.2</ele>
        <time>2026-03-26T22:18:51Z</time>
      </trkpt>
      <trkpt lat="44.14663" lon="5.21299">
        <ele>684.1</ele>
        <time>2026-03-26T22:19:00Z</time>
      </trkpt>
      <trkpt lat="44.1467" lon="5.21281">
        <ele>683.1</ele>
        <time>2026-03-26T22:19:02Z</time>
      </trkpt>
      <trkpt lat="44.14667" lon="5.21261">
        <ele>681.9</ele>
        <time>2026-03-26T22:19:05Z</time>
      </trkpt>
      <trkpt lat="44.14624" lon="5.21153">
        <ele>673</ele>
        <time>2026-03-26T22:19:21Z</time>
      </trkpt>
      <trkpt lat="44.14619" lon="5.2111">
        <ele>669.9</ele>
        <time>2026-03-26T22:19:26Z</time>
      </trkpt>
      <trkpt lat="44.14622" lon="5.2109">
        <ele>668.6</ele>
        <time>2026-03-26T22:19:29Z</time>
      </trkpt>
      <trkpt lat="44.14677" lon="5.20909">
        <ele>654.8</ele>
        <time>2026-03-26T22:19:54Z</time>
      </trkpt>
      <trkpt lat="44.14677" lon="5.209">
        <ele>653.8</ele>
        <time>2026-03-26T22:19:55Z</time>
      </trkpt>
      <trkpt lat="44.14674" lon="5.20893">
        <ele>653</ele>
        <time>2026-03-26T22:19:56Z</time>
      </trkpt>
      <trkpt lat="44.14669" lon="5.20891">
        <ele>652.3</ele>
        <time>2026-03-26T22:19:57Z</time>
      </trkpt>
      <trkpt lat="44.14661" lon="5.20891">
        <ele>651.4</ele>
        <time>2026-03-26T22:19:59Z</time>
      </trkpt>
      <trkpt lat="44.14653" lon="5.20895">
        <ele>650.6</ele>
        <time>2026-03-26T22:20:00Z</time>
      </trkpt>
      <trkpt lat="44.14591" lon="5.20979">
        <ele>643.5</ele>
        <time>2026-03-26T22:20:15Z</time>
      </trkpt>
      <trkpt lat="44.14586" lon="5.20981">
        <ele>643</ele>
        <time>2026-03-26T22:20:16Z</time>
      </trkpt>
      <trkpt lat="44.14581" lon="5.20979">
        <ele>642.5</ele>
        <time>2026-03-26T22:20:17Z</time>
      </trkpt>
      <trkpt lat="44.14579" lon="5.20974">
        <ele>642.1</ele>
        <time>2026-03-26T22:20:18Z</time>
      </trkpt>
      <trkpt lat="44.14594" lon="5.20933">
        <ele>639</ele>
        <time>2026-03-26T22:20:24Z</time>
      </trkpt>
      <trkpt lat="44.14597" lon="5.20801">
        <ele>629.7</ele>
        <time>2026-03-26T22:20:41Z</time>
      </trkpt>
      <trkpt lat="44.14615" lon="5.20766">
        <ele>626.3</ele>
        <time>2026-03-26T22:20:46Z</time>
      </trkpt>
      <trkpt lat="44.14618" lon="5.20756">
        <ele>625</ele>
        <time>2026-03-26T22:20:48Z</time>
      </trkpt>
      <trkpt lat="44.14611" lon="5.2074">
        <ele>622.7</ele>
        <time>2026-03-26T22:20:50Z</time>
      </trkpt>
      <trkpt lat="44.14589" lon="5.20727">
        <ele>619.2</ele>
        <time>2026-03-26T22:20:54Z</time>
      </trkpt>
      <trkpt lat="44.14578" lon="5.20726">
        <ele>618</ele>
        <time>2026-03-26T22:20:56Z</time>
      </trkpt>
      <trkpt lat="44.14569" lon="5.20729">
        <ele>617.1</ele>
        <time>2026-03-26T22:20:58Z</time>
      </trkpt>
      <trkpt lat="44.14547" lon="5.2075">
        <ele>614.7</ele>
        <time>2026-03-26T22:21:03Z</time>
      </trkpt>
      <trkpt lat="44.14532" lon="5.20774">
        <ele>612.7</ele>
        <time>2026-03-26T22:21:07Z</time>
      </trkpt>
      <trkpt lat="44.14518" lon="5.20804">
        <ele>610.2</ele>
        <time>2026-03-26T22:21:11Z</time>
      </trkpt>
      <trkpt lat="44.14504" lon="5.2085">
        <ele>606.6</ele>
        <time>2026-03-26T22:21:18Z</time>
      </trkpt>
      <trkpt lat="44.145" lon="5.20856">
        <ele>606</ele>
        <time>2026-03-26T22:21:19Z</time>
      </trkpt>
      <trkpt lat="44.14491" lon="5.20857">
        <ele>605</ele>
        <time>2026-03-26T22:21:20Z</time>
      </trkpt>
      <trkpt lat="44.1446" lon="5.2085">
        <ele>602.1</ele>
        <time>2026-03-26T22:21:26Z</time>
      </trkpt>
      <trkpt lat="44.14413" lon="5.20861">
        <ele>597.8</ele>
        <time>2026-03-26T22:21:34Z</time>
      </trkpt>
      <trkpt lat="44.14401" lon="5.20869">
        <ele>596.6</ele>
        <time>2026-03-26T22:21:37Z</time>
      </trkpt>
      <trkpt lat="44.14389" lon="5.20882">
        <ele>595.3</ele>
        <time>2026-03-26T22:21:39Z</time>
      </trkpt>
      <trkpt lat="44.14366" lon="5.2092">
        <ele>592.1</ele>
        <time>2026-03-26T22:21:46Z</time>
      </trkpt>
      <trkpt lat="44.1436" lon="5.20924">
        <ele>591.5</ele>
        <time>2026-03-26T22:21:47Z</time>
      </trkpt>
      <trkpt lat="44.14315" lon="5.20931">
        <ele>588.1</ele>
        <time>2026-03-26T22:21:55Z</time>
      </trkpt>
      <trkpt lat="44.14306" lon="5.20935">
        <ele>587.7</ele>
        <time>2026-03-26T22:21:57Z</time>
      </trkpt>
      <trkpt lat="44.143" lon="5.20941">
        <ele>587.5</ele>
        <time>2026-03-26T22:21:58Z</time>
      </trkpt>
      <trkpt lat="44.14294" lon="5.20953">
        <ele>587.2</ele>
        <time>2026-03-26T22:22:00Z</time>
      </trkpt>
      <trkpt lat="44.14286" lon="5.20983">
        <ele>586.6</ele>
        <time>2026-03-26T22:22:04Z</time>
      </trkpt>
      <trkpt lat="44.14278" lon="5.20994">
        <ele>586.1</ele>
        <time>2026-03-26T22:22:06Z</time>
      </trkpt>
      <trkpt lat="44.14268" lon="5.20991">
        <ele>585.3</ele>
        <time>2026-03-26T22:22:08Z</time>
      </trkpt>
      <trkpt lat="44.14262" lon="5.20986">
        <ele>584.6</ele>
        <time>2026-03-26T22:22:09Z</time>
      </trkpt>
      <trkpt lat="44.14248" lon="5.20963">
        <ele>582.2</ele>
        <time>2026-03-26T22:22:13Z</time>
      </trkpt>
      <trkpt lat="44.14241" lon="5.20959">
        <ele>581.5</ele>
        <time>2026-03-26T22:22:14Z</time>
      </trkpt>
      <trkpt lat="44.14234" lon="5.20958">
        <ele>580.8</ele>
        <time>2026-03-26T22:22:16Z</time>
      </trkpt>
      <trkpt lat="44.14222" lon="5.20964">
        <ele>579.6</ele>
        <time>2026-03-26T22:22:18Z</time>
      </trkpt>
      <trkpt lat="44.14209" lon="5.20981">
        <ele>577.8</ele>
        <time>2026-03-26T22:22:21Z</time>
      </trkpt>
      <trkpt lat="44.14204" lon="5.20982">
        <ele>577.3</ele>
        <time>2026-03-26T22:22:22Z</time>
      </trkpt>
      <trkpt lat="44.14198" lon="5.20973">
        <ele>576.3</ele>
        <time>2026-03-26T22:22:23Z</time>
      </trkpt>
      <trkpt lat="44.14197" lon="5.20956">
        <ele>575.1</ele>
        <time>2026-03-26T22:22:26Z</time>
      </trkpt>
      <trkpt lat="44.14205" lon="5.20902">
        <ele>571.3</ele>
        <time>2026-03-26T22:22:33Z</time>
      </trkpt>
      <trkpt lat="44.14223" lon="5.20845">
        <ele>567.3</ele>
        <time>2026-03-26T22:22:41Z</time>
      </trkpt>
      <trkpt lat="44.14224" lon="5.20835">
        <ele>566.4</ele>
        <time>2026-03-26T22:22:42Z</time>
      </trkpt>
      <trkpt lat="44.1422" lon="5.20828">
        <ele>565.7</ele>
        <time>2026-03-26T22:22:43Z</time>
      </trkpt>
      <trkpt lat="44.14208" lon="5.2083">
        <ele>564.5</ele>
        <time>2026-03-26T22:22:45Z</time>
      </trkpt>
      <trkpt lat="44.14169" lon="5.20863">
        <ele>560.5</ele>
        <time>2026-03-26T22:22:53Z</time>
      </trkpt>
      <trkpt lat="44.14156" lon="5.20883">
        <ele>558.9</ele>
        <time>2026-03-26T22:22:57Z</time>
      </trkpt>
      <trkpt lat="44.14143" lon="5.20915">
        <ele>556.2</ele>
        <time>2026-03-26T22:23:01Z</time>
      </trkpt>
      <trkpt lat="44.14138" lon="5.20915">
        <ele>555.5</ele>
        <time>2026-03-26T22:23:02Z</time>
      </trkpt>
      <trkpt lat="44.14131" lon="5.20906">
        <ele>554.4</ele>
        <time>2026-03-26T22:23:04Z</time>
      </trkpt>
      <trkpt lat="44.1413" lon="5.20856">
        <ele>550.8</ele>
        <time>2026-03-26T22:23:10Z</time>
      </trkpt>
      <trkpt lat="44.14148" lon="5.20685">
        <ele>540.3</ele>
        <time>2026-03-26T22:23:32Z</time>
      </trkpt>
      <trkpt lat="44.14157" lon="5.20641">
        <ele>537.5</ele>
        <time>2026-03-26T22:23:38Z</time>
      </trkpt>
      <trkpt lat="44.14178" lon="5.20581">
        <ele>532.8</ele>
        <time>2026-03-26T22:23:47Z</time>
      </trkpt>
      <trkpt lat="44.14176" lon="5.20565">
        <ele>531.2</ele>
        <time>2026-03-26T22:23:49Z</time>
      </trkpt>
      <trkpt lat="44.1417" lon="5.20562">
        <ele>530.4</ele>
        <time>2026-03-26T22:23:50Z</time>
      </trkpt>
      <trkpt lat="44.14153" lon="5.20561">
        <ele>528.6</ele>
        <time>2026-03-26T22:23:53Z</time>
      </trkpt>
      <trkpt lat="44.14135" lon="5.20569">
        <ele>526.8</ele>
        <time>2026-03-26T22:23:56Z</time>
      </trkpt>
      <trkpt lat="44.14105" lon="5.20587">
        <ele>523.6</ele>
        <time>2026-03-26T22:24:02Z</time>
      </trkpt>
      <trkpt lat="44.14076" lon="5.2061">
        <ele>520.4</ele>
        <time>2026-03-26T22:24:08Z</time>
      </trkpt>
      <trkpt lat="44.14049" lon="5.20638">
        <ele>517.6</ele>
        <time>2026-03-26T22:24:14Z</time>
      </trkpt>
      <trkpt lat="44.14044" lon="5.20646">
        <ele>516.9</ele>
        <time>2026-03-26T22:24:16Z</time>
      </trkpt>
      <trkpt lat="44.14029" lon="5.20686">
        <ele>513.8</ele>
        <time>2026-03-26T22:24:21Z</time>
      </trkpt>
      <trkpt lat="44.14024" lon="5.20685">
        <ele>513.3</ele>
        <time>2026-03-26T22:24:22Z</time>
      </trkpt>
      <trkpt lat="44.14018" lon="5.2068">
        <ele>512.6</ele>
        <time>2026-03-26T22:24:23Z</time>
      </trkpt>
      <trkpt lat="44.14006" lon="5.20631">
        <ele>509.1</ele>
        <time>2026-03-26T22:24:30Z</time>
      </trkpt>
      <trkpt lat="44.14006" lon="5.20596">
        <ele>507</ele>
        <time>2026-03-26T22:24:35Z</time>
      </trkpt>
      <trkpt lat="44.14023" lon="5.20409">
        <ele>493.3</ele>
        <time>2026-03-26T22:24:59Z</time>
      </trkpt>
      <trkpt lat="44.14029" lon="5.20378">
        <ele>490.7</ele>
        <time>2026-03-26T22:25:03Z</time>
      </trkpt>
      <trkpt lat="44.14067" lon="5.20266">
        <ele>482.5</ele>
        <time>2026-03-26T22:25:19Z</time>
      </trkpt>
      <trkpt lat="44.1407" lon="5.20241">
        <ele>481.8</ele>
        <time>2026-03-26T22:25:22Z</time>
      </trkpt>
      <trkpt lat="44.14068" lon="5.20229">
        <ele>481.6</ele>
        <time>2026-03-26T22:25:23Z</time>
      </trkpt>
      <trkpt lat="44.13994" lon="5.20079">
        <ele>470.9</ele>
        <time>2026-03-26T22:25:47Z</time>
      </trkpt>
      <trkpt lat="44.13991" lon="5.2006">
        <ele>470.2</ele>
        <time>2026-03-26T22:25:49Z</time>
      </trkpt>
      <trkpt lat="44.13993" lon="5.20053">
        <ele>469.9</ele>
        <time>2026-03-26T22:25:50Z</time>
      </trkpt>
      <trkpt lat="44.14004" lon="5.20043">
        <ele>469.3</ele>
        <time>2026-03-26T22:25:52Z</time>
      </trkpt>
      <trkpt lat="44.14016" lon="5.20041">
        <ele>468.6</ele>
        <time>2026-03-26T22:25:54Z</time>
      </trkpt>
      <trkpt lat="44.14048" lon="5.20043">
        <ele>465.6</ele>
        <time>2026-03-26T22:26:00Z</time>
      </trkpt>
      <trkpt lat="44.14082" lon="5.20042">
        <ele>462.5</ele>
        <time>2026-03-26T22:26:06Z</time>
      </trkpt>
      <trkpt lat="44.14105" lon="5.20039">
        <ele>461</ele>
        <time>2026-03-26T22:26:10Z</time>
      </trkpt>
      <trkpt lat="44.14111" lon="5.20032">
        <ele>460.5</ele>
        <time>2026-03-26T22:26:12Z</time>
      </trkpt>
      <trkpt lat="44.14112" lon="5.20022">
        <ele>460.1</ele>
        <time>2026-03-26T22:26:13Z</time>
      </trkpt>
      <trkpt lat="44.14103" lon="5.1999">
        <ele>458.5</ele>
        <time>2026-03-26T22:26:17Z</time>
      </trkpt>
      <trkpt lat="44.14063" lon="5.19913">
        <ele>455</ele>
        <time>2026-03-26T22:26:30Z</time>
      </trkpt>
      <trkpt lat="44.14049" lon="5.19881">
        <ele>455.2</ele>
        <time>2026-03-26T22:26:34Z</time>
      </trkpt>
      <trkpt lat="44.14037" lon="5.19843">
        <ele>456.3</ele>
        <time>2026-03-26T22:26:40Z</time>
      </trkpt>
      <trkpt lat="44.14025" lon="5.19766">
        <ele>458.8</ele>
        <time>2026-03-26T22:26:50Z</time>
      </trkpt>
      <trkpt lat="44.14029" lon="5.1971">
        <ele>459.2</ele>
        <time>2026-03-26T22:26:57Z</time>
      </trkpt>
      <trkpt lat="44.1404" lon="5.19674">
        <ele>458.6</ele>
        <time>2026-03-26T22:27:02Z</time>
      </trkpt>
      <trkpt lat="44.141" lon="5.19577">
        <ele>453.9</ele>
        <time>2026-03-26T22:27:18Z</time>
      </trkpt>
      <trkpt lat="44.14128" lon="5.1952">
        <ele>454.7</ele>
        <time>2026-03-26T22:27:27Z</time>
      </trkpt>
      <trkpt lat="44.14191" lon="5.19374">
        <ele>460.2</ele>
        <time>2026-03-26T22:27:49Z</time>
      </trkpt>
      <trkpt lat="44.14201" lon="5.19341">
        <ele>461.9</ele>
        <time>2026-03-26T22:27:53Z</time>
      </trkpt>
      <trkpt lat="44.14204" lon="5.19312">
        <ele>462.2</ele>
        <time>2026-03-26T22:27:57Z</time>
      </trkpt>
      <trkpt lat="44.14201" lon="5.19227">
        <ele>460.4</ele>
        <time>2026-03-26T22:28:08Z</time>
      </trkpt>
      <trkpt lat="44.14188" lon="5.1917">
        <ele>457.2</ele>
        <time>2026-03-26T22:28:16Z</time>
      </trkpt>
      <trkpt lat="44.14194" lon="5.19156">
        <ele>456.4</ele>
        <time>2026-03-26T22:28:18Z</time>
      </trkpt>
      <trkpt lat="44.14217" lon="5.19145">
        <ele>454.8</ele>
        <time>2026-03-26T22:28:22Z</time>
      </trkpt>
      <trkpt lat="44.14221" lon="5.19138">
        <ele>454.3</ele>
        <time>2026-03-26T22:28:23Z</time>
      </trkpt>
      <trkpt lat="44.14222" lon="5.19125">
        <ele>453.4</ele>
        <time>2026-03-26T22:28:25Z</time>
      </trkpt>
      <trkpt lat="44.14217" lon="5.19119">
        <ele>452.8</ele>
        <time>2026-03-26T22:28:26Z</time>
      </trkpt>
      <trkpt lat="44.14211" lon="5.19117">
        <ele>452.1</ele>
        <time>2026-03-26T22:28:27Z</time>
      </trkpt>
      <trkpt lat="44.14175" lon="5.19129">
        <ele>448.5</ele>
        <time>2026-03-26T22:28:34Z</time>
      </trkpt>
      <trkpt lat="44.14159" lon="5.19132">
        <ele>447.3</ele>
        <time>2026-03-26T22:28:37Z</time>
      </trkpt>
      <trkpt lat="44.14137" lon="5.19153">
        <ele>445.3</ele>
        <time>2026-03-26T22:28:41Z</time>
      </trkpt>
      <trkpt lat="44.1413" lon="5.19157">
        <ele>444.7</ele>
        <time>2026-03-26T22:28:43Z</time>
      </trkpt>
      <trkpt lat="44.14122" lon="5.19154">
        <ele>444</ele>
        <time>2026-03-26T22:28:44Z</time>
      </trkpt>
      <trkpt lat="44.14119" lon="5.19149">
        <ele>443.5</ele>
        <time>2026-03-26T22:28:45Z</time>
      </trkpt>
      <trkpt lat="44.1412" lon="5.1914">
        <ele>443</ele>
        <time>2026-03-26T22:28:46Z</time>
      </trkpt>
      <trkpt lat="44.14158" lon="5.19099">
        <ele>438.8</ele>
        <time>2026-03-26T22:28:55Z</time>
      </trkpt>
      <trkpt lat="44.14209" lon="5.1905">
        <ele>433.5</ele>
        <time>2026-03-26T22:29:06Z</time>
      </trkpt>
      <trkpt lat="44.1423" lon="5.19039">
        <ele>431.6</ele>
        <time>2026-03-26T22:29:10Z</time>
      </trkpt>
      <trkpt lat="44.14247" lon="5.19034">
        <ele>430.1</ele>
        <time>2026-03-26T22:29:13Z</time>
      </trkpt>
      <trkpt lat="44.14286" lon="5.19029">
        <ele>429.1</ele>
        <time>2026-03-26T22:29:20Z</time>
      </trkpt>
      <trkpt lat="44.14294" lon="5.19023">
        <ele>429.4</ele>
        <time>2026-03-26T22:29:21Z</time>
      </trkpt>
      <trkpt lat="44.14294" lon="5.19008">
        <ele>428.9</ele>
        <time>2026-03-26T22:29:23Z</time>
      </trkpt>
      <trkpt lat="44.14272" lon="5.18984">
        <ele>426.3</ele>
        <time>2026-03-26T22:29:28Z</time>
      </trkpt>
      <trkpt lat="44.14197" lon="5.18921">
        <ele>416.8</ele>
        <time>2026-03-26T22:29:44Z</time>
      </trkpt>
      <trkpt lat="44.14181" lon="5.18914">
        <ele>415.2</ele>
        <time>2026-03-26T22:29:47Z</time>
      </trkpt>
      <trkpt lat="44.14122" lon="5.18903">
        <ele>410.7</ele>
        <time>2026-03-26T22:29:57Z</time>
      </trkpt>
      <trkpt lat="44.14068" lon="5.18907">
        <ele>405.6</ele>
        <time>2026-03-26T22:30:07Z</time>
      </trkpt>
      <trkpt lat="44.13989" lon="5.18889">
        <ele>398</ele>
        <time>2026-03-26T22:30:21Z</time>
      </trkpt>
      <trkpt lat="44.1393" lon="5.18881">
        <ele>392.9</ele>
        <time>2026-03-26T22:30:32Z</time>
      </trkpt>
      <trkpt lat="44.13908" lon="5.18882">
        <ele>390.9</ele>
        <time>2026-03-26T22:30:36Z</time>
      </trkpt>
      <trkpt lat="44.13899" lon="5.18878">
        <ele>390.2</ele>
        <time>2026-03-26T22:30:37Z</time>
      </trkpt>
      <trkpt lat="44.13884" lon="5.18861">
        <ele>388.6</ele>
        <time>2026-03-26T22:30:41Z</time>
      </trkpt>
      <trkpt lat="44.13859" lon="5.18851">
        <ele>386.8</ele>
        <time>2026-03-26T22:30:46Z</time>
      </trkpt>
      <trkpt lat="44.13831" lon="5.18849">
        <ele>385.1</ele>
        <time>2026-03-26T22:30:50Z</time>
      </trkpt>
      <trkpt lat="44.13817" lon="5.18861">
        <ele>383.9</ele>
        <time>2026-03-26T22:30:53Z</time>
      </trkpt>
      <trkpt lat="44.13755" lon="5.18861">
        <ele>380.4</ele>
        <time>2026-03-26T22:31:04Z</time>
      </trkpt>
      <trkpt lat="44.13669" lon="5.18835">
        <ele>378.3</ele>
        <time>2026-03-26T22:31:20Z</time>
      </trkpt>
      <trkpt lat="44.13655" lon="5.18828">
        <ele>378.2</ele>
        <time>2026-03-26T22:31:23Z</time>
      </trkpt>
      <trkpt lat="44.1361" lon="5.18817">
        <ele>377.3</ele>
        <time>2026-03-26T22:31:31Z</time>
      </trkpt>
      <trkpt lat="44.13564" lon="5.18801">
        <ele>374.7</ele>
        <time>2026-03-26T22:31:39Z</time>
      </trkpt>
      <trkpt lat="44.13551" lon="5.18803">
        <ele>373.9</ele>
        <time>2026-03-26T22:31:42Z</time>
      </trkpt>
      <trkpt lat="44.13545" lon="5.18801">
        <ele>373.4</ele>
        <time>2026-03-26T22:31:43Z</time>
      </trkpt>
      <trkpt lat="44.13531" lon="5.18788">
        <ele>372.3</ele>
        <time>2026-03-26T22:31:46Z</time>
      </trkpt>
      <trkpt lat="44.13511" lon="5.18787">
        <ele>371.1</ele>
        <time>2026-03-26T22:31:49Z</time>
      </trkpt>
      <trkpt lat="44.13474" lon="5.18777">
        <ele>368.7</ele>
        <time>2026-03-26T22:31:56Z</time>
      </trkpt>
      <trkpt lat="44.1339" lon="5.18778">
        <ele>363.5</ele>
        <time>2026-03-26T22:32:11Z</time>
      </trkpt>
      <trkpt lat="44.13383" lon="5.18775">
        <ele>363</ele>
        <time>2026-03-26T22:32:12Z</time>
      </trkpt>
      <trkpt lat="44.13358" lon="5.18753">
        <ele>360.8</ele>
        <time>2026-03-26T22:32:18Z</time>
      </trkpt>
      <trkpt lat="44.13294" lon="5.18691">
        <ele>356.5</ele>
        <time>2026-03-26T22:32:31Z</time>
      </trkpt>
      <trkpt lat="44.13281" lon="5.18667">
        <ele>355.1</ele>
        <time>2026-03-26T22:32:35Z</time>
      </trkpt>
      <trkpt lat="44.13267" lon="5.18633">
        <ele>353.3</ele>
        <time>2026-03-26T22:32:40Z</time>
      </trkpt>
      <trkpt lat="44.1325" lon="5.18613">
        <ele>352.6</ele>
        <time>2026-03-26T22:32:44Z</time>
      </trkpt>
      <trkpt lat="44.13241" lon="5.18614">
        <ele>352.4</ele>
        <time>2026-03-26T22:32:46Z</time>
      </trkpt>
      <trkpt lat="44.13211" lon="5.18647">
        <ele>351.3</ele>
        <time>2026-03-26T22:32:53Z</time>
      </trkpt>
      <trkpt lat="44.13134" lon="5.18752">
        <ele>348.7</ele>
        <time>2026-03-26T22:33:12Z</time>
      </trkpt>
      <trkpt lat="44.13059" lon="5.18849">
        <ele>346</ele>
        <time>2026-03-26T22:33:30Z</time>
      </trkpt>
      <trkpt lat="44.13038" lon="5.18865">
        <ele>345.2</ele>
        <time>2026-03-26T22:33:34Z</time>
      </trkpt>
      <trkpt lat="44.13021" lon="5.18872">
        <ele>344.5</ele>
        <time>2026-03-26T22:33:37Z</time>
      </trkpt>
      <trkpt lat="44.12958" lon="5.18871">
        <ele>341</ele>
        <time>2026-03-26T22:33:49Z</time>
      </trkpt>
      <trkpt lat="44.12859" lon="5.18862">
        <ele>335.7</ele>
        <time>2026-03-26T22:34:06Z</time>
      </trkpt>
      <trkpt lat="44.12848" lon="5.18846">
        <ele>335.4</ele>
        <time>2026-03-26T22:34:09Z</time>
      </trkpt>
      <trkpt lat="44.1282" lon="5.18823">
        <ele>334.3</ele>
        <time>2026-03-26T22:34:15Z</time>
      </trkpt>
      <trkpt lat="44.12793" lon="5.18811">
        <ele>333.5</ele>
        <time>2026-03-26T22:34:20Z</time>
      </trkpt>
      <trkpt lat="44.12725" lon="5.18796">
        <ele>332.5</ele>
        <time>2026-03-26T22:34:32Z</time>
      </trkpt>
      <trkpt lat="44.12705" lon="5.18786">
        <ele>332.4</ele>
        <time>2026-03-26T22:34:36Z</time>
      </trkpt>
      <trkpt lat="44.12689" lon="5.1877">
        <ele>332.3</ele>
        <time>2026-03-26T22:34:39Z</time>
      </trkpt>
      <trkpt lat="44.12677" lon="5.18753">
        <ele>332.2</ele>
        <time>2026-03-26T22:34:42Z</time>
      </trkpt>
      <trkpt lat="44.12666" lon="5.18732">
        <ele>332.1</ele>
        <time>2026-03-26T22:34:46Z</time>
      </trkpt>
      <trkpt lat="44.12657" lon="5.18708">
        <ele>331.7</ele>
        <time>2026-03-26T22:34:49Z</time>
      </trkpt>
      <trkpt lat="44.1264" lon="5.18608">
        <ele>329.5</ele>
        <time>2026-03-26T22:35:02Z</time>
      </trkpt>
      <trkpt lat="44.12648" lon="5.1851">
        <ele>328.7</ele>
        <time>2026-03-26T22:35:15Z</time>
      </trkpt>
      <trkpt lat="44.12659" lon="5.18473">
        <ele>328.4</ele>
        <time>2026-03-26T22:35:20Z</time>
      </trkpt>
      <trkpt lat="44.12677" lon="5.18433">
        <ele>327.8</ele>
        <time>2026-03-26T22:35:26Z</time>
      </trkpt>
      <trkpt lat="44.12688" lon="5.18397">
        <ele>327.4</ele>
        <time>2026-03-26T22:35:31Z</time>
      </trkpt>
      <trkpt lat="44.1269" lon="5.18386">
        <ele>327.2</ele>
        <time>2026-03-26T22:35:33Z</time>
      </trkpt>
      <trkpt lat="44.12688" lon="5.18374">
        <ele>326.7</ele>
        <time>2026-03-26T22:35:34Z</time>
      </trkpt>
      <trkpt lat="44.12679" lon="5.18355">
        <ele>325.7</ele>
        <time>2026-03-26T22:35:37Z</time>
      </trkpt>
      <trkpt lat="44.12647" lon="5.18323">
        <ele>323.8</ele>
        <time>2026-03-26T22:35:44Z</time>
      </trkpt>
      <trkpt lat="44.12641" lon="5.1831">
        <ele>323.3</ele>
        <time>2026-03-26T22:35:46Z</time>
      </trkpt>
      <trkpt lat="44.12646" lon="5.18228">
        <ele>320.1</ele>
        <time>2026-03-26T22:35:57Z</time>
      </trkpt>
      <trkpt lat="44.12645" lon="5.18203">
        <ele>318.9</ele>
        <time>2026-03-26T22:36:00Z</time>
      </trkpt>
      <trkpt lat="44.12629" lon="5.18133">
        <ele>316.2</ele>
        <time>2026-03-26T22:36:09Z</time>
      </trkpt>
      <trkpt lat="44.12626" lon="5.18127">
        <ele>315.9</ele>
        <time>2026-03-26T22:36:10Z</time>
      </trkpt>
      <trkpt lat="44.12614" lon="5.18115">
        <ele>315.3</ele>
        <time>2026-03-26T22:36:13Z</time>
      </trkpt>
      <trkpt lat="44.1253" lon="5.18045">
        <ele>312.5</ele>
        <time>2026-03-26T22:36:30Z</time>
      </trkpt>
      <trkpt lat="44.12526" lon="5.18035">
        <ele>312.5</ele>
        <time>2026-03-26T22:36:32Z</time>
      </trkpt>
      <trkpt lat="44.12531" lon="5.18027">
        <ele>312.8</ele>
        <time>2026-03-26T22:36:33Z</time>
      </trkpt>
    </trkseg>
  </trk>
</gpx>